Provisional Data: Trout Brook near McGraw, NY


Please select a monitoring station.
Please select start date.
Please select start date.

Toggle Unit: C/F Toggle Unit: C/F
Sample Time Temperature (C) Temperature (F) Specific Conductivity (mS/cm) pH   Turbidity (NTU+) DO (mg/L)
12/23/2022 12:00:00 AM 1.45 34.61 0.184 7.56 7.55 13.73
12/23/2022 12:15:00 AM 1.39 34.502 0.186 7.56 8.18 13.74
12/23/2022 12:30:00 AM 1.33 34.394 0.188 7.56 9.62 13.75
12/23/2022 12:45:00 AM 1.27 34.286 0.187 7.55 12.44 13.77
12/23/2022 1:00:00 AM 1.22 34.196 0.186 7.55 14.09 13.78
12/23/2022 1:15:00 AM 1.17 34.106 0.185 7.54 16.7 13.78
12/23/2022 1:30:00 AM 1.12 34.016 0.186 7.53 21.34 13.79
12/23/2022 1:45:00 AM 1.06 33.908 0.183 7.52 25.26 13.8
12/23/2022 2:00:00 AM 0.99 33.782 0.179 7.51 25.59 13.82
12/23/2022 2:15:00 AM 0.93 33.674 0.176 7.49 38.98 13.83
12/23/2022 2:30:00 AM 0.87 33.566 0.172 7.48 46.49 13.85
12/23/2022 2:45:00 AM 0.84 33.512 0.167 7.47 48.67 13.86
12/23/2022 3:00:00 AM 0.81 33.458 0.163 7.46 54.64 13.87
12/23/2022 3:15:00 AM 0.81 33.458 0.161 7.44 62.85 13.86
12/23/2022 3:30:00 AM 0.82 33.476 0.156 7.42 69.95 13.85
12/23/2022 3:45:00 AM 0.83 33.494 0.152 7.4 79.92 13.85
12/23/2022 4:00:00 AM 0.81 33.458 0.146 7.38 86.17 13.85
12/23/2022 4:15:00 AM 0.77 33.386 0.142 7.38 101.75 13.85
12/23/2022 4:30:00 AM 0.74 33.332 0.138 7.36 351.96 13.86
12/23/2022 4:45:00 AM 0.71 33.278 0.133 7.37 5050.98 13.86
12/23/2022 5:00:00 AM 0.7 33.26 0.128 7.32 141.26 13.86
12/23/2022 5:15:00 AM 0.66 33.188 0.123 7.32 149.87 13.86
12/23/2022 5:30:00 AM 0.63 33.134 0.118 7.33 149.88 13.86
12/23/2022 5:45:00 AM 0.68 33.224 0.114 7.3 154.25 13.86
12/23/2022 6:00:00 AM 0.71 33.278 0.111 7.3 156.41 13.85
12/23/2022 6:15:00 AM 0.74 33.332 0.108 7.31 153.39 13.83
12/23/2022 6:30:00 AM 0.78 33.404 0.105 7.27 161.26 13.81
12/23/2022 6:45:00 AM 0.8 33.44 0.102 7.26 149.5 13.8
12/23/2022 7:00:00 AM 0.83 33.494 0.1 7.29 145.56 13.78
12/23/2022 7:15:00 AM 0.86 33.548 0.098 7.26 144.27 13.76
12/23/2022 7:30:00 AM 0.87 33.566 0.098 7.25 140.75 13.76
12/23/2022 7:45:00 AM 0.93 33.674 0.097 7.24 137 13.73
12/23/2022 8:00:00 AM 0.97 33.746 0.097 7.22 133.38 13.72
12/23/2022 8:15:00 AM 1.01 33.818 0.096 7.22 133.44 13.7
12/23/2022 8:30:00 AM 1.03 33.854 0.096 7.22 121.87 13.67
12/23/2022 8:45:00 AM 1.06 33.908 0.096 7.22 121.43 13.65
12/23/2022 9:00:00 AM 1.11 33.998 0.096 7.21 115.22 13.64
12/23/2022 9:15:00 AM 1.14 34.052 0.096 7.21 108.83 13.62
12/23/2022 9:30:00 AM 1.18 34.124 0.096 7.22 99.27 13.6
12/23/2022 9:45:00 AM 1.22 34.196 0.096 7.23 99.16 13.59
12/23/2022 10:00:00 AM 1.27 34.286 0.096 7.2 92.61 13.58
12/23/2022 10:15:00 AM 1.32 34.376 0.097 7.2 85.33 13.56
12/23/2022 10:30:00 AM 1.37 34.466 0.098 7.22 84.42 13.54
12/23/2022 10:45:00 AM 1.42 34.556 0.098 7.22 76.47 13.52
12/23/2022 11:00:00 AM 1.47 34.646 0.098 7.21 72.26 13.49
12/23/2022 11:15:00 AM 1.5 34.7 0.099 7.21 68.2 13.48
12/23/2022 11:30:00 AM 1.54 34.772 0.1 7.22 67.99 13.46
12/23/2022 11:45:00 AM 1.44 34.592 0.1 7.21 62.28 13.46
12/23/2022 12:00:00 PM 1.35 34.43 0.1 7.21 68.55 13.48
12/23/2022 12:15:00 PM 1.3 34.34 0.1 7.21 64.28 13.52
12/23/2022 12:30:00 PM 1.26 34.268 0.099 7.21 58.74 13.55
12/23/2022 12:45:00 PM 1.18 34.124 0.099 7.2 57.56 13.57
12/23/2022 1:00:00 PM 1.08 33.944 0.099 7.19 57.76 13.59
12/23/2022 1:15:00 PM 0.96 33.728 0.099 7.2 54.37 13.64
12/23/2022 1:30:00 PM 0.88 33.584 0.098 7.19 52.84 13.69
12/23/2022 1:45:00 PM 0.82 33.476 0.097 7.19 51.55 13.72
12/23/2022 2:00:00 PM 0.76 33.368 0.097 7.2 50.33 13.75
12/23/2022 2:15:00 PM 0.71 33.278 0.097 7.19 44.57 13.77
12/23/2022 2:30:00 PM 0.67 33.206 0.096 7.18 46.15 13.79
12/23/2022 2:45:00 PM 0.61 33.098 0.096 7.18 43.44 13.82
12/23/2022 3:00:00 PM 0.55 32.99 0.097 7.17 42.58 13.83
12/23/2022 3:15:00 PM 0.49 32.882 0.097 7.18 39.51 13.85
12/23/2022 3:30:00 PM 0.44 32.792 0.098 7.18 38 13.88
12/23/2022 3:45:00 PM 0.37 32.666 0.099 7.17 36.03 13.9
12/23/2022 4:00:00 PM 0.31 32.558 0.1 7.16 35.04 13.92
12/23/2022 4:15:00 PM 0.24 32.432 0.101 7.15 33.03 13.95
12/23/2022 4:30:00 PM 0.17 32.306 0.102 7.16 32.17 13.98
12/23/2022 4:45:00 PM 0.1 32.18 0.102 7.15 30.7 14.01
12/23/2022 5:00:00 PM 0.03 32.054 0.103 7.15 28.76 14.03
12/23/2022 5:15:00 PM -0.04 31.928 0.104 7.15 28 14.07
12/23/2022 5:30:00 PM -0.08 31.856 0.104 7.17 26.75 14.08
12/23/2022 5:45:00 PM -0.08 31.856 0.105 7.17 24.81 14.11
12/23/2022 6:00:00 PM -0.07 31.874 0.106 7.16 23.26 14.13
12/23/2022 6:15:00 PM -0.07 31.874 0.106 7.18 21.79 14.14
12/23/2022 6:30:00 PM -0.07 31.874 0.107 7.18 19.71 14.14
12/23/2022 6:45:00 PM -0.07 31.874 0.107 7.19 18.18 14.16
12/23/2022 7:00:00 PM -0.07 31.874 0.108 7.18 17.57 14.16
12/23/2022 7:15:00 PM -0.07 31.874 0.108 7.19 16.48 14.17
12/23/2022 7:30:00 PM -0.07 31.874 0.109 7.18 15.05 14.17
12/23/2022 7:45:00 PM -0.07 31.874 0.11 7.18 14.34 14.18
12/23/2022 8:00:00 PM -0.07 31.874 0.11 7.19 13.88 14.18
12/23/2022 8:15:00 PM -0.07 31.874 0.11 7.19 13.18 14.18
12/23/2022 8:30:00 PM -0.07 31.874 0.111 7.19 12.39 14.19
12/23/2022 8:45:00 PM -0.07 31.874 0.111 7.18 11.85 14.19
12/23/2022 9:00:00 PM -0.07 31.874 0.111 7.17 11.82 14.19
12/23/2022 9:15:00 PM -0.07 31.874 0.112 7.18 11.28 14.2
12/23/2022 9:30:00 PM -0.07 31.874 0.112 7.18 10.82 14.2
12/23/2022 9:45:00 PM -0.07 31.874 0.113 7.19 10.41 14.2
12/23/2022 10:00:00 PM -0.07 31.874 0.113 7.17 9.86 14.2
12/23/2022 10:15:00 PM -0.07 31.874 0.113 7.18 9.79 14.2
12/23/2022 10:30:00 PM -0.07 31.874 0.114 7.2 9.58 14.2
12/23/2022 10:45:00 PM -0.07 31.874 0.114 7.2 9.67 14.2
12/23/2022 11:00:00 PM -0.07 31.874 0.114 7.21 9.28 14.21
12/23/2022 11:15:00 PM -0.07 31.874 0.115 7.21 8.94 14.2
12/23/2022 11:30:00 PM -0.07 31.874 0.115 7.2 8.8 14.21
12/23/2022 11:45:00 PM -0.07 31.874 0.115 7.21 8.47 14.21
12/24/2022 12:00:00 AM -0.07 31.874 0.116 7.21 8.22 14.21
12/24/2022 12:15:00 AM -0.07 31.874 0.116 7.22 7.98 14.21
12/24/2022 12:30:00 AM -0.07 31.874 0.116 7.22 7.9 14.22
12/24/2022 12:45:00 AM -0.07 31.874 0.117 7.22 7.48 14.22
12/24/2022 1:00:00 AM -0.07 31.874 0.117 7.23 7.05 14.22
12/24/2022 1:15:00 AM -0.07 31.874 0.117 7.22 7.35 14.22
12/24/2022 1:30:00 AM -0.07 31.874 0.117 7.22 7.49 14.23
12/24/2022 1:45:00 AM -0.07 31.874 0.118 7.22 7.25 14.23
12/24/2022 2:00:00 AM -0.07 31.874 0.118 7.25 7.06 14.23
12/24/2022 2:15:00 AM -0.07 31.874 0.118 7.24 6.65 14.23
12/24/2022 2:30:00 AM -0.07 31.874 0.118 7.24 6.57 14.23
12/24/2022 2:45:00 AM -0.07 31.874 0.118 7.24 6.5 14.23
12/24/2022 3:00:00 AM -0.07 31.874 0.118 7.24 6.45 14.23
12/24/2022 3:15:00 AM -0.07 31.874 0.119 7.24 6.23 14.25
12/24/2022 3:30:00 AM -0.07 31.874 0.119 7.24 6.1 14.25
12/24/2022 3:45:00 AM -0.07 31.874 0.119 7.25 5.91 14.25
12/24/2022 4:00:00 AM -0.07 31.874 0.119 7.23 5.9 14.25
12/24/2022 4:15:00 AM -0.07 31.874 0.12 7.24 5.86 14.25
12/24/2022 4:30:00 AM -0.07 31.874 0.12 7.24 6.08 14.25
12/24/2022 4:45:00 AM -0.07 31.874 0.12 7.25 6.09 14.25
12/24/2022 5:00:00 AM -0.07 31.874 0.121 7.24 6.31 14.25
12/24/2022 5:15:00 AM -0.07 31.874 0.121 7.24 5.94 14.26
12/24/2022 5:30:00 AM -0.07 31.874 0.121 7.26 6.26 14.27
12/24/2022 5:45:00 AM -0.07 31.874 0.12 7.27 7.17 14.26
12/24/2022 6:00:00 AM -0.07 31.874 0.12 7.27 12.02 14.27
12/24/2022 6:15:00 AM -0.07 31.874 0.121 7.25 8.4 14.26
12/24/2022 6:30:00 AM -0.07 31.874 0.121 7.26 11.54 14.27
12/24/2022 6:45:00 AM -0.07 31.874 0.121 7.26 10.47 14.26
12/24/2022 7:00:00 AM -0.07 31.874 0.122 7.26 9.54 14.26
12/24/2022 7:15:00 AM -0.07 31.874 0.123 7.26 8.41 14.25
12/24/2022 7:30:00 AM -0.07 31.874 0.123 7.27 7.02 14.27
12/24/2022 7:45:00 AM -0.07 31.874 0.123 7.26 6.36 14.27
12/24/2022 8:00:00 AM -0.07 31.874 0.124 7.26 5.8 14.27
12/24/2022 8:15:00 AM -0.07 31.874 0.124 7.26 5.26 14.27
12/24/2022 8:30:00 AM -0.07 31.874 0.124 7.26 4.69 14.27
12/24/2022 8:45:00 AM -0.07 31.874 0.124 7.27 4.56 14.28
12/24/2022 9:00:00 AM -0.07 31.874 0.125 7.27 4.5 14.29
12/24/2022 9:15:00 AM -0.07 31.874 0.125 7.28 4.57 14.29
12/24/2022 9:30:00 AM -0.07 31.874 0.125 7.29 4.57 14.29
12/24/2022 9:45:00 AM -0.06 31.892 0.125 7.28 4.5 14.3
12/24/2022 10:00:00 AM -0.06 31.892 0.126 7.29 4.66 14.3
12/24/2022 10:15:00 AM -0.06 31.892 0.125 7.29 4.77 14.3
12/24/2022 10:30:00 AM -0.05 31.91 0.125 7.28 4.7 14.31
12/24/2022 10:45:00 AM -0.06 31.892 0.126 7.28 4.9 14.3
12/24/2022 11:00:00 AM -0.06 31.892 0.125 7.29 5.08 14.31
12/24/2022 11:15:00 AM -0.06 31.892 0.125 7.29 5.16 14.31
12/24/2022 11:30:00 AM -0.05 31.91 0.125 7.29 4.92 14.31
12/24/2022 11:45:00 AM -0.06 31.892 0.125 7.29 5.29 14.31
12/24/2022 12:00:00 PM -0.06 31.892 0.125 7.29 5.22 14.31
12/24/2022 12:15:00 PM -0.06 31.892 0.125 7.3 5.37 14.31
12/24/2022 12:30:00 PM -0.06 31.892 0.124 7.29 5.28 14.31
12/24/2022 12:45:00 PM -0.06 31.892 0.124 7.29 5.35 14.32
12/24/2022 1:00:00 PM -0.06 31.892 0.124 7.3 5.34 14.32
12/24/2022 1:15:00 PM -0.06 31.892 0.124 7.29 5.43 14.32
12/24/2022 1:30:00 PM -0.06 31.892 0.124 7.29 5.33 14.32
12/24/2022 1:45:00 PM -0.06 31.892 0.124 7.28 5.23 14.32
12/24/2022 2:00:00 PM -0.06 31.892 0.124 7.29 5.33 14.32
12/24/2022 2:15:00 PM -0.06 31.892 0.124 7.29 5.37 14.33
12/24/2022 2:30:00 PM -0.05 31.91 0.124 7.29 5.38 14.33
12/24/2022 2:45:00 PM -0.06 31.892 0.124 7.29 5.53 14.33
12/24/2022 3:00:00 PM -0.06 31.892 0.124 7.29 5.36 14.33
12/24/2022 3:15:00 PM -0.06 31.892 0.124 7.29 5.31 14.33
12/24/2022 3:30:00 PM -0.07 31.874 0.124 7.29 4.94 14.34
12/24/2022 3:45:00 PM -0.07 31.874 0.124 7.29 4.98 14.33
12/24/2022 4:00:00 PM -0.07 31.874 0.124 7.29 4.89 14.33
12/24/2022 4:15:00 PM -0.07 31.874 0.125 7.29 4.84 14.34
12/24/2022 4:30:00 PM -0.07 31.874 0.125 7.29 4.93 14.33
12/24/2022 4:45:00 PM -0.07 31.874 0.125 7.28 4.79 14.32
12/24/2022 5:00:00 PM -0.07 31.874 0.125 7.29 4.82 14.33
12/24/2022 5:15:00 PM -0.07 31.874 0.126 7.29 4.69 14.32
12/24/2022 5:30:00 PM -0.06 31.892 0.126 7.29 4.67 14.32
12/24/2022 5:45:00 PM -0.06 31.892 0.126 7.3 5.26 14.32
12/24/2022 6:00:00 PM -0.07 31.874 0.126 7.29 4.81 14.31
12/24/2022 6:15:00 PM -0.06 31.892 0.127 7.29 4.82 14.31
12/24/2022 6:30:00 PM -0.07 31.874 0.127 7.29 4.68 14.31
12/24/2022 6:45:00 PM -0.06 31.892 0.127 7.3 5.43 14.32
12/24/2022 7:00:00 PM -0.07 31.874 0.127 7.29 4.51 14.32
12/24/2022 7:15:00 PM -0.07 31.874 0.128 7.29 4.3 14.31
12/24/2022 7:30:00 PM -0.06 31.892 0.128 7.29 4.28 14.31
12/24/2022 7:45:00 PM -0.07 31.874 0.128 7.28 4.08 14.3
12/24/2022 8:00:00 PM -0.07 31.874 0.128 7.29 3.93 14.31
12/24/2022 8:15:00 PM -0.07 31.874 0.129 7.29 4.33 14.31
12/24/2022 8:30:00 PM -0.07 31.874 0.129 7.29 3.99 14.31
12/24/2022 8:45:00 PM -0.07 31.874 0.129 7.29 4.2 14.3
12/24/2022 9:00:00 PM -0.07 31.874 0.129 7.29 3.93 14.31
12/24/2022 9:15:00 PM -0.07 31.874 0.129 7.29 3.95 14.31
12/24/2022 9:30:00 PM -0.07 31.874 0.13 7.3 3.92 14.31
12/24/2022 9:45:00 PM -0.07 31.874 0.13 7.3 3.93 14.31
12/24/2022 10:00:00 PM -0.07 31.874 0.13 7.3 3.93 14.31
12/24/2022 10:15:00 PM -0.07 31.874 0.13 7.3 11.1 14.31
12/24/2022 10:30:00 PM -0.06 31.892 0.13 7.31 4.63 14.31
12/24/2022 10:45:00 PM -0.06 31.892 0.13 7.3 3.82 14.31
12/24/2022 11:00:00 PM -0.06 31.892 0.13 7.3 3.71 14.32
12/24/2022 11:15:00 PM -0.07 31.874 0.13 7.31 3.79 14.31
12/24/2022 11:30:00 PM -0.07 31.874 0.13 7.3 3.78 14.32
12/24/2022 11:45:00 PM -0.07 31.874 0.13 7.31 3.68 14.33
12/25/2022 12:00:00 AM -0.07 31.874 0.131 7.3 3.6 14.32
12/25/2022 12:15:00 AM -0.06 31.892 0.131 7.31 3.56 14.32
12/25/2022 12:30:00 AM -0.07 31.874 0.131 7.3 3.6 14.32
12/25/2022 12:45:00 AM -0.07 31.874 0.131 7.3 3.6 14.33
12/25/2022 1:00:00 AM -0.07 31.874 0.131 7.3 3.63 14.32
12/25/2022 1:15:00 AM -0.07 31.874 0.131 7.3 3.67 14.32
12/25/2022 1:30:00 AM -0.07 31.874 0.131 7.3 3.53 14.32
12/25/2022 1:45:00 AM -0.06 31.892 0.131 7.3 3.58 14.32
12/25/2022 2:00:00 AM -0.06 31.892 0.132 7.31 3.5 14.31
12/25/2022 2:15:00 AM -0.06 31.892 0.131 7.31 3.78 14.32
12/25/2022 2:30:00 AM -0.06 31.892 0.132 7.31 5.25 14.32
12/25/2022 2:45:00 AM -0.07 31.874 0.132 7.31 4.22 14.32
12/25/2022 3:00:00 AM -0.07 31.874 0.132 7.31 3.73 14.32
12/25/2022 3:15:00 AM -0.06 31.892 0.132 7.31 3.92 14.32
12/25/2022 3:30:00 AM -0.06 31.892 0.132 7.31 3.81 14.32
12/25/2022 3:45:00 AM -0.06 31.892 0.132 7.31 3.81 14.32
12/25/2022 4:00:00 AM -0.06 31.892 0.132 7.31 3.58 14.32
12/25/2022 4:15:00 AM -0.06 31.892 0.132 7.31 3.74 14.31
12/25/2022 4:30:00 AM -0.06 31.892 0.132 7.31 9.28 14.31
12/25/2022 4:45:00 AM -0.06 31.892 0.132 7.31 4.64 14.32
12/25/2022 5:00:00 AM -0.06 31.892 0.132 7.31 4.57 14.32
12/25/2022 5:15:00 AM -0.07 31.874 0.132 7.32 3.98 14.31
12/25/2022 5:30:00 AM -0.06 31.892 0.132 7.31 4.1 14.31
12/25/2022 5:45:00 AM -0.06 31.892 0.132 7.32 3.75 14.32
12/25/2022 6:00:00 AM -0.06 31.892 0.132 7.33 4.7 14.32
12/25/2022 6:15:00 AM -0.06 31.892 0.132 7.32 7.13 14.32
12/25/2022 6:30:00 AM -0.06 31.892 0.132 7.33 4.71 14.32
12/25/2022 6:45:00 AM -0.06 31.892 0.132 7.32 3.77 14.33
12/25/2022 7:00:00 AM -0.06 31.892 0.132 7.32 4.09 14.33
12/25/2022 7:15:00 AM -0.06 31.892 0.132 7.32 3.73 14.33
12/25/2022 7:30:00 AM -0.06 31.892 0.132 7.33 3.88 14.34
12/25/2022 7:45:00 AM -0.06 31.892 0.132 7.33 3.87 14.34
12/25/2022 8:00:00 AM -0.07 31.874 0.132 7.33 3.81 14.34
12/25/2022 8:15:00 AM -0.06 31.892 0.132 7.33 3.66 14.35
12/25/2022 8:30:00 AM -0.06 31.892 0.132 7.34 3.72 14.36
12/25/2022 8:45:00 AM -0.06 31.892 0.132 7.34 3.74 14.37
12/25/2022 9:00:00 AM -0.06 31.892 0.132 7.33 3.69 14.38
12/25/2022 9:15:00 AM -0.06 31.892 0.132 7.34 3.58 14.39
12/25/2022 9:30:00 AM -0.06 31.892 0.132 7.34 3.66 14.39
12/25/2022 9:45:00 AM -0.06 31.892 0.132 7.34 3.62 14.4
12/25/2022 10:00:00 AM -0.05 31.91 0.132 7.34 3.77 14.4
12/25/2022 10:15:00 AM -0.05 31.91 0.132 7.34 3.58 14.4
12/25/2022 10:30:00 AM -0.05 31.91 0.132 7.34 3.61 14.41
12/25/2022 10:45:00 AM -0.05 31.91 0.132 7.34 3.89 14.4
12/25/2022 11:00:00 AM -0.05 31.91 0.132 7.34 3.9 14.39
12/25/2022 11:15:00 AM -0.04 31.928 0.132 7.34 4.26 14.4
12/25/2022 11:30:00 AM -0.05 31.91 0.132 7.34 4.36 14.39
12/25/2022 11:45:00 AM -0.05 31.91 0.131 7.34 4.28 14.39
12/25/2022 12:00:00 PM -0.05 31.91 0.131 7.35 4.98 14.39
12/25/2022 12:15:00 PM -0.05 31.91 0.131 7.34 5.4 14.38
12/25/2022 12:30:00 PM -0.04 31.928 0.131 7.34 7.92 14.38
12/25/2022 12:45:00 PM -0.06 31.892 0.13 7.34 17.33 14.38
12/25/2022 1:00:00 PM -0.04 31.928 0.131 7.34 6.49 14.36
12/25/2022 1:15:00 PM -0.05 31.91 0.131 7.34 6.83 14.37
12/25/2022 1:30:00 PM -0.05 31.91 0.131 7.34 7.55 14.37
12/25/2022 1:45:00 PM -0.04 31.928 0.131 7.34 5.69 14.38
12/25/2022 2:00:00 PM -0.04 31.928 0.131 7.34 9.45 14.37
12/25/2022 2:15:00 PM -0.04 31.928 0.131 7.35 6.48 14.37
12/25/2022 2:30:00 PM -0.04 31.928 0.131 7.35 8.27 14.38
12/25/2022 2:45:00 PM -0.03 31.946 0.131 7.34 8.45 14.37
12/25/2022 3:00:00 PM -0.04 31.928 0.131 7.34 7.13 14.38
12/25/2022 3:15:00 PM -0.04 31.928 0.13 7.35 20.64 14.38
12/25/2022 3:30:00 PM -0.04 31.928 0.13 7.35 19.51 14.38
12/25/2022 3:45:00 PM -0.04 31.928 0.13 7.34 10.17 14.38
12/25/2022 4:00:00 PM -0.05 31.91 0.13 7.34 7.61 14.38
12/25/2022 4:15:00 PM -0.05 31.91 0.13 7.33 7.33 14.38
12/25/2022 4:30:00 PM -0.04 31.928 0.131 7.34 6.4 14.38
12/25/2022 4:45:00 PM -0.04 31.928 0.131 7.34 6.82 14.37
12/25/2022 5:00:00 PM -0.04 31.928 0.131 7.33 8.85 14.36
12/25/2022 5:15:00 PM -0.04 31.928 0.131 7.33 5.43 14.35
12/25/2022 5:30:00 PM -0.04 31.928 0.131 7.33 4.73 14.35
12/25/2022 5:45:00 PM -0.04 31.928 0.131 7.33 5.41 14.35
12/25/2022 6:00:00 PM -0.04 31.928 0.131 7.34 5.19 14.35
12/25/2022 6:15:00 PM -0.04 31.928 0.132 7.33 6.9 14.35
12/25/2022 6:30:00 PM -0.05 31.91 0.132 7.34 6.58 14.36
12/25/2022 6:45:00 PM -0.05 31.91 0.132 7.33 5.38 14.35
12/25/2022 7:00:00 PM -0.05 31.91 0.132 7.33 4.84 14.36
12/25/2022 7:15:00 PM -0.04 31.928 0.132 7.33 5.04 14.35
12/25/2022 7:30:00 PM -0.04 31.928 0.132 7.33 5.09 14.36
12/25/2022 7:45:00 PM -0.04 31.928 0.132 7.34 13.89 14.36
12/25/2022 8:00:00 PM -0.05 31.91 0.132 7.34 5.11 14.37
12/25/2022 8:15:00 PM -0.05 31.91 0.132 7.34 4.44 14.37
12/25/2022 8:30:00 PM -0.04 31.928 0.133 7.33 4.18 14.37
12/25/2022 8:45:00 PM -0.04 31.928 0.133 7.34 4.07 14.37
12/25/2022 9:00:00 PM -0.03 31.946 0.133 7.34 3.85 14.37
12/25/2022 9:15:00 PM -0.04 31.928 0.133 7.33 4.21 14.37
12/25/2022 9:30:00 PM -0.03 31.946 0.133 7.34 4.11 14.37
12/25/2022 9:45:00 PM -0.03 31.946 0.133 7.34 4.02 14.37
12/25/2022 10:00:00 PM -0.03 31.946 0.133 7.34 4.33 14.37
12/25/2022 10:15:00 PM -0.03 31.946 0.133 7.34 4.24 14.37
12/25/2022 10:30:00 PM -0.02 31.964 0.133 7.34 4.74 14.37
12/25/2022 10:45:00 PM -0.03 31.946 0.133 7.34 4.54 14.37
12/25/2022 11:00:00 PM -0.03 31.946 0.133 7.35 4.16 14.38
12/25/2022 11:15:00 PM -0.03 31.946 0.134 7.34 4.21 14.38
12/25/2022 11:30:00 PM -0.04 31.928 0.134 7.35 4.08 14.38
12/25/2022 11:45:00 PM -0.04 31.928 0.134 7.35 4 14.39
12/26/2022 12:00:00 AM -0.04 31.928 0.134 7.36 3.96 14.39
12/26/2022 12:15:00 AM -0.03 31.946 0.134 7.36 3.96 14.39
12/26/2022 12:30:00 AM -0.03 31.946 0.134 7.35 3.96 14.39
12/26/2022 12:45:00 AM -0.03 31.946 0.134 7.35 3.97 14.4
12/26/2022 1:00:00 AM -0.03 31.946 0.134 7.35 4.06 14.39
12/26/2022 1:15:00 AM -0.03 31.946 0.134 7.36 4.09 14.39
12/26/2022 1:30:00 AM -0.03 31.946 0.134 7.35 4.11 14.39
12/26/2022 1:45:00 AM -0.04 31.928 0.134 7.36 3.98 14.41
12/26/2022 2:00:00 AM -0.03 31.946 0.135 7.36 3.92 14.4
12/26/2022 2:15:00 AM -0.03 31.946 0.135 7.36 3.95 14.41
12/26/2022 2:30:00 AM -0.03 31.946 0.135 7.36 4.4 14.42
12/26/2022 2:45:00 AM -0.03 31.946 0.135 7.36 4.69 14.42
12/26/2022 3:00:00 AM -0.03 31.946 0.135 7.37 3.73 14.42
12/26/2022 3:15:00 AM -0.04 31.928 0.135 7.36 5.21 14.42
12/26/2022 3:30:00 AM -0.03 31.946 0.136 7.36 3.71 14.43
12/26/2022 3:45:00 AM -0.04 31.928 0.136 7.36 3.95 14.43
12/26/2022 4:00:00 AM -0.04 31.928 0.136 7.36 3.79 14.43
12/26/2022 4:15:00 AM -0.04 31.928 0.136 7.36 3.91 14.44
12/26/2022 4:30:00 AM -0.03 31.946 0.136 7.36 3.71 14.44
12/26/2022 4:45:00 AM -0.04 31.928 0.136 7.36 3.65 14.44
12/26/2022 5:00:00 AM -0.04 31.928 0.136 7.36 3.59 14.45
12/26/2022 5:15:00 AM -0.05 31.91 0.136 7.37 3.65 14.46
12/26/2022 5:30:00 AM -0.05 31.91 0.136 7.36 3.81 14.46
12/26/2022 5:45:00 AM -0.04 31.928 0.136 7.36 3.55 14.46
12/26/2022 6:00:00 AM -0.04 31.928 0.136 7.37 3.65 14.46
12/26/2022 6:15:00 AM -0.03 31.946 0.136 7.36 3.56 14.45
12/26/2022 6:30:00 AM -0.03 31.946 0.137 7.37 4 14.46
12/26/2022 6:45:00 AM -0.03 31.946 0.137 7.36 3.72 14.46
12/26/2022 7:00:00 AM -0.03 31.946 0.137 7.37 3.6 14.45
12/26/2022 7:15:00 AM -0.03 31.946 0.137 7.36 4.21 14.46
12/26/2022 7:30:00 AM -0.04 31.928 0.137 7.37 4.04 14.47
12/26/2022 7:45:00 AM -0.04 31.928 0.137 7.36 4.29 14.47
12/26/2022 8:00:00 AM -0.05 31.91 0.137 7.36 4.41 14.48
12/26/2022 8:15:00 AM -0.05 31.91 0.137 7.37 4.88 14.49
12/26/2022 8:30:00 AM -0.05 31.91 0.137 7.37 3.86 14.5
12/26/2022 8:45:00 AM -0.05 31.91 0.137 7.37 4.89 14.51
12/26/2022 9:00:00 AM -0.03 31.946 0.137 7.37 4.19 14.52
12/26/2022 9:15:00 AM -0.01 31.982 0.138 7.38 5.65 14.52
12/26/2022 9:30:00 AM 0 32 0.138 7.38 4.75 14.53
12/26/2022 9:45:00 AM 0.01 32.018 0.138 7.38 5.19 14.52
12/26/2022 10:00:00 AM 0.02 32.036 0.138 7.38 3.9 14.53
12/26/2022 10:15:00 AM 0.03 32.054 0.138 7.39 3.71 14.53
12/26/2022 10:30:00 AM 0.04 32.072 0.138 7.39 4.2 14.52
12/26/2022 10:45:00 AM 0.06 32.108 0.138 7.39 4.34 14.52
12/26/2022 11:00:00 AM 0.06 32.108 0.138 7.38 108.62 14.51
12/26/2022 11:15:00 AM 0.08 32.144 0.137 7.39 10.2 14.51
12/26/2022 11:30:00 AM 0.09 32.162 0.137 7.39 11.26 14.51
12/26/2022 11:45:00 AM 0.12 32.216 0.137 7.39 6.59 14.49
12/26/2022 12:00:00 PM 0.1 32.18 0.136 7.39 12.48 14.49
12/26/2022 12:15:00 PM 0.14 32.252 0.136 7.39 6.6 14.49
12/26/2022 12:30:00 PM 0.16 32.288 0.136 7.4 6.66 14.47
12/26/2022 12:45:00 PM 0.16 32.288 0.136 7.39 8.48 14.47
12/26/2022 1:00:00 PM 0.15 32.27 0.135 7.39 8.8 14.47
12/26/2022 1:15:00 PM 0.18 32.324 0.135 7.39 6.21 14.46
12/26/2022 1:30:00 PM 0.18 32.324 0.135 7.39 5.91 14.47
12/26/2022 1:45:00 PM 0.2 32.36 0.135 7.38 5.8 14.46
12/26/2022 2:00:00 PM 0.22 32.396 0.134 7.39 6.33 14.45
12/26/2022 2:15:00 PM 0.22 32.396 0.134 7.39 5.97 14.45
12/26/2022 2:30:00 PM 0.24 32.432 0.134 7.4 5.74 14.44
12/26/2022 2:45:00 PM 0.25 32.45 0.134 7.39 5.66 14.44
12/26/2022 3:00:00 PM 0.28 32.504 0.134 7.39 5.57 14.43
12/26/2022 3:15:00 PM 0.28 32.504 0.134 7.4 6.09 14.42
12/26/2022 3:30:00 PM 0.24 32.432 0.135 7.4 5.29 14.41
12/26/2022 3:45:00 PM 0.23 32.414 0.135 7.39 5.32 14.41
12/26/2022 4:00:00 PM 0.2 32.36 0.135 7.4 5.1 14.42
12/26/2022 4:15:00 PM 0.17 32.306 0.135 7.39 5.69 14.42
12/26/2022 4:30:00 PM 0.15 32.27 0.135 7.39 5.77 14.42
12/26/2022 4:45:00 PM 0.12 32.216 0.135 7.39 6.02 14.43
12/26/2022 5:00:00 PM 0.1 32.18 0.135 7.39 5.91 14.42
12/26/2022 5:15:00 PM 0.1 32.18 0.135 7.38 5.45 14.43
12/26/2022 5:30:00 PM 0.1 32.18 0.135 7.39 5.25 14.42
12/26/2022 5:45:00 PM 0.11 32.198 0.135 7.39 4.97 14.42
12/26/2022 6:00:00 PM 0.12 32.216 0.135 7.39 5.43 14.42
12/26/2022 6:15:00 PM 0.12 32.216 0.136 7.38 5.06 14.41
12/26/2022 6:30:00 PM 0.14 32.252 0.136 7.39 4.69 14.41
12/26/2022 6:45:00 PM 0.14 32.252 0.136 7.38 4.66 14.4
12/26/2022 7:00:00 PM 0.16 32.288 0.136 7.39 4.4 14.4
12/26/2022 7:15:00 PM 0.17 32.306 0.136 7.39 4.19 14.4
12/26/2022 7:30:00 PM 0.18 32.324 0.136 7.38 4.42 14.4
12/26/2022 7:45:00 PM 0.19 32.342 0.136 7.38 4.11 14.41
12/26/2022 8:00:00 PM 0.19 32.342 0.136 7.39 4.14 14.39
12/26/2022 8:15:00 PM 0.19 32.342 0.137 7.38 3.99 14.4
12/26/2022 8:30:00 PM 0.19 32.342 0.136 7.39 4.03 14.4
12/26/2022 8:45:00 PM 0.2 32.36 0.137 7.39 3.81 14.39
12/26/2022 9:00:00 PM 0.2 32.36 0.137 7.39 3.7 14.4
12/26/2022 9:15:00 PM 0.21 32.378 0.137 7.39 3.49 14.4
12/26/2022 9:30:00 PM 0.22 32.396 0.137 7.39 3.6 14.4
12/26/2022 9:45:00 PM 0.22 32.396 0.137 7.39 3.54 14.39
12/26/2022 10:00:00 PM 0.23 32.414 0.137 7.39 3.56 14.39
12/26/2022 10:15:00 PM 0.23 32.414 0.137 7.39 3.52 14.39
12/26/2022 10:30:00 PM 0.24 32.432 0.137 7.4 3.42 14.39
12/26/2022 10:45:00 PM 0.25 32.45 0.137 7.4 4.2 14.37
12/26/2022 11:00:00 PM 0.25 32.45 0.138 7.39 3.67 14.38
12/26/2022 11:15:00 PM 0.26 32.468 0.138 7.39 3.59 14.38
12/26/2022 11:30:00 PM 0.26 32.468 0.138 7.4 3.48 14.38
12/26/2022 11:45:00 PM 0.26 32.468 0.138 7.4 3.47 14.37
12/27/2022 12:00:00 AM 0.26 32.468 0.138 7.4 3.6 14.38
12/27/2022 12:15:00 AM 0.27 32.486 0.138 7.4 3.61 14.38
12/27/2022 12:30:00 AM 0.27 32.486 0.138 7.4 3.4 14.37
12/27/2022 12:45:00 AM 0.27 32.486 0.138 7.4 3.32 14.37
12/27/2022 1:00:00 AM 0.27 32.486 0.138 7.4 3.32 14.37
12/27/2022 1:15:00 AM 0.27 32.486 0.138 7.4 3.29 14.38
12/27/2022 1:30:00 AM 0.27 32.486 0.138 7.4 3.33 14.37
12/27/2022 1:45:00 AM 0.27 32.486 0.138 7.41 3.12 14.37
12/27/2022 2:00:00 AM 0.27 32.486 0.138 7.41 3.13 14.37
12/27/2022 2:15:00 AM 0.27 32.486 0.138 7.41 3.19 14.37
12/27/2022 2:30:00 AM 0.27 32.486 0.138 7.4 3.24 14.37
12/27/2022 2:45:00 AM 0.27 32.486 0.138 7.4 3.3 14.37
12/27/2022 3:00:00 AM 0.27 32.486 0.138 7.41 3.25 14.37
12/27/2022 3:15:00 AM 0.27 32.486 0.138 7.41 3.31 14.37
12/27/2022 3:30:00 AM 0.27 32.486 0.138 7.41 3.21 14.38
12/27/2022 3:45:00 AM 0.26 32.468 0.138 7.41 3.31 14.37
12/27/2022 4:00:00 AM 0.27 32.486 0.138 7.4 3.22 14.38
12/27/2022 4:15:00 AM 0.27 32.486 0.138 7.4 3.16 14.38
12/27/2022 4:30:00 AM 0.27 32.486 0.138 7.42 3.3 14.37
12/27/2022 4:45:00 AM 0.28 32.504 0.138 7.41 3.15 14.39
12/27/2022 5:00:00 AM 0.28 32.504 0.139 7.41 3.2 14.38
12/27/2022 5:15:00 AM 0.28 32.504 0.139 7.41 3.22 14.37
12/27/2022 5:30:00 AM 0.28 32.504 0.139 7.41 3.14 14.38
12/27/2022 5:45:00 AM 0.28 32.504 0.139 7.41 3.04 14.38
12/27/2022 6:00:00 AM 0.29 32.522 0.139 7.42 3.03 14.39
12/27/2022 6:15:00 AM 0.28 32.504 0.139 7.41 3.2 14.38
12/27/2022 6:30:00 AM 0.28 32.504 0.139 7.42 3.07 14.38
12/27/2022 6:45:00 AM 0.29 32.522 0.139 7.41 3.02 14.39
12/27/2022 7:00:00 AM 0.29 32.522 0.139 7.41 2.91 14.39
12/27/2022 7:15:00 AM 0.29 32.522 0.139 7.41 2.99 14.38
12/27/2022 7:30:00 AM 0.3 32.54 0.139 7.41 2.94 14.39
12/27/2022 7:45:00 AM 0.3 32.54 0.139 7.41 2.85 14.4
12/27/2022 8:00:00 AM 0.3 32.54 0.139 7.42 2.93 14.39
12/27/2022 8:15:00 AM 0.31 32.558 0.14 7.42 3.04 14.4
12/27/2022 8:30:00 AM 0.33 32.594 0.139 7.43 3.15 14.41
12/27/2022 8:45:00 AM 0.34 32.612 0.139 7.43 3.04 14.42
12/27/2022 9:00:00 AM 0.37 32.666 0.14 7.43 2.95 14.43
12/27/2022 9:15:00 AM 0.4 32.72 0.139 7.43 3 14.42
12/27/2022 9:30:00 AM 0.42 32.756 0.14 7.44 2.94 14.41
12/27/2022 9:45:00 AM 0.46 32.828 0.14 7.44 2.96 14.41
12/27/2022 10:00:00 AM 0.49 32.882 0.14 7.44 2.87 14.42
12/27/2022 10:15:00 AM 0.52 32.936 0.146 7.44 2.91 14.41
12/27/2022 10:30:00 AM 0.56 33.008 0.141 7.45 2.76 14.41
12/27/2022 10:45:00 AM 0.59 33.062 0.141 7.45 2.94 14.41
12/27/2022 11:00:00 AM 0.62 33.116 0.14 7.45 2.75 14.41
12/27/2022 11:15:00 AM 0.7 33.26 0.139 7.45 2.82 14.4
12/27/2022 11:30:00 AM 0.75 33.35 0.139 7.45 2.91 14.39
12/27/2022 11:45:00 AM 0.8 33.44 0.139 7.46 2.67 14.37
12/27/2022 12:00:00 PM 0.85 33.53 0.139 7.45 2.93 14.36
12/27/2022 12:15:00 PM 0.9 33.62 0.139 7.46 2.78 14.34
12/27/2022 12:30:00 PM 0.93 33.674 0.139 7.46 3.02 14.33
12/27/2022 12:45:00 PM 0.96 33.728 0.139 7.46 2.97 14.3
12/27/2022 1:00:00 PM 0.99 33.782 0.14 7.46 2.9 14.3
12/27/2022 1:15:00 PM 1.02 33.836 0.139 7.46 2.96 14.28
12/27/2022 1:30:00 PM 1.01 33.818 0.14 7.47 2.9 14.28
12/27/2022 1:45:00 PM 1.01 33.818 0.14 7.47 2.96 14.27
12/27/2022 2:00:00 PM 1.02 33.836 0.14 7.46 2.95 14.27
12/27/2022 2:15:00 PM 1.04 33.872 0.14 7.46 2.99 14.27
12/27/2022 2:30:00 PM 1.05 33.89 0.14 7.46 2.94 14.26
12/27/2022 2:45:00 PM 1.04 33.872 0.14 7.46 2.96 14.25
12/27/2022 3:00:00 PM 1.03 33.854 0.139 7.46 2.96 14.25
12/27/2022 3:15:00 PM 1.01 33.818 0.139 7.46 3.04 14.25
12/27/2022 3:30:00 PM 0.99 33.782 0.139 7.46 3.06 14.25
12/27/2022 3:45:00 PM 0.96 33.728 0.14 7.47 2.92 14.24
12/27/2022 4:00:00 PM 0.92 33.656 0.14 7.46 3.05 14.25
12/27/2022 4:15:00 PM 0.89 33.602 0.14 7.45 2.85 14.24
12/27/2022 4:30:00 PM 0.87 33.566 0.139 7.45 3.01 14.24
12/27/2022 4:45:00 PM 0.86 33.548 0.139 7.45 2.91 14.23
12/27/2022 5:00:00 PM 0.85 33.53 0.139 7.45 2.82 14.23
12/27/2022 5:15:00 PM 0.84 33.512 0.139 7.45 2.73 14.22
12/27/2022 5:30:00 PM 0.83 33.494 0.14 7.45 2.82 14.22
12/27/2022 5:45:00 PM 0.82 33.476 0.139 7.44 2.78 14.21
12/27/2022 6:00:00 PM 0.82 33.476 0.14 7.44 2.76 14.21
12/27/2022 6:15:00 PM 0.82 33.476 0.14 7.44 2.76 14.22
12/27/2022 6:30:00 PM 0.82 33.476 0.14 7.44 2.68 14.22
12/27/2022 6:45:00 PM 0.82 33.476 0.14 7.44 2.86 14.21
12/27/2022 7:00:00 PM 0.81 33.458 0.14 7.45 2.75 14.22
12/27/2022 7:15:00 PM 0.8 33.44 0.14 7.44 2.71 14.22
12/27/2022 7:30:00 PM 0.79 33.422 0.14 7.44 2.63 14.22
12/27/2022 7:45:00 PM 0.79 33.422 0.14 7.44 2.72 14.22
12/27/2022 8:00:00 PM 0.79 33.422 0.14 7.44 2.65 14.23
12/27/2022 8:15:00 PM 0.79 33.422 0.14 7.44 2.66 14.23
12/27/2022 8:30:00 PM 0.79 33.422 0.14 7.43 2.68 14.23
12/27/2022 8:45:00 PM 0.8 33.44 0.14 7.44 2.55 14.23
12/27/2022 9:00:00 PM 0.8 33.44 0.14 7.44 2.57 14.23
12/27/2022 9:15:00 PM 0.79 33.422 0.14 7.44 2.64 14.23
12/27/2022 9:30:00 PM 0.79 33.422 0.14 7.44 2.59 14.23
12/27/2022 9:45:00 PM 0.78 33.404 0.14 7.45 2.57 14.23
12/27/2022 10:00:00 PM 0.78 33.404 0.14 7.44 2.62 14.23
12/27/2022 10:15:00 PM 0.76 33.368 0.141 7.44 2.58 14.23
12/27/2022 10:30:00 PM 0.74 33.332 0.141 7.44 2.67 14.23
12/27/2022 10:45:00 PM 0.73 33.314 0.141 7.44 2.67 14.25
12/27/2022 11:00:00 PM 0.72 33.296 0.141 7.44 2.63 14.25
12/27/2022 11:15:00 PM 0.71 33.278 0.141 7.44 2.64 14.25
12/27/2022 11:30:00 PM 0.71 33.278 0.141 7.44 2.67 14.26
12/27/2022 11:45:00 PM 0.71 33.278 0.141 7.44 2.67 14.26
12/28/2022 12:00:00 AM 0.7 33.26 0.141 7.44 2.58 14.26
12/28/2022 12:15:00 AM 0.7 33.26 0.141 7.44 2.68 14.26
12/28/2022 12:30:00 AM 0.7 33.26 0.141 7.44 2.65 14.26
12/28/2022 12:45:00 AM 0.7 33.26 0.141 7.44 2.57 14.26
12/28/2022 1:00:00 AM 0.7 33.26 0.141 7.44 2.51 14.26
12/28/2022 1:15:00 AM 0.71 33.278 0.141 7.44 2.6 14.26
12/28/2022 1:30:00 AM 0.71 33.278 0.141 7.44 2.59 14.25
12/28/2022 1:45:00 AM 0.72 33.296 0.142 7.44 2.56 14.25
12/28/2022 2:00:00 AM 0.74 33.332 0.142 7.44 2.63 14.24
12/28/2022 2:15:00 AM 0.75 33.35 0.142 7.44 2.6 14.23
12/28/2022 2:30:00 AM 0.76 33.368 0.142 7.44 2.46 14.23
12/28/2022 2:45:00 AM 0.77 33.386 0.142 7.44 2.62 14.23
12/28/2022 3:00:00 AM 0.77 33.386 0.142 7.45 2.61 14.22
12/28/2022 3:15:00 AM 0.76 33.368 0.142 7.45 2.52 14.23
12/28/2022 3:30:00 AM 0.76 33.368 0.142 7.45 2.63 14.22
12/28/2022 3:45:00 AM 0.77 33.386 0.142 7.45 2.55 14.22
12/28/2022 4:00:00 AM 0.78 33.404 0.142 7.45 2.55 14.23
12/28/2022 4:15:00 AM 0.78 33.404 0.142 7.45 2.54 14.22
12/28/2022 4:30:00 AM 0.78 33.404 0.142 7.45 2.45 14.22
12/28/2022 4:45:00 AM 0.79 33.422 0.142 7.45 2.53 14.21
12/28/2022 5:00:00 AM 0.78 33.404 0.142 7.45 2.46 14.21
12/28/2022 5:15:00 AM 0.77 33.386 0.142 7.44 2.48 14.21
12/28/2022 5:30:00 AM 0.75 33.35 0.142 7.44 2.5 14.22
12/28/2022 5:45:00 AM 0.75 33.35 0.142 7.45 2.46 14.23
12/28/2022 6:00:00 AM 0.74 33.332 0.142 7.44 2.48 14.23
12/28/2022 6:15:00 AM 0.73 33.314 0.142 7.45 2.52 14.23
12/28/2022 6:30:00 AM 0.71 33.278 0.142 7.45 2.44 14.24
12/28/2022 6:45:00 AM 0.7 33.26 0.142 7.45 2.44 14.24
12/28/2022 7:00:00 AM 0.7 33.26 0.142 7.45 2.48 14.24
12/28/2022 7:15:00 AM 0.7 33.26 0.142 7.45 2.44 14.24
12/28/2022 7:30:00 AM 0.7 33.26 0.143 7.45 2.58 14.25
12/28/2022 7:45:00 AM 0.72 33.296 0.143 7.45 2.55 14.25
12/28/2022 8:00:00 AM 0.75 33.35 0.143 7.45 2.48 14.25
12/28/2022 8:15:00 AM 0.78 33.404 0.143 7.46 2.44 14.26
12/28/2022 8:30:00 AM 0.82 33.476 0.143 7.46 2.47 14.26
12/28/2022 8:45:00 AM 0.86 33.548 0.143 7.47 2.42 14.25
12/28/2022 9:00:00 AM 0.92 33.656 0.143 7.47 2.44 14.25
12/28/2022 9:15:00 AM 0.99 33.782 0.142 7.47 2.49 14.26
12/28/2022 9:30:00 AM 1.05 33.89 0.142 7.47 2.49 14.23
12/28/2022 9:45:00 AM 1.11 33.998 0.142 7.47 2.51 14.21
12/28/2022 10:00:00 AM 1.18 34.124 0.142 7.48 2.46 14.21
12/28/2022 10:15:00 AM 1.26 34.268 0.142 7.48 2.35 14.2
12/28/2022 10:30:00 AM 1.35 34.43 0.142 7.48 2.37 14.19
12/28/2022 10:45:00 AM 1.45 34.61 0.142 7.49 2.34 14.17
12/28/2022 11:00:00 AM 1.51 34.718 0.142 7.49 2.31 14.14
12/28/2022 11:15:00 AM 1.58 34.844 0.142 7.49 2.25 14.11
12/28/2022 11:30:00 AM 1.65 34.97 0.143 7.5 2.38 14.08
12/28/2022 11:45:00 AM 1.72 35.096 0.143 7.5 2.33 14.05
12/28/2022 12:00:00 PM 1.77 35.186 0.143 7.5 2.34 14.02
12/28/2022 12:15:00 PM 1.82 35.276 0.143 7.51 2.28 14
12/28/2022 12:30:00 PM 1.88 35.384 0.143 7.51 2.39 13.99
12/28/2022 12:45:00 PM 1.95 35.51 0.143 7.5 2.37 13.97
12/28/2022 1:00:00 PM 2.02 35.636 0.144 7.51 2.26 13.95
12/28/2022 1:15:00 PM 2.08 35.744 0.144 7.5 2.36 13.93
12/28/2022 1:30:00 PM 2.13 35.834 0.144 7.51 2.55 13.91
12/28/2022 1:45:00 PM 2.16 35.888 0.145 7.52 2.81 13.89
12/28/2022 2:00:00 PM 2.19 35.942 0.145 7.51 2.66 13.87
12/28/2022 2:15:00 PM 2.22 35.996 0.145 7.51 2.49 13.85
12/28/2022 2:30:00 PM 2.22 35.996 0.145 7.51 2.41 13.84
12/28/2022 2:45:00 PM 2.22 35.996 0.144 7.51 2.33 13.83
12/28/2022 3:00:00 PM 2.21 35.978 0.145 7.51 2.34 13.83
12/28/2022 3:15:00 PM 2.2 35.96 0.145 7.51 2.39 13.82
12/28/2022 3:30:00 PM 2.21 35.978 0.147 7.51 2.41 13.81
12/28/2022 3:45:00 PM 2.19 35.942 0.146 7.51 2.45 13.8
12/28/2022 4:00:00 PM 2.16 35.888 0.145 7.5 2.41 13.81
12/28/2022 4:15:00 PM 2.13 35.834 0.145 7.5 2.39 13.8
12/28/2022 4:30:00 PM 2.1 35.78 0.144 7.49 2.41 13.79
12/28/2022 4:45:00 PM 2.05 35.69 0.144 7.49 2.48 13.78
12/28/2022 5:00:00 PM 2.01 35.618 0.144 7.48 2.42 13.78
12/28/2022 5:15:00 PM 1.99 35.582 0.144 7.48 2.49 13.77
12/28/2022 5:30:00 PM 1.95 35.51 0.144 7.47 2.4 13.77
12/28/2022 5:45:00 PM 1.92 35.456 0.143 7.48 2.41 13.78
12/28/2022 6:00:00 PM 1.9 35.42 0.143 7.47 2.44 13.78
12/28/2022 6:15:00 PM 1.88 35.384 0.143 7.47 2.4 13.78
12/28/2022 6:30:00 PM 1.86 35.348 0.143 7.47 2.54 13.79
12/28/2022 6:45:00 PM 1.84 35.312 0.143 7.46 2.38 13.79
12/28/2022 7:00:00 PM 1.82 35.276 0.143 7.47 2.47 13.81
12/28/2022 7:15:00 PM 1.8 35.24 0.144 7.46 2.26 13.81
12/28/2022 7:30:00 PM 1.79 35.222 0.143 7.46 2.4 13.81
12/28/2022 7:45:00 PM 1.77 35.186 0.144 7.46 2.37 13.82
12/28/2022 8:00:00 PM 1.75 35.15 0.143 7.46 2.4 13.83
12/28/2022 8:15:00 PM 1.73 35.114 0.144 7.45 2.37 13.84
12/28/2022 8:30:00 PM 1.71 35.078 0.144 7.46 2.33 13.84
12/28/2022 8:45:00 PM 1.69 35.042 0.144 7.46 2.35 13.86
12/28/2022 9:00:00 PM 1.67 35.006 0.144 7.45 2.32 13.87
12/28/2022 9:15:00 PM 1.64 34.952 0.144 7.45 2.32 13.87
12/28/2022 9:30:00 PM 1.62 34.916 0.144 7.45 2.42 13.89
12/28/2022 9:45:00 PM 1.6 34.88 0.144 7.46 2.35 13.9
12/28/2022 10:00:00 PM 1.57 34.826 0.144 7.45 2.33 13.91
12/28/2022 10:15:00 PM 1.55 34.79 0.144 7.45 2.39 13.91
12/28/2022 10:30:00 PM 1.52 34.736 0.144 7.45 2.38 13.92
12/28/2022 10:45:00 PM 1.49 34.682 0.144 7.45 2.37 13.93
12/28/2022 11:00:00 PM 1.48 34.664 0.144 7.45 2.38 13.94
12/28/2022 11:15:00 PM 1.47 34.646 0.145 7.45 2.34 13.94
12/28/2022 11:30:00 PM 1.45 34.61 0.144 7.45 2.47 13.95
12/28/2022 11:45:00 PM 1.42 34.556 0.144 7.45 2.48 13.96
12/29/2022 12:00:00 AM 1.4 34.52 0.144 7.45 2.3 13.97
12/29/2022 12:15:00 AM 1.38 34.484 0.145 7.46 2.44 13.98
12/29/2022 12:30:00 AM 1.35 34.43 0.145 7.45 2.41 13.98
12/29/2022 12:45:00 AM 1.32 34.376 0.145 7.45 2.28 14
12/29/2022 1:00:00 AM 1.3 34.34 0.145 7.45 2.41 14.01
12/29/2022 1:15:00 AM 1.27 34.286 0.145 7.45 2.34 14.02
12/29/2022 1:30:00 AM 1.25 34.25 0.145 7.46 2.31 14.02
12/29/2022 1:45:00 AM 1.23 34.214 0.145 7.46 2.26 14.02
12/29/2022 2:00:00 AM 1.21 34.178 0.145 7.46 2.31 14.04
12/29/2022 2:15:00 AM 1.19 34.142 0.145 7.46 2.34 14.04
12/29/2022 2:30:00 AM 1.18 34.124 0.145 7.45 2.39 14.04
12/29/2022 2:45:00 AM 1.16 34.088 0.145 7.45 2.29 14.05
12/29/2022 3:00:00 AM 1.14 34.052 0.145 7.46 2.4 14.05
12/29/2022 3:15:00 AM 1.12 34.016 0.145 7.45 2.38 14.07
12/29/2022 3:30:00 AM 1.09 33.962 0.145 7.45 2.41 14.07
12/29/2022 3:45:00 AM 1.07 33.926 0.145 7.45 2.3 14.08
12/29/2022 4:00:00 AM 1.06 33.908 0.145 7.46 2.29 14.09
12/29/2022 4:15:00 AM 1.02 33.836 0.145 7.46 2.39 14.1
12/29/2022 4:30:00 AM 0.99 33.782 0.145 7.45 2.28 14.12
12/29/2022 4:45:00 AM 0.96 33.728 0.145 7.46 2.34 14.13
12/29/2022 5:00:00 AM 0.94 33.692 0.145 7.45 2.32 14.14
12/29/2022 5:15:00 AM 0.91 33.638 0.146 7.45 2.31 14.15
12/29/2022 5:30:00 AM 0.89 33.602 0.146 7.45 2.33 14.16
12/29/2022 5:45:00 AM 0.86 33.548 0.146 7.45 2.31 14.16
12/29/2022 6:00:00 AM 0.84 33.512 0.146 7.45 2.23 14.18
12/29/2022 6:15:00 AM 0.81 33.458 0.146 7.46 2.38 14.19
12/29/2022 6:30:00 AM 0.81 33.458 0.146 7.46 2.27 14.19
12/29/2022 6:45:00 AM 0.8 33.44 0.146 7.46 2.31 14.2
12/29/2022 7:00:00 AM 0.78 33.404 0.146 7.45 2.26 14.22
12/29/2022 7:15:00 AM 0.77 33.386 0.146 7.46 2.27 14.22
12/29/2022 7:30:00 AM 0.75 33.35 0.146 7.45 2.25 14.22
12/29/2022 7:45:00 AM 0.74 33.332 0.146 7.46 2.28 14.23
12/29/2022 8:00:00 AM 0.73 33.314 0.146 7.46 2.22 14.25
12/29/2022 8:15:00 AM 0.72 33.296 0.146 7.46 2.29 14.27
12/29/2022 8:30:00 AM 0.72 33.296 0.146 7.46 2.26 14.28
12/29/2022 8:45:00 AM 0.73 33.314 0.146 7.46 2.25 14.3
12/29/2022 9:00:00 AM 0.75 33.35 0.146 7.47 2.34 14.3
12/29/2022 9:15:00 AM 0.78 33.404 0.146 7.47 2.37 14.31
12/29/2022 9:30:00 AM 0.83 33.494 0.146 7.48 2.32 14.31
12/29/2022 9:45:00 AM 0.88 33.584 0.146 7.48 2.23 14.31
12/29/2022 10:00:00 AM 0.94 33.692 0.146 7.48 2.28 14.3
12/29/2022 10:15:00 AM 1.02 33.836 0.146 7.49 2.31 14.3
12/29/2022 10:30:00 AM 1.09 33.962 0.146 7.49 2.37 14.27
12/29/2022 10:45:00 AM 1.17 34.106 0.146 7.49 2.25 14.25
12/29/2022 11:00:00 AM 1.29 34.322 0.146 7.5 2.38 14.24
12/29/2022 11:15:00 AM 1.4 34.52 0.146 7.5 2.42 14.22
12/29/2022 11:30:00 AM 1.52 34.736 0.146 7.51 2.3 14.17
12/29/2022 11:45:00 AM 1.63 34.934 0.146 7.51 2.29 14.13
12/29/2022 12:00:00 PM 1.75 35.15 0.146 7.52 2.38 14.09
12/29/2022 12:15:00 PM 1.85 35.33 0.147 7.52 2.26 14.05
12/29/2022 12:30:00 PM 1.95 35.51 0.148 7.52 2.23 14.03
12/29/2022 12:45:00 PM 2.04 35.672 0.148 7.52 2.29 13.99
12/29/2022 1:00:00 PM 2.11 35.798 0.148 7.52 2.35 13.96
12/29/2022 1:15:00 PM 2.19 35.942 0.148 7.52 2.33 13.93
12/29/2022 1:30:00 PM 2.26 36.068 0.149 7.52 2.29 13.89
12/29/2022 1:45:00 PM 2.33 36.194 0.15 7.52 2.21 13.86
12/29/2022 2:00:00 PM 2.39 36.302 0.151 7.53 2.18 13.83
12/29/2022 2:15:00 PM 2.48 36.464 0.151 7.53 2.35 13.8
12/29/2022 2:30:00 PM 2.53 36.554 0.154 7.53 2.33 13.78
12/29/2022 2:45:00 PM 2.53 36.554 0.155 7.53 2.39 13.76
12/29/2022 3:00:00 PM 2.55 36.59 0.156 7.53 2.47 13.74
12/29/2022 3:15:00 PM 2.59 36.662 0.156 7.54 2.56 13.74
12/29/2022 3:30:00 PM 2.57 36.626 0.155 7.53 2.91 13.71
12/29/2022 3:45:00 PM 2.57 36.626 0.154 7.52 2.99 13.7
12/29/2022 4:00:00 PM 2.58 36.644 0.152 7.52 3.14 13.68
12/29/2022 4:15:00 PM 2.56 36.608 0.151 7.52 3.31 13.66
12/29/2022 4:30:00 PM 2.54 36.572 0.15 7.51 3.4 13.64
12/29/2022 4:45:00 PM 2.53 36.554 0.149 7.51 3.51 13.63
12/29/2022 5:00:00 PM 2.52 36.536 0.149 7.5 3.47 13.62
12/29/2022 5:15:00 PM 2.5 36.5 0.148 7.5 3.33 13.6
12/29/2022 5:30:00 PM 2.47 36.446 0.147 7.49 3.08 13.6
12/29/2022 5:45:00 PM 2.44 36.392 0.147 7.49 2.89 13.59
12/29/2022 6:00:00 PM 2.4 36.32 0.147 7.49 2.97 13.6
12/29/2022 6:15:00 PM 2.37 36.266 0.147 7.48 2.79 13.61
12/29/2022 6:30:00 PM 2.33 36.194 0.147 7.48 2.75 13.62
12/29/2022 6:45:00 PM 2.3 36.14 0.147 7.48 2.55 13.64
12/29/2022 7:00:00 PM 2.27 36.086 0.147 7.48 2.47 13.64
12/29/2022 7:15:00 PM 2.24 36.032 0.147 7.48 2.48 13.66
12/29/2022 7:30:00 PM 2.22 35.996 0.147 7.49 2.42 13.67
12/29/2022 7:45:00 PM 2.23 36.014 0.147 7.49 2.28 13.67
12/29/2022 8:00:00 PM 2.23 36.014 0.147 7.48 2.35 13.68
12/29/2022 8:15:00 PM 2.24 36.032 0.147 7.48 2.33 13.69
12/29/2022 8:30:00 PM 2.25 36.05 0.147 7.48 2.28 13.68
12/29/2022 8:45:00 PM 2.26 36.068 0.147 7.48 2.28 13.67
12/29/2022 9:00:00 PM 2.28 36.104 0.147 7.48 2.29 13.67
12/29/2022 9:15:00 PM 2.29 36.122 0.146 7.48 2.27 13.67
12/29/2022 9:30:00 PM 2.31 36.158 0.147 7.47 2.31 13.66
12/29/2022 9:45:00 PM 2.33 36.194 0.146 7.48 2.32 13.65
12/29/2022 10:00:00 PM 2.34 36.212 0.147 7.48 2.31 13.65
12/29/2022 10:15:00 PM 2.35 36.23 0.146 7.47 2.47 13.64
12/29/2022 10:30:00 PM 2.36 36.248 0.147 7.48 2.36 13.64
12/29/2022 10:45:00 PM 2.37 36.266 0.147 7.48 2.3 13.64
12/29/2022 11:00:00 PM 2.38 36.284 0.147 7.47 2.25 13.64
12/29/2022 11:15:00 PM 2.38 36.284 0.146 7.48 2.32 13.64
12/29/2022 11:30:00 PM 2.38 36.284 0.146 7.47 2.33 13.64
12/29/2022 11:45:00 PM 2.39 36.302 0.146 7.47 2.33 13.63
12/30/2022 12:00:00 AM 2.4 36.32 0.146 7.47 2.27 13.63
12/30/2022 12:15:00 AM 2.4 36.32 0.146 7.48 2.34 13.64
12/30/2022 12:30:00 AM 2.41 36.338 0.146 7.48 2.39 13.63
12/30/2022 12:45:00 AM 2.41 36.338 0.146 7.48 2.34 13.62
12/30/2022 1:00:00 AM 2.41 36.338 0.146 7.47 2.29 13.63
12/30/2022 1:15:00 AM 2.42 36.356 0.146 7.47 2.25 13.63
12/30/2022 1:30:00 AM 2.43 36.374 0.146 7.48 2.39 13.63
12/30/2022 1:45:00 AM 2.42 36.356 0.146 7.48 2.38 13.63
12/30/2022 2:00:00 AM 2.43 36.374 0.146 7.48 2.39 13.63
12/30/2022 2:15:00 AM 2.43 36.374 0.146 7.48 2.37 13.62
12/30/2022 2:30:00 AM 2.44 36.392 0.146 7.47 2.47 13.62
12/30/2022 2:45:00 AM 2.44 36.392 0.146 7.47 2.44 13.62
12/30/2022 3:00:00 AM 2.44 36.392 0.145 7.48 2.41 13.62
12/30/2022 3:15:00 AM 2.45 36.41 0.145 7.48 2.43 13.62
12/30/2022 3:30:00 AM 2.45 36.41 0.145 7.48 2.41 13.62
12/30/2022 3:45:00 AM 2.45 36.41 0.145 7.48 2.51 13.62
12/30/2022 4:00:00 AM 2.45 36.41 0.145 7.48 2.5 13.63
12/30/2022 4:15:00 AM 2.45 36.41 0.145 7.48 2.46 13.62
12/30/2022 4:30:00 AM 2.45 36.41 0.145 7.48 2.57 13.63
12/30/2022 4:45:00 AM 2.45 36.41 0.145 7.49 2.53 13.62
12/30/2022 5:00:00 AM 2.45 36.41 0.145 7.47 2.5 13.62
12/30/2022 5:15:00 AM 2.44 36.392 0.144 7.48 2.57 13.62
12/30/2022 5:30:00 AM 2.44 36.392 0.144 7.48 2.57 13.63
12/30/2022 5:45:00 AM 2.43 36.374 0.144 7.48 2.64 13.63
12/30/2022 6:00:00 AM 2.43 36.374 0.144 7.48 2.63 13.63
12/30/2022 6:15:00 AM 2.42 36.356 0.144 7.47 2.57 13.64
12/30/2022 6:30:00 AM 2.42 36.356 0.144 7.47 2.68 13.63
12/30/2022 6:45:00 AM 2.41 36.338 0.143 7.48 2.69 13.64
12/30/2022 7:00:00 AM 2.4 36.32 0.143 7.46 2.69 13.64
12/30/2022 7:15:00 AM 2.39 36.302 0.143 7.48 2.7 13.65
12/30/2022 7:30:00 AM 2.39 36.302 0.143 7.48 2.74 13.65
12/30/2022 7:45:00 AM 2.38 36.284 0.143 7.48 2.74 13.65
12/30/2022 8:00:00 AM 2.38 36.284 0.142 7.47 2.86 13.67
12/30/2022 8:15:00 AM 2.37 36.266 0.142 7.48 2.81 13.67
12/30/2022 8:30:00 AM 2.38 36.284 0.142 7.48 2.81 13.68
12/30/2022 8:45:00 AM 2.4 36.32 0.141 7.47 2.84 13.71
12/30/2022 9:00:00 AM 2.42 36.356 0.141 7.49 3.03 13.72
12/30/2022 9:15:00 AM 2.44 36.392 0.141 7.49 3.07 13.74
12/30/2022 9:30:00 AM 2.46 36.428 0.141 7.49 3.01 13.75
12/30/2022 9:45:00 AM 2.5 36.5 0.141 7.51 3.02 13.76
12/30/2022 10:00:00 AM 2.55 36.59 0.14 7.5 3.06 13.77
12/30/2022 10:15:00 AM 2.58 36.644 0.14 7.51 3.02 13.78
12/30/2022 10:30:00 AM 2.61 36.698 0.14 7.51 3.29 13.77
12/30/2022 10:45:00 AM 2.65 36.77 0.14 7.52 3.29 13.77
12/30/2022 11:00:00 AM 2.7 36.86 0.14 7.52 3.26 13.75
12/30/2022 11:15:00 AM 2.74 36.932 0.14 7.51 3.3 13.74
12/30/2022 11:30:00 AM 2.78 37.004 0.14 7.51 3.63 13.74
12/30/2022 11:45:00 AM 2.81 37.058 0.14 7.52 3.51 13.72
12/30/2022 12:00:00 PM 2.84 37.112 0.14 7.52 3.76 13.71
12/30/2022 12:15:00 PM 2.85 37.13 0.14 7.53 3.77 13.7
12/30/2022 12:30:00 PM 2.86 37.148 0.14 7.52 4.24 13.69
12/30/2022 12:45:00 PM 2.85 37.13 0.14 7.52 4.6 13.69
12/30/2022 1:00:00 PM 2.82 37.076 0.139 7.52 4.76 13.69
12/30/2022 1:15:00 PM 2.8 37.04 0.139 7.52 5.09 13.69
12/30/2022 1:30:00 PM 2.78 37.004 0.138 7.52 8.58 13.7
12/30/2022 1:45:00 PM 2.74 36.932 0.138 7.51 6.55 13.7
12/30/2022 2:00:00 PM 2.7 36.86 0.138 7.51 6.6 13.72
12/30/2022 2:15:00 PM 2.65 36.77 0.137 7.51 6.84 13.73
12/30/2022 2:30:00 PM 2.6 36.68 0.137 7.51 7.11 13.74
12/30/2022 2:45:00 PM 2.55 36.59 0.136 7.51 7.49 13.75
12/30/2022 3:00:00 PM 2.5 36.5 0.136 7.5 8.51 13.74
12/30/2022 3:15:00 PM 2.43 36.374 0.135 7.49 8.63 13.76
12/30/2022 3:30:00 PM 2.34 36.212 0.135 7.5 9.32 13.77
12/30/2022 3:45:00 PM 2.24 36.032 0.135 7.49 10.22 13.79
12/30/2022 4:00:00 PM 2.15 35.87 0.134 7.49 10.46 13.81
12/30/2022 4:15:00 PM 2.05 35.69 0.134 7.47 10.97 13.83
12/30/2022 4:30:00 PM 1.97 35.546 0.133 7.48 11.92 13.84
12/30/2022 4:45:00 PM 1.88 35.384 0.133 7.46 12.17 13.86
12/30/2022 5:00:00 PM 1.82 35.276 0.133 7.45 12.69 13.86
12/30/2022 5:15:00 PM 1.76 35.168 0.132 7.45 13.32 13.87
12/30/2022 5:30:00 PM 1.71 35.078 0.131 7.44 13.01 13.89
12/30/2022 5:45:00 PM 1.68 35.024 0.131 7.44 12.69 13.9
12/30/2022 6:00:00 PM 1.66 34.988 0.13 7.43 12.56 13.91
12/30/2022 6:15:00 PM 1.65 34.97 0.13 7.43 11.76 13.92
12/30/2022 6:30:00 PM 1.65 34.97 0.129 7.42 11.77 13.93
12/30/2022 6:45:00 PM 1.65 34.97 0.128 7.43 11.27 13.92
12/30/2022 7:00:00 PM 1.65 34.97 0.128 7.42 10.9 13.93
12/30/2022 7:15:00 PM 1.66 34.988 0.127 7.42 10.78 13.92
12/30/2022 7:30:00 PM 1.67 35.006 0.127 7.42 10.3 13.92
12/30/2022 7:45:00 PM 1.67 35.006 0.127 7.41 10.02 13.92
12/30/2022 8:00:00 PM 1.69 35.042 0.126 7.41 9.37 13.92
12/30/2022 8:15:00 PM 1.69 35.042 0.126 7.41 9.52 13.91
12/30/2022 8:30:00 PM 1.7 35.06 0.126 7.41 9.03 13.9
12/30/2022 8:45:00 PM 1.71 35.078 0.125 7.41 8.44 13.9
12/30/2022 9:00:00 PM 1.72 35.096 0.125 7.41 8.37 13.89
12/30/2022 9:15:00 PM 1.72 35.096 0.125 7.41 8.07 13.89
12/30/2022 9:30:00 PM 1.73 35.114 0.125 7.4 8.04 13.89
12/30/2022 9:45:00 PM 1.74 35.132 0.124 7.41 7.42 13.88
12/30/2022 10:00:00 PM 1.74 35.132 0.124 7.4 7.22 13.89
12/30/2022 10:15:00 PM 1.75 35.15 0.124 7.4 7.18 13.88
12/30/2022 10:30:00 PM 1.76 35.168 0.124 7.4 6.85 13.87
12/30/2022 10:45:00 PM 1.77 35.186 0.124 7.4 6.81 13.86
12/30/2022 11:00:00 PM 1.79 35.222 0.124 7.4 6.55 13.85
12/30/2022 11:15:00 PM 1.8 35.24 0.124 7.4 6.33 13.85
12/30/2022 11:30:00 PM 1.81 35.258 0.124 7.4 6.31 13.85
12/30/2022 11:45:00 PM 1.82 35.276 0.124 7.41 6.11 13.84
12/31/2022 12:00:00 AM 1.83 35.294 0.124 7.4 5.94 13.84
12/31/2022 12:15:00 AM 1.84 35.312 0.124 7.41 5.92 13.84
12/31/2022 12:30:00 AM 1.85 35.33 0.124 7.41 5.76 13.83
12/31/2022 12:45:00 AM 1.86 35.348 0.124 7.41 5.63 13.82
12/31/2022 1:00:00 AM 1.87 35.366 0.124 7.41 5.71 13.82
12/31/2022 1:15:00 AM 1.87 35.366 0.124 7.4 5.73 13.81
12/31/2022 1:30:00 AM 1.88 35.384 0.124 7.41 5.53 13.81
12/31/2022 1:45:00 AM 1.89 35.402 0.124 7.4 5.44 13.81
12/31/2022 2:00:00 AM 1.89 35.402 0.124 7.41 5.44 13.81
12/31/2022 2:15:00 AM 1.9 35.42 0.124 7.4 5.43 13.81
12/31/2022 2:30:00 AM 1.91 35.438 0.124 7.4 5.31 13.8
12/31/2022 2:45:00 AM 1.93 35.474 0.124 7.41 5.17 13.79
12/31/2022 3:00:00 AM 1.94 35.492 0.124 7.41 5.16 13.78
12/31/2022 3:15:00 AM 1.95 35.51 0.124 7.41 5.16 13.78
12/31/2022 3:30:00 AM 1.95 35.51 0.124 7.41 4.96 13.77
12/31/2022 3:45:00 AM 1.96 35.528 0.124 7.41 5.07 13.77
12/31/2022 4:00:00 AM 1.96 35.528 0.124 7.41 5.06 13.77
12/31/2022 4:15:00 AM 1.96 35.528 0.123 7.41 4.92 13.77
12/31/2022 4:30:00 AM 1.97 35.546 0.123 7.41 5.07 13.77
12/31/2022 4:45:00 AM 1.98 35.564 0.123 7.4 4.94 13.76
12/31/2022 5:00:00 AM 2 35.6 0.123 7.4 4.95 13.76
12/31/2022 5:15:00 AM 2.02 35.636 0.123 7.4 4.81 13.75
12/31/2022 5:30:00 AM 2.04 35.672 0.123 7.4 4.77 13.74
12/31/2022 5:45:00 AM 2.06 35.708 0.123 7.4 4.82 13.74
12/31/2022 6:00:00 AM 2.06 35.708 0.123 7.4 4.59 13.73
12/31/2022 6:15:00 AM 2.07 35.726 0.123 7.41 4.54 13.72
12/31/2022 6:30:00 AM 2.08 35.744 0.123 7.4 4.59 13.72
12/31/2022 6:45:00 AM 2.07 35.726 0.123 7.4 4.63 13.71
12/31/2022 7:00:00 AM 2.07 35.726 0.123 7.4 4.68 13.71
12/31/2022 7:15:00 AM 2.07 35.726 0.123 7.4 4.57 13.71
12/31/2022 7:30:00 AM 2.07 35.726 0.123 7.4 4.72 13.71
12/31/2022 7:45:00 AM 2.08 35.744 0.123 7.4 4.44 13.71
12/31/2022 8:00:00 AM 2.08 35.744 0.123 7.4 4.46 13.71
12/31/2022 8:15:00 AM 2.1 35.78 0.123 7.41 4.63 13.71
12/31/2022 8:30:00 AM 2.12 35.816 0.123 7.4 4.46 13.72
12/31/2022 8:45:00 AM 2.15 35.87 0.123 7.41 4.27 13.72
12/31/2022 9:00:00 AM 2.18 35.924 0.123 7.42 4.3 13.72
12/31/2022 9:15:00 AM 2.21 35.978 0.123 7.42 4.27 13.72
12/31/2022 9:30:00 AM 2.27 36.086 0.123 7.42 4.25 13.71
12/31/2022 9:45:00 AM 2.31 36.158 0.123 7.43 4.24 13.71
12/31/2022 10:00:00 AM 2.36 36.248 0.123 7.43 4.17 13.71
12/31/2022 10:15:00 AM 2.41 36.338 0.123 7.44 4.13 13.69
12/31/2022 10:30:00 AM 2.46 36.428 0.122 7.44 3.9 13.68
12/31/2022 10:45:00 AM 2.52 36.536 0.122 7.44 4.23 13.68
12/31/2022 11:00:00 AM 2.58 36.644 0.122 7.44 4.15 13.67
12/31/2022 11:15:00 AM 2.63 36.734 0.122 7.45 4.07 13.66
12/31/2022 11:30:00 AM 2.68 36.824 0.122 7.45 4.22 13.63
12/31/2022 11:45:00 AM 2.72 36.896 0.122 7.45 4.22 13.61
12/31/2022 12:00:00 PM 2.76 36.968 0.122 7.45 4.29 13.58
12/31/2022 12:15:00 PM 2.78 37.004 0.122 7.45 4.5 13.56
12/31/2022 12:30:00 PM 2.83 37.094 0.122 7.46 4.67 13.55
12/31/2022 12:45:00 PM 2.86 37.148 0.122 7.46 5.08 13.53
12/31/2022 1:00:00 PM 2.89 37.202 0.121 7.46 4.92 13.52
12/31/2022 1:15:00 PM 2.92 37.256 0.121 7.46 5.32 13.5
12/31/2022 1:30:00 PM 2.94 37.292 0.121 7.46 5.5 13.49
12/31/2022 1:45:00 PM 2.96 37.328 0.12 7.47 5.69 13.48
12/31/2022 2:00:00 PM 2.97 37.346 0.12 7.47 6.07 13.46
12/31/2022 2:15:00 PM 2.96 37.328 0.12 7.47 6.39 13.46
12/31/2022 2:30:00 PM 2.95 37.31 0.12 7.46 7.06 13.45
12/31/2022 2:45:00 PM 2.93 37.274 0.119 7.47 7.93 13.43
12/31/2022 3:00:00 PM 2.89 37.202 0.119 7.46 8.63 13.44
12/31/2022 3:15:00 PM 2.85 37.13 0.118 7.45 9.24 13.43
12/31/2022 3:30:00 PM 2.81 37.058 0.118 7.44 10.07 13.44
12/31/2022 3:45:00 PM 2.77 36.986 0.118 7.44 10.89 13.43
12/31/2022 4:00:00 PM 2.73 36.914 0.117 7.43 12.01 13.43
12/31/2022 4:15:00 PM 2.7 36.86 0.117 7.42 12.75 13.44
12/31/2022 4:30:00 PM 2.67 36.806 0.116 7.42 12.99 13.45
12/31/2022 4:45:00 PM 2.64 36.752 0.116 7.41 13.56 13.44
12/31/2022 5:00:00 PM 2.61 36.698 0.12 7.41 14.94 13.45
12/31/2022 5:15:00 PM 2.58 36.644 0.123 7.4 17.45 13.46
12/31/2022 5:30:00 PM 2.54 36.572 0.12 7.4 18.06 13.47
12/31/2022 5:45:00 PM 2.49 36.482 0.117 7.4 18.13 13.47
12/31/2022 6:00:00 PM 2.44 36.392 0.116 7.39 20.28 13.48
12/31/2022 6:15:00 PM 2.38 36.284 0.115 7.39 20.88 13.51
12/31/2022 6:30:00 PM 2.32 36.176 0.114 7.37 23.83 13.53
12/31/2022 6:45:00 PM 2.25 36.05 0.116 7.37 26.81 13.56
12/31/2022 7:00:00 PM 2.2 35.96 0.114 7.36 28.82 13.57
12/31/2022 7:15:00 PM 2.16 35.888 0.113 7.36 30.7 13.59
12/31/2022 7:30:00 PM 2.13 35.834 0.113 7.36 32.66 13.61
12/31/2022 7:45:00 PM 2.09 35.762 0.112 7.36 34.88 13.63
12/31/2022 8:00:00 PM 2.03 35.654 0.111 7.35 39.04 13.64
12/31/2022 8:15:00 PM 1.99 35.582 0.11 7.34 41.34 13.65
12/31/2022 8:30:00 PM 1.99 35.582 0.109 7.34 40.96 13.66
12/31/2022 8:45:00 PM 1.99 35.582 0.108 7.32 41.37 13.66
12/31/2022 9:00:00 PM 2 35.6 0.107 7.32 43.03 13.66
12/31/2022 9:15:00 PM 2.01 35.618 0.105 7.31 42.38 13.67
12/31/2022 9:30:00 PM 2.03 35.654 0.104 7.3 40.81 13.66
12/31/2022 9:45:00 PM 2.04 35.672 0.103 7.3 36.54 13.66
12/31/2022 10:00:00 PM 2.06 35.708 0.102 7.3 35.29 13.65
12/31/2022 10:15:00 PM 2.09 35.762 0.101 7.3 33.14 13.63
12/31/2022 10:30:00 PM 2.11 35.798 0.1 7.29 32.44 13.62
12/31/2022 10:45:00 PM 2.14 35.852 0.099 7.28 30.99 13.62
12/31/2022 11:00:00 PM 2.17 35.906 0.099 7.28 29.59 13.6
12/31/2022 11:15:00 PM 2.2 35.96 0.099 7.29 27.71 13.59
12/31/2022 11:30:00 PM 2.24 36.032 0.099 7.26 27.18 13.58
12/31/2022 11:45:00 PM 2.29 36.122 0.099 7.26 26.99 13.55
1/1/2023 12:00:00 AM 2.35 36.23 0.099 7.28 30.95 13.54
1/1/2023 12:15:00 AM 2.4 36.32 0.099 7.28 46.34 13.51
1/1/2023 12:30:00 AM 2.45 36.41 0.099 7.29 27.17 13.5
1/1/2023 12:45:00 AM 2.51 36.518 0.1 7.28 23.19 13.48
1/1/2023 1:00:00 AM 2.56 36.608 0.1 7.29 21.87 13.48
1/1/2023 1:15:00 AM 2.6 36.68 0.1 7.28 21.92 13.47
1/1/2023 1:30:00 AM 2.63 36.734 0.1 7.29 21.21 13.46
1/1/2023 1:45:00 AM 2.67 36.806 0.1 7.29 20.69 13.44
1/1/2023 2:00:00 AM 2.71 36.878 0.1 7.28 20.35 13.43
1/1/2023 2:15:00 AM 2.74 36.932 0.1 7.28 20.3 13.42
1/1/2023 2:30:00 AM 2.77 36.986 0.088 7.28 19.59 13.41
1/1/2023 2:45:00 AM 2.78 37.004 0.1 7.27 19.51 13.4
1/1/2023 3:00:00 AM 2.79 37.022 0.098 7.27 19.75 13.4
1/1/2023 3:15:00 AM 2.79 37.022 0.1 7.28 19.26 13.39
1/1/2023 3:30:00 AM 2.78 37.004 0.099 7.28 19.83 13.4
1/1/2023 3:45:00 AM 2.78 37.004 0.099 7.27 18.4 13.4
1/1/2023 4:00:00 AM 2.78 37.004 0.099 7.27 18.4 13.4
1/1/2023 4:15:00 AM 2.78 37.004 0.099 7.27 17.89 13.4
1/1/2023 4:30:00 AM 2.77 36.986 0.099 7.26 17.58 13.4
1/1/2023 4:45:00 AM 2.76 36.968 0.099 7.27 17.49 13.4
1/1/2023 5:00:00 AM 2.75 36.95 0.099 7.26 19.61 13.41
1/1/2023 5:15:00 AM 2.74 36.932 0.1 7.26 18.62 13.42
1/1/2023 5:30:00 AM 2.73 36.914 0.099 7.26 18.1 13.41
1/1/2023 5:45:00 AM 2.72 36.896 0.099 7.26 15.26 13.42
1/1/2023 6:00:00 AM 2.71 36.878 0.099 7.26 16.03 13.43
1/1/2023 6:15:00 AM 2.69 36.842 0.099 7.26 15.78 13.43
1/1/2023 6:30:00 AM 2.68 36.824 0.099 7.27 15.04 13.45
1/1/2023 6:45:00 AM 2.67 36.806 0.099 7.27 14.55 13.45
1/1/2023 7:00:00 AM 2.66 36.788 0.1 7.26 14.9 13.46
1/1/2023 7:15:00 AM 2.65 36.77 0.1 7.26 14.48 13.46
1/1/2023 7:30:00 AM 2.64 36.752 0.099 7.26 14.04 13.46
1/1/2023 7:45:00 AM 2.63 36.734 0.101 7.26 14.07 13.47
1/1/2023 8:00:00 AM 2.62 36.716 0.101 7.25 13.3 13.48
1/1/2023 8:15:00 AM 2.61 36.698 0.101 7.27 13.29 13.48
1/1/2023 8:30:00 AM 2.61 36.698 0.101 7.26 12.77 13.49
1/1/2023 8:45:00 AM 2.6 36.68 0.101 7.25 12.4 13.5
1/1/2023 9:00:00 AM 2.61 36.698 0.102 7.25 12.24 13.5
1/1/2023 9:15:00 AM 2.61 36.698 0.102 7.26 11.6 13.5
1/1/2023 9:30:00 AM 2.61 36.698 0.102 7.26 11.21 13.5
1/1/2023 9:45:00 AM 2.62 36.716 0.102 7.26 11.11 13.52
1/1/2023 10:00:00 AM 2.63 36.734 0.102 7.25 10.75 13.52
1/1/2023 10:15:00 AM 2.64 36.752 0.102 7.26 10.65 13.52
1/1/2023 10:30:00 AM 2.65 36.77 0.103 7.27 10.41 13.52
1/1/2023 10:45:00 AM 2.67 36.806 0.103 7.27 9.97 13.52
1/1/2023 11:00:00 AM 2.68 36.824 0.103 7.27 9.78 13.53
1/1/2023 11:15:00 AM 2.72 36.896 0.103 7.27 9.49 13.52
1/1/2023 11:30:00 AM 2.77 36.986 0.103 7.28 9.4 13.52
1/1/2023 11:45:00 AM 2.85 37.13 0.104 7.28 8.95 13.51
1/1/2023 12:00:00 PM 2.92 37.256 0.104 7.29 8.88 13.5
1/1/2023 12:15:00 PM 2.99 37.382 0.104 7.29 8.71 13.47
1/1/2023 12:30:00 PM 3.05 37.49 0.105 7.3 8.77 13.45
1/1/2023 12:45:00 PM 3.11 37.598 0.105 7.3 8.68 13.43
1/1/2023 1:00:00 PM 3.17 37.706 0.105 7.29 8.52 13.41
1/1/2023 1:15:00 PM 3.21 37.778 0.104 7.3 8.59 13.39
1/1/2023 1:30:00 PM 3.24 37.832 0.105 7.3 8.74 13.37
1/1/2023 1:45:00 PM 3.25 37.85 0.105 7.3 8.51 13.37
1/1/2023 2:00:00 PM 3.26 37.868 0.105 7.3 8.22 13.37
1/1/2023 2:15:00 PM 3.28 37.904 0.105 7.3 8.44 13.35
1/1/2023 2:30:00 PM 3.3 37.94 0.105 7.3 8.46 13.33
1/1/2023 2:45:00 PM 3.32 37.976 0.105 7.3 8.47 13.33
1/1/2023 3:00:00 PM 3.34 38.012 0.106 7.31 8.43 13.31
1/1/2023 3:15:00 PM 3.35 38.03 0.106 7.31 8.46 13.3
1/1/2023 3:30:00 PM 3.36 38.048 0.106 7.3 8.24 13.29
1/1/2023 3:45:00 PM 3.36 38.048 0.106 7.3 8.15 13.28
1/1/2023 4:00:00 PM 3.35 38.03 0.106 7.29 7.96 13.27
1/1/2023 4:15:00 PM 3.34 38.012 0.106 7.3 8.06 13.26
1/1/2023 4:30:00 PM 3.32 37.976 0.106 7.29 7.96 13.25
1/1/2023 4:45:00 PM 3.31 37.958 0.106 7.28 7.88 13.24
1/1/2023 5:00:00 PM 3.29 37.922 0.106 7.29 8.14 13.24
1/1/2023 5:15:00 PM 3.27 37.886 0.106 7.28 7.96 13.24
1/1/2023 5:30:00 PM 3.26 37.868 0.106 7.28 7.96 13.24
1/1/2023 5:45:00 PM 3.24 37.832 0.106 7.27 8.05 13.24
1/1/2023 6:00:00 PM 3.23 37.814 0.106 7.28 7.74 13.24
1/1/2023 6:15:00 PM 3.21 37.778 0.106 7.27 7.76 13.25
1/1/2023 6:30:00 PM 3.2 37.76 0.106 7.28 7.72 13.25
1/1/2023 6:45:00 PM 3.18 37.724 0.106 7.27 7.61 13.26
1/1/2023 7:00:00 PM 3.17 37.706 0.106 7.27 8.05 13.26
1/1/2023 7:15:00 PM 3.15 37.67 0.106 7.27 7.97 13.26
1/1/2023 7:30:00 PM 3.14 37.652 0.107 7.28 7.9 13.26
1/1/2023 7:45:00 PM 3.13 37.634 0.107 7.26 7.89 13.27
1/1/2023 8:00:00 PM 3.12 37.616 0.107 7.27 7.46 13.27
1/1/2023 8:15:00 PM 3.11 37.598 0.107 7.26 7.4 13.27
1/1/2023 8:30:00 PM 3.1 37.58 0.107 7.27 7.45 13.29
1/1/2023 8:45:00 PM 3.09 37.562 0.107 7.26 7.7 13.29
1/1/2023 9:00:00 PM 3.08 37.544 0.107 7.27 7.64 13.29
1/1/2023 9:15:00 PM 3.08 37.544 0.107 7.26 7.15 13.3
1/1/2023 9:30:00 PM 3.07 37.526 0.107 7.27 7.36 13.3
1/1/2023 9:45:00 PM 3.07 37.526 0.107 7.27 7.36 13.3
1/1/2023 10:00:00 PM 3.06 37.508 0.107 7.28 7.47 13.3
1/1/2023 10:15:00 PM 3.06 37.508 0.108 7.27 6.84 13.3
1/1/2023 10:30:00 PM 3.06 37.508 0.108 7.28 7.13 13.29
1/1/2023 10:45:00 PM 3.05 37.49 0.108 7.27 7.11 13.29
1/1/2023 11:00:00 PM 3.05 37.49 0.108 7.27 7.12 13.3
1/1/2023 11:15:00 PM 3.05 37.49 0.108 7.27 6.85 13.3
1/1/2023 11:30:00 PM 3.05 37.49 0.108 7.27 6.8 13.31
1/1/2023 11:45:00 PM 3.05 37.49 0.108 7.28 6.69 13.3
1/2/2023 12:00:00 AM 3.05 37.49 0.108 7.28 6.53 13.3
1/2/2023 12:15:00 AM 3.05 37.49 0.108 7.27 6.33 13.3
1/2/2023 12:30:00 AM 3.05 37.49 0.108 7.26 6.5 13.3
1/2/2023 12:45:00 AM 3.05 37.49 0.109 7.26 6.23 13.29
1/2/2023 1:00:00 AM 3.05 37.49 0.109 7.26 6.15 13.3
1/2/2023 1:15:00 AM 3.05 37.49 0.109 7.27 6.11 13.3
1/2/2023 1:30:00 AM 3.06 37.508 0.109 7.27 6.04 13.29
1/2/2023 1:45:00 AM 3.06 37.508 0.109 7.27 6.15 13.29
1/2/2023 2:00:00 AM 3.07 37.526 0.109 7.26 6.1 13.3
1/2/2023 2:15:00 AM 3.08 37.544 0.109 7.27 5.98 13.3
1/2/2023 2:30:00 AM 3.09 37.562 0.109 7.28 6.16 13.3
1/2/2023 2:45:00 AM 3.1 37.58 0.109 7.29 5.95 13.3
1/2/2023 3:00:00 AM 3.11 37.598 0.109 7.29 6.09 13.3
1/2/2023 3:15:00 AM 3.11 37.598 0.109 7.28 5.95 13.29
1/2/2023 3:30:00 AM 3.12 37.616 0.109 7.28 5.9 13.29
1/2/2023 3:45:00 AM 3.12 37.616 0.109 7.28 5.99 13.29
1/2/2023 4:00:00 AM 3.12 37.616 0.109 7.28 5.82 13.29
1/2/2023 4:15:00 AM 3.13 37.634 0.109 7.29 5.85 13.29
1/2/2023 4:30:00 AM 3.13 37.634 0.109 7.28 5.77 13.29
1/2/2023 4:45:00 AM 3.13 37.634 0.109 7.28 5.77 13.29
1/2/2023 5:00:00 AM 3.13 37.634 0.109 7.28 5.64 13.29
1/2/2023 5:15:00 AM 3.13 37.634 0.109 7.28 5.78 13.28
1/2/2023 5:30:00 AM 3.13 37.634 0.11 7.29 5.77 13.29
1/2/2023 5:45:00 AM 3.13 37.634 0.11 7.29 5.62 13.28
1/2/2023 6:00:00 AM 3.13 37.634 0.11 7.28 5.63 13.28
1/2/2023 6:15:00 AM 3.13 37.634 0.11 7.29 5.65 13.29
1/2/2023 6:30:00 AM 3.13 37.634 0.11 7.28 5.56 13.29
1/2/2023 6:45:00 AM 3.13 37.634 0.11 7.28 5.65 13.29
1/2/2023 7:00:00 AM 3.13 37.634 0.11 7.28 5.73 13.29
1/2/2023 7:15:00 AM 3.13 37.634 0.11 7.28 5.54 13.29
1/2/2023 7:30:00 AM 3.13 37.634 0.11 7.28 5.55 13.3
1/2/2023 7:45:00 AM 3.14 37.652 0.11 7.28 5.51 13.3
1/2/2023 8:00:00 AM 3.14 37.652 0.11 7.28 5.44 13.3
1/2/2023 8:15:00 AM 3.15 37.67 0.11 7.28 5.43 13.3
1/2/2023 8:30:00 AM 3.16 37.688 0.11 7.29 5.22 13.31
1/2/2023 8:45:00 AM 3.18 37.724 0.11 7.29 5.1 13.33
1/2/2023 9:00:00 AM 3.21 37.778 0.11 7.29 5.14 13.34
1/2/2023 9:15:00 AM 3.25 37.85 0.11 7.3 5.05 13.36
1/2/2023 9:30:00 AM 3.29 37.922 0.11 7.3 5.12 13.36
1/2/2023 9:45:00 AM 3.33 37.994 0.11 7.31 5.12 13.36
1/2/2023 10:00:00 AM 3.37 38.066 0.11 7.31 4.95 13.35
1/2/2023 10:15:00 AM 3.43 38.174 0.111 7.32 4.83 13.35
1/2/2023 10:30:00 AM 3.49 38.282 0.11 7.33 4.91 13.34
1/2/2023 10:45:00 AM 3.55 38.39 0.11 7.33 4.88 13.32
1/2/2023 11:00:00 AM 3.63 38.534 0.11 7.34 4.79 13.31
1/2/2023 11:15:00 AM 3.71 38.678 0.11 7.34 4.84 13.29
1/2/2023 11:30:00 AM 3.79 38.822 0.11 7.34 4.76 13.28
1/2/2023 11:45:00 AM 3.87 38.966 0.111 7.35 4.72 13.26
1/2/2023 12:00:00 PM 3.93 39.074 0.11 7.35 4.79 13.24
1/2/2023 12:15:00 PM 3.99 39.182 0.111 7.36 4.83 13.21
1/2/2023 12:30:00 PM 4.05 39.29 0.111 7.35 6.71 13.2
1/2/2023 12:45:00 PM 4.12 39.416 0.111 7.36 5.84 13.18
1/2/2023 1:00:00 PM 4.17 39.506 0.111 7.36 5.51 13.15
1/2/2023 1:15:00 PM 4.23 39.614 0.111 7.37 5.56 13.13
1/2/2023 1:30:00 PM 4.28 39.704 0.11 7.36 5.52 13.11
1/2/2023 1:45:00 PM 4.33 39.794 0.11 7.37 5.59 13.09
1/2/2023 2:00:00 PM 4.38 39.884 0.11 7.37 5.49 13.07
1/2/2023 2:15:00 PM 4.41 39.938 0.11 7.37 5.27 13.06
1/2/2023 2:30:00 PM 4.42 39.956 0.11 7.36 5.35 13.04
1/2/2023 2:45:00 PM 4.44 39.992 0.11 7.37 5.14 13.02
1/2/2023 3:00:00 PM 4.43 39.974 0.11 7.37 5.21 13.01
1/2/2023 3:15:00 PM 4.4 39.92 0.11 7.37 5.24 13
1/2/2023 3:30:00 PM 4.38 39.884 0.11 7.38 5.37 13
1/2/2023 3:45:00 PM 4.34 39.812 0.11 7.37 5.39 12.98
1/2/2023 4:00:00 PM 4.3 39.74 0.11 7.37 5.43 12.98
1/2/2023 4:15:00 PM 4.26 39.668 0.11 7.36 5.34 12.98
1/2/2023 4:30:00 PM 4.21 39.578 0.11 7.36 5.54 12.98
1/2/2023 4:45:00 PM 4.16 39.488 0.11 7.35 5.61 12.98
1/2/2023 5:00:00 PM 4.12 39.416 0.11 7.34 5.55 12.98
1/2/2023 5:15:00 PM 4.07 39.326 0.11 7.34 5.28 12.99
1/2/2023 5:30:00 PM 4.02 39.236 0.11 7.33 5.5 13
1/2/2023 5:45:00 PM 3.96 39.128 0.11 7.33 5.65 13.01
1/2/2023 6:00:00 PM 3.91 39.038 0.11 7.31 5.31 13.03
1/2/2023 6:15:00 PM 3.85 38.93 0.11 7.31 5.19 13.04
1/2/2023 6:30:00 PM 3.78 38.804 0.11 7.31 5.21 13.06
1/2/2023 6:45:00 PM 3.72 38.696 0.11 7.3 5.17 13.08
1/2/2023 7:00:00 PM 3.66 38.588 0.11 7.3 5.09 13.09
1/2/2023 7:15:00 PM 3.6 38.48 0.11 7.3 5.1 13.11
1/2/2023 7:30:00 PM 3.55 38.39 0.11 7.31 5.13 13.14
1/2/2023 7:45:00 PM 3.49 38.282 0.11 7.3 5.11 13.16
1/2/2023 8:00:00 PM 3.44 38.192 0.11 7.3 4.93 13.19
1/2/2023 8:15:00 PM 3.39 38.102 0.11 7.29 5.01 13.21
1/2/2023 8:30:00 PM 3.36 38.048 0.11 7.3 5.11 13.23
1/2/2023 8:45:00 PM 3.34 38.012 0.111 7.29 4.96 13.23
1/2/2023 9:00:00 PM 3.33 37.994 0.111 7.29 4.96 13.25
1/2/2023 9:15:00 PM 3.33 37.994 0.111 7.29 4.92 13.25
1/2/2023 9:30:00 PM 3.31 37.958 0.111 7.29 4.94 13.25
1/2/2023 9:45:00 PM 3.3 37.94 0.111 7.3 5.02 13.26
1/2/2023 10:00:00 PM 3.29 37.922 0.111 7.29 4.98 13.26
1/2/2023 10:15:00 PM 3.29 37.922 0.111 7.3 5.03 13.27
1/2/2023 10:30:00 PM 3.29 37.922 0.112 7.3 4.9 13.27
1/2/2023 10:45:00 PM 3.28 37.904 0.112 7.31 4.86 13.27
1/2/2023 11:00:00 PM 3.28 37.904 0.112 7.3 4.8 13.27
1/2/2023 11:15:00 PM 3.28 37.904 0.112 7.3 4.82 13.27
1/2/2023 11:30:00 PM 3.28 37.904 0.112 7.3 4.97 13.27
1/2/2023 11:45:00 PM 3.28 37.904 0.112 7.32 4.97 13.27
1/3/2023 12:00:00 AM 3.29 37.922 0.113 7.31 4.94 13.27
1/3/2023 12:15:00 AM 3.29 37.922 0.113 7.31 4.81 13.26
1/3/2023 12:30:00 AM 3.29 37.922 0.113 7.31 4.84 13.26
1/3/2023 12:45:00 AM 3.29 37.922 0.113 7.31 4.8 13.25
1/3/2023 1:00:00 AM 3.29 37.922 0.113 7.31 4.85 13.25
1/3/2023 1:15:00 AM 3.29 37.922 0.113 7.31 5.21 13.25
1/3/2023 1:30:00 AM 3.29 37.922 0.113 7.32 4.9 13.25
1/3/2023 1:45:00 AM 3.29 37.922 0.113 7.32 4.72 13.25
1/3/2023 2:00:00 AM 3.28 37.904 0.113 7.32 4.64 13.25
1/3/2023 2:15:00 AM 3.27 37.886 0.114 7.31 4.63 13.24
1/3/2023 2:30:00 AM 3.27 37.886 0.114 7.32 4.66 13.24
1/3/2023 2:45:00 AM 3.26 37.868 0.114 7.32 4.59 13.25
1/3/2023 3:00:00 AM 3.26 37.868 0.114 7.32 4.47 13.25
1/3/2023 3:15:00 AM 3.26 37.868 0.114 7.32 4.46 13.25
1/3/2023 3:30:00 AM 3.26 37.868 0.114 7.32 4.49 13.25
1/3/2023 3:45:00 AM 3.27 37.886 0.114 7.32 4.49 13.25
1/3/2023 4:00:00 AM 3.27 37.886 0.114 7.32 4.43 13.24
1/3/2023 4:15:00 AM 3.27 37.886 0.114 7.33 4.51 13.25
1/3/2023 4:30:00 AM 3.28 37.904 0.115 7.33 4.46 13.24
1/3/2023 4:45:00 AM 3.28 37.904 0.115 7.33 4.45 13.24
1/3/2023 5:00:00 AM 3.28 37.904 0.115 7.32 4.44 13.23
1/3/2023 5:15:00 AM 3.28 37.904 0.115 7.32 4.4 13.23
1/3/2023 5:30:00 AM 3.29 37.922 0.115 7.33 4.4 13.23
1/3/2023 5:45:00 AM 3.3 37.94 0.115 7.32 4.43 13.22
1/3/2023 6:00:00 AM 3.3 37.94 0.115 7.32 4.3 13.21
1/3/2023 6:15:00 AM 3.31 37.958 0.115 7.33 4.22 13.21
1/3/2023 6:30:00 AM 3.31 37.958 0.115 7.33 4.28 13.21
1/3/2023 6:45:00 AM 3.32 37.976 0.116 7.33 4.32 13.2
1/3/2023 7:00:00 AM 3.33 37.994 0.116 7.33 4.19 13.2
1/3/2023 7:15:00 AM 3.33 37.994 0.115 7.33 4.15 13.19
1/3/2023 7:30:00 AM 3.34 38.012 0.116 7.33 4.25 13.19
1/3/2023 7:45:00 AM 3.35 38.03 0.116 7.33 4.26 13.19
1/3/2023 8:00:00 AM 3.37 38.066 0.116 7.34 4.14 13.19
1/3/2023 8:15:00 AM 3.38 38.084 0.116 7.33 4.32 13.18
1/3/2023 8:30:00 AM 3.4 38.12 0.116 7.33 4.1 13.17
1/3/2023 8:45:00 AM 3.41 38.138 0.116 7.34 4.08 13.17
1/3/2023 9:00:00 AM 3.43 38.174 0.116 7.33 4.16 13.17
1/3/2023 9:15:00 AM 3.45 38.21 0.116 7.34 4 13.17
1/3/2023 9:30:00 AM 3.47 38.246 0.116 7.34 4.03 13.16
1/3/2023 9:45:00 AM 3.49 38.282 0.116 7.34 3.95 13.16
1/3/2023 10:00:00 AM 3.53 38.354 0.116 7.34 3.93 13.17
1/3/2023 10:15:00 AM 3.56 38.408 0.116 7.35 3.95 13.16
1/3/2023 10:30:00 AM 3.6 38.48 0.116 7.34 4.27 13.15
1/3/2023 10:45:00 AM 3.63 38.534 0.125 7.36 6.6 13.13
1/3/2023 11:00:00 AM 3.67 38.606 0.125 7.38 10.77 13.11
1/3/2023 11:15:00 AM 3.72 38.696 0.119 7.37 8.87 13.11
1/3/2023 11:30:00 AM 3.77 38.786 0.118 7.37 9.33 13.11
1/3/2023 11:45:00 AM 3.82 38.876 0.118 7.37 8.74 13.1
1/3/2023 12:00:00 PM 3.87 38.966 0.118 7.37 11.52 13.08
1/3/2023 12:15:00 PM 3.91 39.038 0.118 7.38 13.58 13.07
1/3/2023 12:30:00 PM 3.94 39.092 0.117 7.38 13.03 13.06
1/3/2023 12:45:00 PM 3.98 39.164 0.116 7.38 12.19 13.04
1/3/2023 1:00:00 PM 4.02 39.236 0.115 7.38 12.49 13.03
1/3/2023 1:15:00 PM 4.06 39.308 0.114 7.37 13.16 13
1/3/2023 1:30:00 PM 4.1 39.38 0.114 7.37 14.53 12.98
1/3/2023 1:45:00 PM 4.14 39.452 0.114 7.37 15.49 12.97
1/3/2023 2:00:00 PM 4.17 39.506 0.113 7.38 15.92 12.96
1/3/2023 2:15:00 PM 4.2 39.56 0.111 7.37 16.48 12.94
1/3/2023 2:30:00 PM 4.21 39.578 0.11 7.36 17.63 12.92
1/3/2023 2:45:00 PM 4.23 39.614 0.109 7.36 17.77 12.9
1/3/2023 3:00:00 PM 4.24 39.632 0.108 7.35 17.53 12.89
1/3/2023 3:15:00 PM 4.25 39.65 0.108 7.33 17.57 12.88
1/3/2023 3:30:00 PM 4.26 39.668 0.107 7.33 16.87 12.87
1/3/2023 3:45:00 PM 4.27 39.686 0.106 7.32 16.01 12.86
1/3/2023 4:00:00 PM 4.29 39.722 0.106 7.32 15.38 12.84
1/3/2023 4:15:00 PM 4.29 39.722 0.105 7.32 14.36 12.83
1/3/2023 4:30:00 PM 4.29 39.722 0.105 7.31 13.95 12.82
1/3/2023 4:45:00 PM 4.29 39.722 0.105 7.3 13.48 12.81
1/3/2023 5:00:00 PM 4.29 39.722 0.104 7.3 13.66 12.81
1/3/2023 5:15:00 PM 4.28 39.704 0.104 7.29 12.78 12.8
1/3/2023 5:30:00 PM 4.28 39.704 0.104 7.3 13.23 12.79
1/3/2023 5:45:00 PM 4.27 39.686 0.104 7.29 12.73 12.79
1/3/2023 6:00:00 PM 4.27 39.686 0.104 7.29 12.02 12.8
1/3/2023 6:15:00 PM 4.27 39.686 0.104 7.29 12.24 12.79
1/3/2023 6:30:00 PM 4.27 39.686 0.104 7.29 11.65 12.79
1/3/2023 6:45:00 PM 4.27 39.686 0.104 7.28 11.16 12.78
1/3/2023 7:00:00 PM 4.27 39.686 0.104 7.28 10.74 12.79
1/3/2023 7:15:00 PM 4.27 39.686 0.105 7.27 10.92 12.78
1/3/2023 7:30:00 PM 4.27 39.686 0.105 7.28 10.75 12.78
1/3/2023 7:45:00 PM 4.28 39.704 0.106 7.27 10.79 12.78
1/3/2023 8:00:00 PM 4.28 39.704 0.106 7.28 10.86 12.77
1/3/2023 8:15:00 PM 4.28 39.704 0.106 7.28 10.7 12.78
1/3/2023 8:30:00 PM 4.29 39.722 0.106 7.28 10.62 12.77
1/3/2023 8:45:00 PM 4.3 39.74 0.106 7.27 10.67 12.77
1/3/2023 9:00:00 PM 4.3 39.74 0.107 7.28 11.14 12.77
1/3/2023 9:15:00 PM 4.31 39.758 0.106 7.28 12.51 12.76
1/3/2023 9:30:00 PM 4.31 39.758 0.106 7.27 11.21 12.76
1/3/2023 9:45:00 PM 4.32 39.776 0.107 7.27 11.45 12.76
1/3/2023 10:00:00 PM 4.33 39.794 0.107 7.28 12.25 12.75
1/3/2023 10:15:00 PM 4.35 39.83 0.107 7.27 12.09 12.75
1/3/2023 10:30:00 PM 4.36 39.848 0.107 7.28 12.36 12.75
1/3/2023 10:45:00 PM 4.37 39.866 0.107 7.27 12.83 12.75
1/3/2023 11:00:00 PM 4.38 39.884 0.106 7.27 13.5 12.74
1/3/2023 11:15:00 PM 4.39 39.902 0.106 7.27 13.9 12.73
1/3/2023 11:30:00 PM 4.4 39.92 0.106 7.27 14.03 12.73
1/3/2023 11:45:00 PM 4.41 39.938 0.106 7.27 14.13 12.73
1/4/2023 12:00:00 AM 4.42 39.956 0.105 7.26 14.3 12.72
1/4/2023 12:15:00 AM 4.42 39.956 0.105 7.26 14.39 12.72
1/4/2023 12:30:00 AM 4.42 39.956 0.104 7.26 14.05 12.72
1/4/2023 12:45:00 AM 4.43 39.974 0.104 7.25 13.64 12.72
1/4/2023 1:00:00 AM 4.44 39.992 0.103 7.25 13 12.72
1/4/2023 1:15:00 AM 4.45 40.01 0.103 7.25 12.79 12.71
1/4/2023 1:30:00 AM 4.46 40.028 0.103 7.25 12.08 12.71
1/4/2023 1:45:00 AM 4.47 40.046 0.103 7.24 12.01 12.7
1/4/2023 2:00:00 AM 4.48 40.064 0.103 7.24 11.74 12.7
1/4/2023 2:15:00 AM 4.49 40.082 0.103 7.24 11.34 12.7
1/4/2023 2:30:00 AM 4.5 40.1 0.103 7.24 11.1 12.7
1/4/2023 2:45:00 AM 4.51 40.118 0.103 7.24 10.54 12.69
1/4/2023 3:00:00 AM 4.51 40.118 0.103 7.24 10.21 12.69
1/4/2023 3:15:00 AM 4.52 40.136 0.104 7.24 10 12.69
1/4/2023 3:30:00 AM 4.53 40.154 0.104 7.24 9.77 12.69
1/4/2023 3:45:00 AM 4.54 40.172 0.104 7.23 9.49 12.68
1/4/2023 4:00:00 AM 4.55 40.19 0.104 7.24 9.35 12.68
1/4/2023 4:15:00 AM 4.56 40.208 0.105 7.24 9.32 12.67
1/4/2023 4:30:00 AM 4.57 40.226 0.105 7.24 9.19 12.67
1/4/2023 4:45:00 AM 4.58 40.244 0.105 7.24 8.9 12.67
1/4/2023 5:00:00 AM 4.6 40.28 0.105 7.24 8.91 12.66
1/4/2023 5:15:00 AM 4.61 40.298 0.106 7.25 8.92 12.66
1/4/2023 5:30:00 AM 4.63 40.334 0.106 7.24 8.55 12.65
1/4/2023 5:45:00 AM 4.64 40.352 0.106 7.24 8.49 12.64
1/4/2023 6:00:00 AM 4.66 40.388 0.106 7.24 8.36 12.64
1/4/2023 6:15:00 AM 4.68 40.424 0.106 7.24 8.03 12.64
1/4/2023 6:30:00 AM 4.7 40.46 0.107 7.25 7.91 12.63
1/4/2023 6:45:00 AM 4.72 40.496 0.107 7.25 7.93 12.63
1/4/2023 7:00:00 AM 4.74 40.532 0.107 7.27 7.78 12.63
1/4/2023 7:15:00 AM 4.76 40.568 0.107 7.27 7.86 12.62
1/4/2023 7:30:00 AM 4.77 40.586 0.107 7.27 7.73 12.61
1/4/2023 7:45:00 AM 4.78 40.604 0.108 7.27 7.36 12.61
1/4/2023 8:00:00 AM 4.79 40.622 0.108 7.27 7.39 12.62
1/4/2023 8:15:00 AM 4.8 40.64 0.108 7.27 7.33 12.62
1/4/2023 8:30:00 AM 4.81 40.658 0.109 7.28 7.48 12.63
1/4/2023 8:45:00 AM 4.83 40.694 0.109 7.28 8.82 12.63
1/4/2023 9:00:00 AM 4.84 40.712 0.109 7.28 8.93 12.63
1/4/2023 9:15:00 AM 4.86 40.748 0.109 7.28 7.71 12.64
1/4/2023 9:30:00 AM 4.89 40.802 0.109 7.29 7.45 12.65
1/4/2023 9:45:00 AM 4.93 40.874 0.11 7.29 7.42 12.66
1/4/2023 10:00:00 AM 4.97 40.946 0.11 7.3 6.92 12.66
1/4/2023 10:15:00 AM 5.01 41.018 0.11 7.3 6.52 12.66
1/4/2023 10:30:00 AM 5.06 41.108 0.11 7.31 6.6 12.67
1/4/2023 10:45:00 AM 5.13 41.234 0.11 7.31 6.57 12.68
1/4/2023 11:00:00 AM 5.2 41.36 0.11 7.32 6.26 12.68
1/4/2023 11:15:00 AM 5.27 41.486 0.11 7.33 6.37 12.67
1/4/2023 11:30:00 AM 5.34 41.612 0.11 7.33 6.23 12.66
1/4/2023 11:45:00 AM 5.4 41.72 0.11 7.33 6.27 12.63
1/4/2023 12:00:00 PM 5.46 41.828 0.11 7.35 6.06 12.61
1/4/2023 12:15:00 PM 5.53 41.954 0.11 7.35 6.18 12.59
1/4/2023 12:30:00 PM 5.59 42.062 0.11 7.35 6.21 12.56
1/4/2023 12:45:00 PM 5.65 42.17 0.11 7.36 6.11 12.54
1/4/2023 1:00:00 PM 5.71 42.278 0.11 7.36 6.07 12.53
1/4/2023 1:15:00 PM 5.76 42.368 0.109 7.36 6.02 12.51
1/4/2023 1:30:00 PM 5.81 42.458 0.11 7.36 5.97 12.49
1/4/2023 1:45:00 PM 5.84 42.512 0.11 7.36 6.02 12.46
1/4/2023 2:00:00 PM 5.87 42.566 0.11 7.35 6.05 12.43
1/4/2023 2:15:00 PM 5.89 42.602 0.11 7.35 6.16 12.4
1/4/2023 2:30:00 PM 5.91 42.638 0.11 7.34 6.27 12.38
1/4/2023 2:45:00 PM 5.92 42.656 0.11 7.34 6.16 12.35
1/4/2023 3:00:00 PM 5.92 42.656 0.11 7.33 6.05 12.33
1/4/2023 3:15:00 PM 5.93 42.674 0.11 7.32 6.14 12.32
1/4/2023 3:30:00 PM 5.94 42.692 0.111 7.32 6.27 12.3
1/4/2023 3:45:00 PM 5.95 42.71 0.11 7.32 5.94 12.28
1/4/2023 4:00:00 PM 5.96 42.728 0.111 7.31 5.93 12.27
1/4/2023 4:15:00 PM 5.97 42.746 0.111 7.31 6.06 12.25
1/4/2023 4:30:00 PM 5.97 42.746 0.112 7.31 6.37 12.24
1/4/2023 4:45:00 PM 5.98 42.764 0.112 7.31 6.58 12.23
1/4/2023 5:00:00 PM 5.98 42.764 0.112 7.31 6.46 12.22
1/4/2023 5:15:00 PM 5.99 42.782 0.112 7.31 6.31 12.21
1/4/2023 5:30:00 PM 6 42.8 0.112 7.31 6.54 12.2
1/4/2023 5:45:00 PM 6 42.8 0.112 7.31 6.63 12.2
1/4/2023 6:00:00 PM 6.02 42.836 0.112 7.31 7.02 12.19
1/4/2023 6:15:00 PM 6.04 42.872 0.113 7.32 7.13 12.18
1/4/2023 6:30:00 PM 6.07 42.926 0.113 7.33 9.73 12.17
1/4/2023 6:45:00 PM 6.09 42.962 0.113 7.33 10.43 12.17
1/4/2023 7:00:00 PM 6.11 42.998 0.113 7.33 8.22 12.16
1/4/2023 7:15:00 PM 6.13 43.034 0.114 7.34 8.73 12.16
1/4/2023 7:30:00 PM 6.16 43.088 0.114 7.34 8.6 12.14
1/4/2023 7:45:00 PM 6.18 43.124 0.114 7.35 9.09 12.14
1/4/2023 8:00:00 PM 6.2 43.16 0.114 7.35 9.9 12.13
1/4/2023 8:15:00 PM 6.24 43.232 0.113 7.35 10.61 12.12
1/4/2023 8:30:00 PM 6.26 43.268 0.113 7.35 10.59 12.11
1/4/2023 8:45:00 PM 6.29 43.322 0.113 7.36 10.84 12.11
1/4/2023 9:00:00 PM 6.34 43.412 0.112 7.36 11.27 12.1
1/4/2023 9:15:00 PM 6.37 43.466 0.111 7.34 11.5 12.1
1/4/2023 9:30:00 PM 6.4 43.52 0.111 7.34 11.89 12.09
1/4/2023 9:45:00 PM 6.43 43.574 0.11 7.34 11.98 12.08
1/4/2023 10:00:00 PM 6.45 43.61 0.11 7.35 12.12 12.07
1/4/2023 10:15:00 PM 6.46 43.628 0.109 7.33 11.26 12.06
1/4/2023 10:30:00 PM 6.48 43.664 0.108 7.33 10.97 12.07
1/4/2023 10:45:00 PM 6.47 43.646 0.108 7.33 10.52 12.06
1/4/2023 11:00:00 PM 6.48 43.664 0.107 7.33 10.34 12.06
1/4/2023 11:15:00 PM 6.49 43.682 0.107 7.32 10.02 12.05
1/4/2023 11:30:00 PM 6.49 43.682 0.107 7.32 9.88 12.05
1/4/2023 11:45:00 PM 6.49 43.682 0.107 7.31 9.64 12.05
1/5/2023 12:00:00 AM 6.49 43.682 0.107 7.31 9.1 12.05
1/5/2023 12:15:00 AM 6.47 43.646 0.106 7.32 9.14 12.05
1/5/2023 12:30:00 AM 6.47 43.646 0.107 7.31 8.79 12.05
1/5/2023 12:45:00 AM 6.46 43.628 0.107 7.3 8.6 12.06
1/5/2023 1:00:00 AM 6.52 43.736 0.106 7.31 8.3 12.05
1/5/2023 1:15:00 AM 6.51 43.718 0.107 7.31 9.98 12.06
1/5/2023 1:30:00 AM 6.51 43.718 0.108 7.31 10.4 12.05
1/5/2023 1:45:00 AM 6.5 43.7 0.108 7.32 9.74 12.06
1/5/2023 2:00:00 AM 6.47 43.646 0.108 7.31 9.36 12.07
1/5/2023 2:15:00 AM 6.44 43.592 0.108 7.32 12.17 12.07
1/5/2023 2:30:00 AM 6.42 43.556 0.108 7.32 10.28 12.09
1/5/2023 2:45:00 AM 6.38 43.484 0.108 7.32 9.65 12.1
1/5/2023 3:00:00 AM 6.36 43.448 0.108 7.31 9.48 12.11
1/5/2023 3:15:00 AM 6.33 43.394 0.108 7.32 10.25 12.11
1/5/2023 3:30:00 AM 6.29 43.322 0.108 7.32 11.62 12.12
1/5/2023 3:45:00 AM 6.25 43.25 0.108 7.32 12.47 12.13
1/5/2023 4:00:00 AM 6.19 43.142 0.107 7.32 11.53 12.15
1/5/2023 4:15:00 AM 6.12 43.016 0.107 7.32 11.05 12.18
1/5/2023 4:30:00 AM 6.05 42.89 0.106 7.31 10.48 12.2
1/5/2023 4:45:00 AM 5.98 42.764 0.106 7.31 10.36 12.22
1/5/2023 5:00:00 AM 5.91 42.638 0.106 7.3 10.13 12.25
1/5/2023 5:15:00 AM 5.85 42.53 0.106 7.31 10.01 12.27
1/5/2023 5:30:00 AM 5.79 42.422 0.106 7.3 9.56 12.29
1/5/2023 5:45:00 AM 5.72 42.296 0.106 7.29 8.99 12.31
1/5/2023 6:00:00 AM 5.66 42.188 0.106 7.29 8.82 12.32
1/5/2023 6:15:00 AM 5.6 42.08 0.106 7.28 8.26 12.34
1/5/2023 6:30:00 AM 5.53 41.954 0.106 7.28 8.17 12.36
1/5/2023 6:45:00 AM 5.47 41.846 0.106 7.29 7.84 12.39
1/5/2023 7:00:00 AM 5.4 41.72 0.106 7.29 7.67 12.41
1/5/2023 7:15:00 AM 5.33 41.594 0.107 7.29 7.59 12.44
1/5/2023 7:30:00 AM 5.26 41.468 0.107 7.29 7.4 12.45
1/5/2023 7:45:00 AM 5.19 41.342 0.107 7.29 7.18 12.48
1/5/2023 8:00:00 AM 5.13 41.234 0.107 7.28 7.25 12.51
1/5/2023 8:15:00 AM 5.07 41.126 0.108 7.29 6.97 12.53
1/5/2023 8:30:00 AM 5.03 41.054 0.108 7.29 6.72 12.56
1/5/2023 8:45:00 AM 5.03 41.054 0.108 7.29 6.52 12.6
1/5/2023 9:00:00 AM 5.03 41.054 0.109 7.31 6.58 12.63
1/5/2023 9:15:00 AM 5.03 41.054 0.109 7.31 6.18 12.65
1/5/2023 9:30:00 AM 5.03 41.054 0.109 7.31 6.02 12.67
1/5/2023 9:45:00 AM 5.04 41.072 0.109 7.33 5.95 12.68
1/5/2023 10:00:00 AM 5.07 41.126 0.11 7.33 5.88 12.7
1/5/2023 10:15:00 AM 5.1 41.18 0.11 7.34 5.76 12.71
1/5/2023 10:30:00 AM 5.13 41.234 0.11 7.35 5.58 12.71
1/5/2023 10:45:00 AM 5.18 41.324 0.11 7.34 5.46 12.7
1/5/2023 11:00:00 AM 5.23 41.414 0.11 7.35 5.42 12.7
1/5/2023 11:15:00 AM 5.27 41.486 0.111 7.35 5.39 12.69
1/5/2023 11:30:00 AM 5.32 41.576 0.111 7.35 5.24 12.68
1/5/2023 11:45:00 AM 5.39 41.702 0.111 7.36 5.16 12.67
1/5/2023 12:00:00 PM 5.49 41.882 0.111 7.37 5.18 12.64
1/5/2023 12:15:00 PM 5.58 42.044 0.111 7.37 5.08 12.6
1/5/2023 12:30:00 PM 5.64 42.152 0.112 7.37 5.05 12.58
1/5/2023 12:45:00 PM 5.68 42.224 0.112 7.37 4.98 12.56
1/5/2023 1:00:00 PM 5.77 42.386 0.112 7.38 5.07 12.56
1/5/2023 1:15:00 PM 5.85 42.53 0.112 7.38 4.87 12.54
1/5/2023 1:30:00 PM 5.96 42.728 0.112 7.39 4.84 12.51
1/5/2023 1:45:00 PM 5.99 42.782 0.112 7.38 4.98 12.5
1/5/2023 2:00:00 PM 6 42.8 0.112 7.38 4.86 12.48
1/5/2023 2:15:00 PM 6.01 42.818 0.113 7.39 4.83 12.48
1/5/2023 2:30:00 PM 6.02 42.836 0.113 7.38 4.85 12.46
1/5/2023 2:45:00 PM 6.05 42.89 0.113 7.38 4.8 12.44
1/5/2023 3:00:00 PM 6.06 42.908 0.113 7.38 4.84 12.42
1/5/2023 3:15:00 PM 6.06 42.908 0.113 7.38 4.87 12.4
1/5/2023 3:30:00 PM 6.03 42.854 0.113 7.38 4.76 12.39
1/5/2023 3:45:00 PM 6 42.8 0.114 7.38 4.78 12.38
1/5/2023 4:00:00 PM 5.97 42.746 0.114 7.37 4.74 12.37
1/5/2023 4:15:00 PM 5.94 42.692 0.114 7.37 4.7 12.35
1/5/2023 4:30:00 PM 5.91 42.638 0.114 7.36 4.61 12.33
1/5/2023 4:45:00 PM 5.89 42.602 0.114 7.35 4.56 12.31
1/5/2023 5:00:00 PM 5.87 42.566 0.114 7.34 4.71 12.31
1/5/2023 5:15:00 PM 5.85 42.53 0.115 7.33 4.62 12.3
1/5/2023 5:30:00 PM 5.82 42.476 0.115 7.34 4.66 12.3
1/5/2023 5:45:00 PM 5.79 42.422 0.115 7.33 4.69 12.3
1/5/2023 6:00:00 PM 5.75 42.35 0.115 7.34 4.65 12.3
1/5/2023 6:15:00 PM 5.71 42.278 0.115 7.33 4.69 12.31
1/5/2023 6:30:00 PM 5.65 42.17 0.115 7.33 4.69 12.32
1/5/2023 6:45:00 PM 5.6 42.08 0.115 7.33 4.69 12.33
1/5/2023 7:00:00 PM 5.55 41.99 0.116 7.33 4.69 12.35
1/5/2023 7:15:00 PM 5.51 41.918 0.116 7.33 4.62 12.38
1/5/2023 7:30:00 PM 5.47 41.846 0.116 7.33 4.5 12.39
1/5/2023 7:45:00 PM 5.43 41.774 0.116 7.32 4.56 12.41
1/5/2023 8:00:00 PM 5.39 41.702 0.116 7.32 4.53 12.42
1/5/2023 8:15:00 PM 5.36 41.648 0.116 7.32 4.56 12.43
1/5/2023 8:30:00 PM 5.31 41.558 0.116 7.32 4.41 12.44
1/5/2023 8:45:00 PM 5.27 41.486 0.116 7.32 4.61 12.46
1/5/2023 9:00:00 PM 5.22 41.396 0.116 7.32 4.49 12.47
1/5/2023 9:15:00 PM 5.17 41.306 0.116 7.32 4.44 12.49
1/5/2023 9:30:00 PM 5.12 41.216 0.116 7.33 4.45 12.49
1/5/2023 9:45:00 PM 5.07 41.126 0.117 7.32 4.37 12.51
1/5/2023 10:00:00 PM 5.02 41.036 0.117 7.32 4.43 12.52
1/5/2023 10:15:00 PM 4.97 40.946 0.117 7.32 4.47 12.54
1/5/2023 10:30:00 PM 4.92 40.856 0.117 7.32 4.43 12.55
1/5/2023 10:45:00 PM 4.87 40.766 0.117 7.33 4.34 12.57
1/5/2023 11:00:00 PM 4.81 40.658 0.117 7.32 4.31 12.59
1/5/2023 11:15:00 PM 4.76 40.568 0.117 7.32 4.39 12.61
1/5/2023 11:30:00 PM 4.72 40.496 0.117 7.32 4.37 12.62
1/5/2023 11:45:00 PM 4.68 40.424 0.117 7.32 4.37 12.64
1/6/2023 12:00:00 AM 4.63 40.334 0.117 7.32 4.18 12.66
1/6/2023 12:15:00 AM 4.6 40.28 0.118 7.33 4.31 12.67
1/6/2023 12:30:00 AM 4.55 40.19 0.117 7.32 4.23 12.68
1/6/2023 12:45:00 AM 4.52 40.136 0.118 7.32 4.28 12.7
1/6/2023 1:00:00 AM 4.49 40.082 0.118 7.32 4.28 12.71
1/6/2023 1:15:00 AM 4.45 40.01 0.118 7.32 4.27 12.72
1/6/2023 1:30:00 AM 4.42 39.956 0.118 7.32 4.3 12.72
1/6/2023 1:45:00 AM 4.39 39.902 0.118 7.32 4.21 12.73
1/6/2023 2:00:00 AM 4.37 39.866 0.118 7.32 4.28 12.74
1/6/2023 2:15:00 AM 4.34 39.812 0.118 7.32 4.21 12.74
1/6/2023 2:30:00 AM 4.32 39.776 0.118 7.32 4.19 12.75
1/6/2023 2:45:00 AM 4.29 39.722 0.119 7.32 4.37 12.76
1/6/2023 3:00:00 AM 4.27 39.686 0.119 7.32 4.18 12.77
1/6/2023 3:15:00 AM 4.24 39.632 0.119 7.32 4.17 12.78
1/6/2023 3:30:00 AM 4.22 39.596 0.119 7.32 4.27 12.79
1/6/2023 3:45:00 AM 4.2 39.56 0.119 7.32 4.28 12.8
1/6/2023 4:00:00 AM 4.18 39.524 0.119 7.32 4.22 12.82
1/6/2023 4:15:00 AM 4.16 39.488 0.119 7.32 4.19 12.82
1/6/2023 4:30:00 AM 4.14 39.452 0.119 7.32 4.22 12.82
1/6/2023 4:45:00 AM 4.13 39.434 0.119 7.32 4.23 12.83
1/6/2023 5:00:00 AM 4.11 39.398 0.119 7.32 4.2 12.83
1/6/2023 5:15:00 AM 4.1 39.38 0.119 7.32 4.21 12.84
1/6/2023 5:30:00 AM 4.09 39.362 0.119 7.33 4.26 12.84
1/6/2023 5:45:00 AM 4.07 39.326 0.119 7.33 4.27 12.85
1/6/2023 6:00:00 AM 4.06 39.308 0.119 7.32 4.11 12.85
1/6/2023 6:15:00 AM 4.03 39.254 0.119 7.32 4.07 12.86
1/6/2023 6:30:00 AM 4.02 39.236 0.12 7.32 4.26 12.87
1/6/2023 6:45:00 AM 4.01 39.218 0.12 7.32 4.1 12.88
1/6/2023 7:00:00 AM 4 39.2 0.119 7.32 4.03 12.87
1/6/2023 7:15:00 AM 3.99 39.182 0.12 7.32 4.11 12.88
1/6/2023 7:30:00 AM 3.99 39.182 0.12 7.32 4.07 12.89
1/6/2023 7:45:00 AM 3.99 39.182 0.12 7.33 3.92 12.89
1/6/2023 8:00:00 AM 3.99 39.182 0.12 7.32 3.98 12.9
1/6/2023 8:15:00 AM 3.99 39.182 0.12 7.33 4.16 12.91
1/6/2023 8:30:00 AM 3.99 39.182 0.12 7.33 3.85 12.92
1/6/2023 8:45:00 AM 4 39.2 0.12 7.33 3.93 12.94
1/6/2023 9:00:00 AM 4.02 39.236 0.12 7.34 4 12.95
1/6/2023 9:15:00 AM 4.04 39.272 0.12 7.35 3.71 12.97
1/6/2023 9:30:00 AM 4.06 39.308 0.12 7.36 3.82 13
1/6/2023 9:45:00 AM 4.09 39.362 0.12 7.36 3.78 13.01
1/6/2023 10:00:00 AM 4.12 39.416 0.12 7.37 3.83 13.02
1/6/2023 10:15:00 AM 4.15 39.47 0.12 7.37 3.8 13.02
1/6/2023 10:30:00 AM 4.18 39.524 0.12 7.37 3.69 13.03
1/6/2023 10:45:00 AM 4.21 39.578 0.12 7.39 3.78 13.02
1/6/2023 11:00:00 AM 4.25 39.65 0.12 7.39 3.74 13.02
1/6/2023 11:15:00 AM 4.29 39.722 0.12 7.4 3.63 13.01
1/6/2023 11:30:00 AM 4.31 39.758 0.12 7.4 3.65 13.01
1/6/2023 11:45:00 AM 4.34 39.812 0.12 7.4 3.55 13
1/6/2023 12:00:00 PM 4.36 39.848 0.12 7.41 3.5 13
1/6/2023 12:15:00 PM 4.4 39.92 0.12 7.41 3.49 13
1/6/2023 12:30:00 PM 4.43 39.974 0.12 7.41 3.63 13
1/6/2023 12:45:00 PM 4.47 40.046 0.12 7.42 3.6 13
1/6/2023 1:00:00 PM 4.49 40.082 0.12 7.42 3.54 12.99
1/6/2023 1:15:00 PM 4.52 40.136 0.12 7.42 3.44 12.98
1/6/2023 1:30:00 PM 4.54 40.172 0.12 7.42 3.42 12.97
1/6/2023 1:45:00 PM 4.55 40.19 0.12 7.43 3.53 12.96
1/6/2023 2:00:00 PM 4.55 40.19 0.119 7.42 3.48 12.94
1/6/2023 2:15:00 PM 4.55 40.19 0.119 7.42 3.5 12.93
1/6/2023 2:30:00 PM 4.55 40.19 0.119 7.42 3.46 12.93
1/6/2023 2:45:00 PM 4.54 40.172 0.119 7.42 3.48 12.91
1/6/2023 3:00:00 PM 4.52 40.136 0.119 7.4 3.42 12.89
1/6/2023 3:15:00 PM 4.5 40.1 0.119 7.4 3.52 12.88
1/6/2023 3:30:00 PM 4.49 40.082 0.119 7.4 3.5 12.88
1/6/2023 3:45:00 PM 4.47 40.046 0.119 7.39 3.51 12.88
1/6/2023 4:00:00 PM 4.46 40.028 0.119 7.39 3.45 12.88
1/6/2023 4:15:00 PM 4.44 39.992 0.119 7.39 3.45 12.87
1/6/2023 4:30:00 PM 4.42 39.956 0.119 7.39 3.46 12.85
1/6/2023 4:45:00 PM 4.39 39.902 0.119 7.38 3.52 12.84
1/6/2023 5:00:00 PM 4.38 39.884 0.119 7.37 3.5 12.83
1/6/2023 5:15:00 PM 4.35 39.83 0.119 7.37 3.48 12.83
1/6/2023 5:30:00 PM 4.33 39.794 0.119 7.37 3.6 12.83
1/6/2023 5:45:00 PM 4.31 39.758 0.119 7.37 3.49 12.83
1/6/2023 6:00:00 PM 4.29 39.722 0.119 7.36 3.69 12.83
1/6/2023 6:15:00 PM 4.27 39.686 0.119 7.36 3.61 12.85
1/6/2023 6:30:00 PM 4.25 39.65 0.119 7.36 3.47 12.85
1/6/2023 6:45:00 PM 4.23 39.614 0.119 7.35 3.5 12.86
1/6/2023 7:00:00 PM 4.2 39.56 0.119 7.36 3.52 12.87
1/6/2023 7:15:00 PM 4.18 39.524 0.119 7.36 3.41 12.88
1/6/2023 7:30:00 PM 4.17 39.506 0.119 7.35 3.47 12.89
1/6/2023 7:45:00 PM 4.15 39.47 0.119 7.35 3.5 12.9
1/6/2023 8:00:00 PM 4.13 39.434 0.119 7.36 3.41 12.91
1/6/2023 8:15:00 PM 4.11 39.398 0.119 7.35 3.44 12.91
1/6/2023 8:30:00 PM 4.09 39.362 0.119 7.35 3.52 12.92
1/6/2023 8:45:00 PM 4.07 39.326 0.119 7.36 3.51 12.93
1/6/2023 9:00:00 PM 4.05 39.29 0.12 7.36 3.45 12.94
1/6/2023 9:15:00 PM 4.02 39.236 0.12 7.36 3.46 12.94
1/6/2023 9:30:00 PM 3.99 39.182 0.12 7.36 3.53 12.95
1/6/2023 9:45:00 PM 3.97 39.146 0.12 7.35 3.45 12.97
1/6/2023 10:00:00 PM 3.95 39.11 0.12 7.35 3.45 12.97
1/6/2023 10:15:00 PM 3.93 39.074 0.12 7.35 3.61 12.98
1/6/2023 10:30:00 PM 3.91 39.038 0.12 7.36 3.59 12.99
1/6/2023 10:45:00 PM 3.89 39.002 0.12 7.36 3.53 13
1/6/2023 11:00:00 PM 3.87 38.966 0.121 7.35 3.5 13.01
1/6/2023 11:15:00 PM 3.86 38.948 0.121 7.35 3.55 13.01
1/6/2023 11:30:00 PM 3.85 38.93 0.121 7.35 3.58 13.01
1/6/2023 11:45:00 PM 3.85 38.93 0.121 7.35 3.66 13.02
1/7/2023 12:00:00 AM 3.84 38.912 0.121 7.36 3.65 13.02
1/7/2023 12:15:00 AM 3.83 38.894 0.121 7.35 3.6 13.02
1/7/2023 12:30:00 AM 3.82 38.876 0.121 7.36 3.65 13.02
1/7/2023 12:45:00 AM 3.81 38.858 0.121 7.36 3.59 13.02
1/7/2023 1:00:00 AM 3.8 38.84 0.121 7.36 3.63 13.02
1/7/2023 1:15:00 AM 3.79 38.822 0.121 7.36 3.56 13.02
1/7/2023 1:30:00 AM 3.79 38.822 0.121 7.36 3.5 13.03
1/7/2023 1:45:00 AM 3.77 38.786 0.122 7.36 3.47 13.02
1/7/2023 2:00:00 AM 3.77 38.786 0.122 7.36 3.46 13.03
1/7/2023 2:15:00 AM 3.76 38.768 0.122 7.36 3.44 13.03
1/7/2023 2:30:00 AM 3.74 38.732 0.122 7.36 3.42 13.04
1/7/2023 2:45:00 AM 3.74 38.732 0.122 7.37 3.34 13.03
1/7/2023 3:00:00 AM 3.73 38.714 0.122 7.36 3.42 13.04
1/7/2023 3:15:00 AM 3.72 38.696 0.122 7.36 3.47 13.05
1/7/2023 3:30:00 AM 3.71 38.678 0.122 7.37 3.38 13.05
1/7/2023 3:45:00 AM 3.7 38.66 0.122 7.35 3.39 13.05
1/7/2023 4:00:00 AM 3.69 38.642 0.122 7.36 3.37 13.05
1/7/2023 4:15:00 AM 3.67 38.606 0.122 7.36 3.35 13.05
1/7/2023 4:30:00 AM 3.66 38.588 0.122 7.36 3.37 13.06
1/7/2023 4:45:00 AM 3.65 38.57 0.122 7.36 3.42 13.07
1/7/2023 5:00:00 AM 3.63 38.534 0.123 7.36 3.43 13.08
1/7/2023 5:15:00 AM 3.62 38.516 0.123 7.36 3.38 13.08
1/7/2023 5:30:00 AM 3.62 38.516 0.123 7.37 3.32 13.09
1/7/2023 5:45:00 AM 3.61 38.498 0.123 7.36 3.31 13.09
1/7/2023 6:00:00 AM 3.6 38.48 0.123 7.36 3.3 13.1
1/7/2023 6:15:00 AM 3.6 38.48 0.123 7.36 3.28 13.09
1/7/2023 6:30:00 AM 3.6 38.48 0.123 7.36 3.32 13.1
1/7/2023 6:45:00 AM 3.6 38.48 0.123 7.36 3.22 13.1
1/7/2023 7:00:00 AM 3.59 38.462 0.123 7.37 3.28 13.1
1/7/2023 7:15:00 AM 3.59 38.462 0.123 7.37 3.32 13.1
1/7/2023 7:30:00 AM 3.58 38.444 0.123 7.37 3.35 13.11
1/7/2023 7:45:00 AM 3.58 38.444 0.124 7.37 3.43 13.12
1/7/2023 8:00:00 AM 3.58 38.444 0.124 7.37 3.53 13.12
1/7/2023 8:15:00 AM 3.57 38.426 0.124 7.37 3.5 13.14
1/7/2023 8:30:00 AM 3.57 38.426 0.124 7.38 3.51 13.15
1/7/2023 8:45:00 AM 3.57 38.426 0.124 7.38 3.29 13.16
1/7/2023 9:00:00 AM 3.57 38.426 0.124 7.39 3.23 13.17
1/7/2023 9:15:00 AM 3.58 38.444 0.124 7.39 3.21 13.18
1/7/2023 9:30:00 AM 3.57 38.426 0.124 7.39 3.77 13.19
1/7/2023 9:45:00 AM 3.56 38.408 0.124 7.39 12.04 13.18
1/7/2023 10:00:00 AM 3.58 38.444 0.124 7.39 6.41 13.21
1/7/2023 10:15:00 AM 3.59 38.462 0.124 7.4 4.75 13.24
1/7/2023 10:30:00 AM 3.6 38.48 0.124 7.41 4.15 13.26
1/7/2023 10:45:00 AM 3.59 38.462 0.124 7.41 3.9 13.27
1/7/2023 11:00:00 AM 3.61 38.498 0.124 7.42 4.73 13.29
1/7/2023 11:15:00 AM 3.65 38.57 0.124 7.43 3.71 13.3
1/7/2023 11:30:00 AM 3.69 38.642 0.124 7.43 3.38 13.31
1/7/2023 11:45:00 AM 3.73 38.714 0.124 7.43 3.19 13.31
1/7/2023 12:00:00 PM 3.78 38.804 0.124 7.44 3.14 13.32
1/7/2023 12:15:00 PM 3.81 38.858 0.124 7.45 3.15 13.32
1/7/2023 12:30:00 PM 3.85 38.93 0.124 7.45 3.12 13.32
1/7/2023 12:45:00 PM 3.88 38.984 0.124 7.45 3.14 13.31
1/7/2023 1:00:00 PM 3.92 39.056 0.124 7.46 3.05 13.3
1/7/2023 1:15:00 PM 3.94 39.092 0.124 7.46 3.12 13.28
1/7/2023 1:30:00 PM 3.95 39.11 0.124 7.45 3 13.27
1/7/2023 1:45:00 PM 3.95 39.11 0.124 7.46 3 13.25
1/7/2023 2:00:00 PM 3.95 39.11 0.125 7.45 3.02 13.23
1/7/2023 2:15:00 PM 3.97 39.146 0.125 7.46 3.61 13.24
1/7/2023 2:30:00 PM 3.97 39.146 0.125 7.46 3.56 13.25
1/7/2023 2:45:00 PM 3.97 39.146 0.125 7.46 3.3 13.25
1/7/2023 3:00:00 PM 3.97 39.146 0.125 7.46 3.88 13.24
1/7/2023 3:15:00 PM 3.98 39.164 0.125 7.46 3.72 13.24
1/7/2023 3:30:00 PM 3.98 39.164 0.125 7.46 3.06 13.22
1/7/2023 3:45:00 PM 3.96 39.128 0.125 7.45 2.94 13.19
1/7/2023 4:00:00 PM 3.94 39.092 0.125 7.44 3.01 13.17
1/7/2023 4:15:00 PM 3.92 39.056 0.125 7.43 2.93 13.14
1/7/2023 4:30:00 PM 3.88 38.984 0.125 7.43 3.02 13.13
1/7/2023 4:45:00 PM 3.86 38.948 0.125 7.42 2.97 13.11
1/7/2023 5:00:00 PM 3.83 38.894 0.125 7.41 3.13 13.11
1/7/2023 5:15:00 PM 3.8 38.84 0.125 7.41 2.91 13.1
1/7/2023 5:30:00 PM 3.76 38.768 0.125 7.4 3.01 13.09
1/7/2023 5:45:00 PM 3.73 38.714 0.125 7.4 3.04 13.1
1/7/2023 6:00:00 PM 3.7 38.66 0.125 7.4 2.97 13.11
1/7/2023 6:15:00 PM 3.67 38.606 0.125 7.4 2.92 13.12
1/7/2023 6:30:00 PM 3.63 38.534 0.125 7.4 2.99 13.13
1/7/2023 6:45:00 PM 3.6 38.48 0.125 7.4 2.97 13.14
1/7/2023 7:00:00 PM 3.57 38.426 0.125 7.39 2.99 13.16
1/7/2023 7:15:00 PM 3.53 38.354 0.126 7.39 2.89 13.17
1/7/2023 7:30:00 PM 3.5 38.3 0.126 7.39 2.94 13.18
1/7/2023 7:45:00 PM 3.46 38.228 0.126 7.39 2.95 13.2
1/7/2023 8:00:00 PM 3.43 38.174 0.126 7.4 2.93 13.22
1/7/2023 8:15:00 PM 3.4 38.12 0.126 7.39 2.98 13.22
1/7/2023 8:30:00 PM 3.37 38.066 0.126 7.4 2.94 13.24
1/7/2023 8:45:00 PM 3.33 37.994 0.126 7.4 2.9 13.25
1/7/2023 9:00:00 PM 3.29 37.922 0.126 7.4 2.93 13.27
1/7/2023 9:15:00 PM 3.25 37.85 0.126 7.4 2.94 13.28
1/7/2023 9:30:00 PM 3.21 37.778 0.126 7.39 2.86 13.3
1/7/2023 9:45:00 PM 3.16 37.688 0.126 7.4 2.92 13.3
1/7/2023 10:00:00 PM 3.12 37.616 0.126 7.39 2.9 13.31
1/7/2023 10:15:00 PM 3.1 37.58 0.126 7.4 2.91 13.33
1/7/2023 10:30:00 PM 3.07 37.526 0.126 7.39 2.94 13.34
1/7/2023 10:45:00 PM 3.04 37.472 0.126 7.39 2.93 13.35
1/7/2023 11:00:00 PM 3 37.4 0.127 7.4 2.86 13.36
1/7/2023 11:15:00 PM 2.96 37.328 0.127 7.4 2.95 13.38
1/7/2023 11:30:00 PM 2.92 37.256 0.127 7.39 2.92 13.4
1/7/2023 11:45:00 PM 2.87 37.166 0.127 7.39 2.85 13.42
1/8/2023 12:00:00 AM 2.84 37.112 0.127 7.39 2.8 13.44
1/8/2023 12:15:00 AM 2.82 37.076 0.127 7.39 2.86 13.45
1/8/2023 12:30:00 AM 2.8 37.04 0.127 7.39 2.89 13.46
1/8/2023 12:45:00 AM 2.78 37.004 0.127 7.4 2.91 13.46
1/8/2023 1:00:00 AM 2.76 36.968 0.127 7.39 2.98 13.48
1/8/2023 1:15:00 AM 2.75 36.95 0.127 7.4 2.89 13.48
1/8/2023 1:30:00 AM 2.73 36.914 0.127 7.4 2.83 13.49
1/8/2023 1:45:00 AM 2.72 36.896 0.128 7.4 2.83 13.49
1/8/2023 2:00:00 AM 2.7 36.86 0.128 7.4 4.27 13.5
1/8/2023 2:15:00 AM 2.68 36.824 0.128 7.4 3.87 13.52
1/8/2023 2:30:00 AM 2.65 36.77 0.128 7.39 3.49 13.52
1/8/2023 2:45:00 AM 2.62 36.716 0.128 7.4 3.22 13.53
1/8/2023 3:00:00 AM 2.59 36.662 0.128 7.4 3.3 13.54
1/8/2023 3:15:00 AM 2.56 36.608 0.128 7.39 3.42 13.56
1/8/2023 3:30:00 AM 2.5 36.5 0.128 7.39 3.16 13.56
1/8/2023 3:45:00 AM 2.46 36.428 0.128 7.4 3.15 13.58
1/8/2023 4:00:00 AM 2.44 36.392 0.128 7.4 3.12 13.59
1/8/2023 4:15:00 AM 2.41 36.338 0.128 7.4 3.09 13.6
1/8/2023 4:30:00 AM 2.38 36.284 0.128 7.4 3.06 13.61
1/8/2023 4:45:00 AM 2.36 36.248 0.129 7.4 3.08 13.62
1/8/2023 5:00:00 AM 2.33 36.194 0.129 7.4 3.14 13.63
1/8/2023 5:15:00 AM 2.31 36.158 0.129 7.4 3.39 13.65
1/8/2023 5:30:00 AM 2.29 36.122 0.129 7.4 3.02 13.65
1/8/2023 5:45:00 AM 2.25 36.05 0.129 7.4 2.85 13.67
1/8/2023 6:00:00 AM 2.23 36.014 0.129 7.4 2.89 13.68
1/8/2023 6:15:00 AM 2.22 35.996 0.129 7.4 3 13.68
1/8/2023 6:30:00 AM 2.19 35.942 0.129 7.4 2.95 13.7
1/8/2023 6:45:00 AM 2.18 35.924 0.129 7.4 2.93 13.71
1/8/2023 7:00:00 AM 2.16 35.888 0.129 7.4 2.85 13.71
1/8/2023 7:15:00 AM 2.15 35.87 0.129 7.4 2.81 13.72
1/8/2023 7:30:00 AM 2.14 35.852 0.13 7.4 2.8 13.72
1/8/2023 7:45:00 AM 2.13 35.834 0.13 7.41 2.85 13.73
1/8/2023 8:00:00 AM 2.11 35.798 0.13 7.4 2.88 13.75
1/8/2023 8:15:00 AM 2.11 35.798 0.13 7.41 2.72 13.78
1/8/2023 8:30:00 AM 2.1 35.78 0.13 7.41 2.76 13.81
1/8/2023 8:45:00 AM 2.1 35.78 0.13 7.42 2.74 13.84
1/8/2023 9:00:00 AM 2.1 35.78 0.13 7.43 2.8 13.88
1/8/2023 9:15:00 AM 2.1 35.78 0.13 7.43 2.79 13.91
1/8/2023 9:30:00 AM 2.13 35.834 0.13 7.45 2.68 13.91
1/8/2023 9:45:00 AM 2.15 35.87 0.13 7.45 2.72 13.93
1/8/2023 10:00:00 AM 2.18 35.924 0.13 7.46 2.71 13.94
1/8/2023 10:15:00 AM 2.2 35.96 0.13 7.47 2.68 13.96
1/8/2023 10:30:00 AM 2.22 35.996 0.13 7.47 2.62 13.96
1/8/2023 10:45:00 AM 2.25 36.05 0.13 7.47 2.69 13.96
1/8/2023 11:00:00 AM 2.28 36.104 0.13 7.48 2.9 13.97
1/8/2023 11:15:00 AM 2.33 36.194 0.13 7.48 2.73 13.95
1/8/2023 11:30:00 AM 2.38 36.284 0.13 7.48 2.72 13.94
1/8/2023 11:45:00 AM 2.43 36.374 0.13 7.49 2.74 13.92
1/8/2023 12:00:00 PM 2.47 36.446 0.13 7.49 2.85 13.91
1/8/2023 12:15:00 PM 2.51 36.518 0.13 7.49 2.81 13.9
1/8/2023 12:30:00 PM 2.58 36.644 0.13 7.5 2.68 13.88
1/8/2023 12:45:00 PM 2.67 36.806 0.13 7.5 2.55 13.87
1/8/2023 1:00:00 PM 2.74 36.932 0.13 7.5 2.45 13.85
1/8/2023 1:15:00 PM 2.8 37.04 0.13 7.5 2.53 13.82
1/8/2023 1:30:00 PM 2.9 37.22 0.13 7.5 2.62 13.79
1/8/2023 1:45:00 PM 2.96 37.328 0.13 7.51 2.53 13.74
1/8/2023 2:00:00 PM 2.97 37.346 0.13 7.5 2.51 13.71
1/8/2023 2:15:00 PM 2.95 37.31 0.13 7.5 2.48 13.7
1/8/2023 2:30:00 PM 2.95 37.31 0.13 7.5 2.54 13.69
1/8/2023 2:45:00 PM 2.94 37.292 0.13 7.5 2.46 13.68
1/8/2023 3:00:00 PM 2.91 37.238 0.13 7.5 2.62 13.67
1/8/2023 3:15:00 PM 2.87 37.166 0.13 7.49 2.61 13.67
1/8/2023 3:30:00 PM 2.83 37.094 0.13 7.49 2.55 13.66
1/8/2023 3:45:00 PM 2.79 37.022 0.13 7.48 2.58 13.66
1/8/2023 4:00:00 PM 2.74 36.932 0.13 7.48 2.51 13.66
1/8/2023 4:15:00 PM 2.69 36.842 0.131 7.47 2.46 13.64
1/8/2023 4:30:00 PM 2.63 36.734 0.13 7.46 2.51 13.64
1/8/2023 4:45:00 PM 2.59 36.662 0.131 7.46 2.49 13.61
1/8/2023 5:00:00 PM 2.54 36.572 0.131 7.45 2.46 13.59
1/8/2023 5:15:00 PM 2.5 36.5 0.131 7.44 2.38 13.56
1/8/2023 5:30:00 PM 2.46 36.428 0.131 7.43 2.39 13.56
1/8/2023 5:45:00 PM 2.41 36.338 0.132 7.44 2.41 13.55
1/8/2023 6:00:00 PM 2.37 36.266 0.132 7.42 2.52 13.56
1/8/2023 6:15:00 PM 2.33 36.194 0.132 7.42 2.83 13.57
1/8/2023 6:30:00 PM 2.28 36.104 0.133 7.42 3.05 13.57
1/8/2023 6:45:00 PM 2.25 36.05 0.133 7.42 2.92 13.59
1/8/2023 7:00:00 PM 2.21 35.978 0.133 7.42 2.76 13.6
1/8/2023 7:15:00 PM 2.16 35.888 0.133 7.42 2.55 13.61
1/8/2023 7:30:00 PM 2.12 35.816 0.133 7.42 2.57 13.63
1/8/2023 7:45:00 PM 2.08 35.744 0.133 7.42 2.51 13.64
1/8/2023 8:00:00 PM 2.04 35.672 0.133 7.41 2.53 13.66
1/8/2023 8:15:00 PM 2 35.6 0.133 7.42 2.53 13.68
1/8/2023 8:30:00 PM 1.95 35.51 0.133 7.41 2.44 13.69
1/8/2023 8:45:00 PM 1.91 35.438 0.133 7.41 2.47 13.7
1/8/2023 9:00:00 PM 1.86 35.348 0.133 7.41 2.47 13.7
1/8/2023 9:15:00 PM 1.82 35.276 0.133 7.41 2.5 13.72
1/8/2023 9:30:00 PM 1.78 35.204 0.133 7.41 2.46 13.73
1/8/2023 9:45:00 PM 1.76 35.168 0.133 7.41 2.53 13.74
1/8/2023 10:00:00 PM 1.74 35.132 0.133 7.42 2.55 13.75
1/8/2023 10:15:00 PM 1.71 35.078 0.133 7.4 2.46 13.75
1/8/2023 10:30:00 PM 1.7 35.06 0.133 7.41 2.55 13.78
1/8/2023 10:45:00 PM 1.68 35.024 0.133 7.41 2.42 13.77
1/8/2023 11:00:00 PM 1.65 34.97 0.133 7.41 2.53 13.78
1/8/2023 11:15:00 PM 1.63 34.934 0.133 7.41 2.44 13.79
1/8/2023 11:30:00 PM 1.61 34.898 0.133 7.4 2.48 13.8
1/8/2023 11:45:00 PM 1.6 34.88 0.133 7.41 2.46 13.8
1/9/2023 12:00:00 AM 1.59 34.862 0.133 7.41 2.42 13.81
1/9/2023 12:15:00 AM 1.6 34.88 0.133 7.41 2.55 13.81
1/9/2023 12:30:00 AM 1.6 34.88 0.133 7.41 2.5 13.81
1/9/2023 12:45:00 AM 1.61 34.898 0.134 7.41 2.45 13.81
1/9/2023 1:00:00 AM 1.63 34.934 0.133 7.41 2.45 13.8
1/9/2023 1:15:00 AM 1.65 34.97 0.133 7.42 2.38 13.79
1/9/2023 1:30:00 AM 1.66 34.988 0.134 7.42 2.37 13.78
1/9/2023 1:45:00 AM 1.66 34.988 0.134 7.42 2.41 13.78
1/9/2023 2:00:00 AM 1.66 34.988 0.133 7.42 2.42 13.77
1/9/2023 2:15:00 AM 1.66 34.988 0.134 7.42 2.41 13.77
1/9/2023 2:30:00 AM 1.67 35.006 0.134 7.41 2.44 13.77
1/9/2023 2:45:00 AM 1.68 35.024 0.134 7.42 2.39 13.77
1/9/2023 3:00:00 AM 1.69 35.042 0.134 7.41 2.45 13.76
1/9/2023 3:15:00 AM 1.69 35.042 0.134 7.42 2.42 13.76
1/9/2023 3:30:00 AM 1.71 35.078 0.134 7.42 2.46 13.75
1/9/2023 3:45:00 AM 1.72 35.096 0.134 7.42 2.45 13.74
1/9/2023 4:00:00 AM 1.74 35.132 0.134 7.42 2.49 13.73
1/9/2023 4:15:00 AM 1.75 35.15 0.134 7.42 2.53 13.73
1/9/2023 4:30:00 AM 1.76 35.168 0.134 7.42 2.47 13.73
1/9/2023 4:45:00 AM 1.78 35.204 0.134 7.42 2.44 13.71
1/9/2023 5:00:00 AM 1.8 35.24 0.134 7.43 2.44 13.7
1/9/2023 5:15:00 AM 1.81 35.258 0.134 7.42 2.54 13.7
1/9/2023 5:30:00 AM 1.83 35.294 0.134 7.42 2.5 13.69
1/9/2023 5:45:00 AM 1.85 35.33 0.134 7.43 2.45 13.68
1/9/2023 6:00:00 AM 1.85 35.33 0.134 7.42 2.51 13.69
1/9/2023 6:15:00 AM 1.87 35.366 0.134 7.42 2.44 13.68
1/9/2023 6:30:00 AM 1.88 35.384 0.134 7.42 2.46 13.67
1/9/2023 6:45:00 AM 1.89 35.402 0.134 7.42 2.44 13.66
1/9/2023 7:00:00 AM 1.89 35.402 0.134 7.43 2.46 13.67
1/9/2023 7:15:00 AM 1.89 35.402 0.134 7.44 2.37 13.67
1/9/2023 7:30:00 AM 1.9 35.42 0.134 7.44 2.41 13.67
1/9/2023 7:45:00 AM 1.89 35.402 0.134 7.44 2.44 13.67
1/9/2023 8:00:00 AM 1.88 35.384 0.134 7.44 2.51 13.67
1/9/2023 8:15:00 AM 1.88 35.384 0.135 7.45 2.51 13.69
1/9/2023 8:30:00 AM 1.87 35.366 0.134 7.45 2.58 13.71
1/9/2023 8:45:00 AM 1.86 35.348 0.135 7.45 2.41 13.73
1/9/2023 9:00:00 AM 1.85 35.33 0.135 7.45 2.48 13.76
1/9/2023 9:15:00 AM 1.84 35.312 0.135 7.46 2.47 13.77
1/9/2023 9:30:00 AM 1.85 35.33 0.135 7.47 2.4 13.78
1/9/2023 9:45:00 AM 1.86 35.348 0.135 7.47 2.4 13.82
1/9/2023 10:00:00 AM 1.87 35.366 0.135 7.48 2.37 13.84
1/9/2023 10:15:00 AM 1.88 35.384 0.135 7.48 2.42 13.88
1/9/2023 10:30:00 AM 1.91 35.438 0.135 7.49 2.33 13.9
1/9/2023 10:45:00 AM 1.94 35.492 0.134 7.5 2.36 13.92
1/9/2023 11:00:00 AM 1.98 35.564 0.134 7.51 2.31 13.93
1/9/2023 11:15:00 AM 2.03 35.654 0.134 7.51 2.39 13.93
1/9/2023 11:30:00 AM 2.09 35.762 0.134 7.53 2.31 13.93
1/9/2023 11:45:00 AM 2.14 35.852 0.134 7.52 2.28 13.92
1/9/2023 12:00:00 PM 2.2 35.96 0.134 7.53 2.28 13.9
1/9/2023 12:15:00 PM 2.25 36.05 0.134 7.53 2.21 13.89
1/9/2023 12:30:00 PM 2.37 36.266 0.134 7.53 2.32 13.86
1/9/2023 12:45:00 PM 2.4 36.32 0.134 7.54 2.2 13.84
1/9/2023 1:00:00 PM 2.5 36.5 0.134 7.54 2.26 13.81
1/9/2023 1:15:00 PM 2.55 36.59 0.134 7.53 2.25 13.8
1/9/2023 1:30:00 PM 2.62 36.716 0.134 7.53 2.23 13.77
1/9/2023 1:45:00 PM 2.68 36.824 0.134 7.54 2.21 13.74
1/9/2023 2:00:00 PM 2.72 36.896 0.135 7.55 2.19 13.71
1/9/2023 2:15:00 PM 2.76 36.968 0.134 7.54 2.16 13.7
1/9/2023 2:30:00 PM 2.81 37.058 0.135 7.54 2.22 13.68
1/9/2023 2:45:00 PM 2.81 37.058 0.135 7.54 2.16 13.67
1/9/2023 3:00:00 PM 2.78 37.004 0.135 7.55 2.22 13.67
1/9/2023 3:15:00 PM 2.78 37.004 0.135 7.54 2.37 13.64
1/9/2023 3:30:00 PM 2.76 36.968 0.135 7.54 2.34 13.62
1/9/2023 3:45:00 PM 2.74 36.932 0.135 7.53 2.44 13.62
1/9/2023 4:00:00 PM 2.7 36.86 0.135 7.53 2.58 13.6
1/9/2023 4:15:00 PM 2.66 36.788 0.135 7.53 2.42 13.59
1/9/2023 4:30:00 PM 2.62 36.716 0.135 7.5 2.41 13.57
1/9/2023 4:45:00 PM 2.6 36.68 0.135 7.5 2.53 13.54
1/9/2023 5:00:00 PM 2.58 36.644 0.135 7.5 2.31 13.51
1/9/2023 5:15:00 PM 2.57 36.626 0.135 7.48 2.3 13.47
1/9/2023 5:30:00 PM 2.57 36.626 0.135 7.48 2.36 13.45
1/9/2023 5:45:00 PM 2.56 36.608 0.135 7.47 2.26 13.43
1/9/2023 6:00:00 PM 2.56 36.608 0.135 7.47 2.4 13.43
1/9/2023 6:15:00 PM 2.56 36.608 0.135 7.46 2.33 13.42
1/9/2023 6:30:00 PM 2.56 36.608 0.135 7.46 2.34 13.41
1/9/2023 6:45:00 PM 2.56 36.608 0.135 7.47 2.47 13.41
1/9/2023 7:00:00 PM 2.56 36.608 0.135 7.46 2.49 13.41
1/9/2023 7:15:00 PM 2.56 36.608 0.135 7.46 2.38 13.41
1/9/2023 7:30:00 PM 2.54 36.572 0.135 7.45 2.45 13.41
1/9/2023 7:45:00 PM 2.53 36.554 0.135 7.46 2.34 13.41
1/9/2023 8:00:00 PM 2.52 36.536 0.135 7.45 2.39 13.41
1/9/2023 8:15:00 PM 2.51 36.518 0.135 7.46 2.52 13.41
1/9/2023 8:30:00 PM 2.51 36.518 0.136 7.46 2.49 13.42
1/9/2023 8:45:00 PM 2.49 36.482 0.136 7.46 2.43 13.42
1/9/2023 9:00:00 PM 2.48 36.464 0.136 7.45 2.38 13.42
1/9/2023 9:15:00 PM 2.47 36.446 0.136 7.45 2.45 13.42
1/9/2023 9:30:00 PM 2.46 36.428 0.136 7.46 2.4 13.43
1/9/2023 9:45:00 PM 2.44 36.392 0.136 7.46 2.34 13.43
1/9/2023 10:00:00 PM 2.43 36.374 0.136 7.46 2.4 13.44
1/9/2023 10:15:00 PM 2.42 36.356 0.136 7.45 2.34 13.45
1/9/2023 10:30:00 PM 2.41 36.338 0.135 7.45 2.34 13.45
1/9/2023 10:45:00 PM 2.4 36.32 0.136 7.45 2.34 13.45
1/9/2023 11:00:00 PM 2.39 36.302 0.136 7.45 2.44 13.46
1/9/2023 11:15:00 PM 2.38 36.284 0.136 7.46 2.42 13.46
1/9/2023 11:30:00 PM 2.37 36.266 0.136 7.45 2.37 13.47
1/9/2023 11:45:00 PM 2.36 36.248 0.136 7.46 2.36 13.47
1/10/2023 12:00:00 AM 2.35 36.23 0.136 7.45 2.35 13.47
1/10/2023 12:15:00 AM 2.34 36.212 0.136 7.45 2.47 13.48
1/10/2023 12:30:00 AM 2.33 36.194 0.136 7.45 2.31 13.49
1/10/2023 12:45:00 AM 2.33 36.194 0.136 7.45 2.22 13.49
1/10/2023 1:00:00 AM 2.33 36.194 0.136 7.45 2.33 13.49
1/10/2023 1:15:00 AM 2.32 36.176 0.136 7.46 2.35 13.49
1/10/2023 1:30:00 AM 2.32 36.176 0.136 7.45 2.24 13.49
1/10/2023 1:45:00 AM 2.32 36.176 0.136 7.45 2.39 13.49
1/10/2023 2:00:00 AM 2.32 36.176 0.137 7.46 2.33 13.49
1/10/2023 2:15:00 AM 2.32 36.176 0.137 7.46 2.33 13.49
1/10/2023 2:30:00 AM 2.31 36.158 0.136 7.46 2.21 13.5
1/10/2023 2:45:00 AM 2.3 36.14 0.137 7.46 2.31 13.5
1/10/2023 3:00:00 AM 2.3 36.14 0.136 7.46 2.36 13.5
1/10/2023 3:15:00 AM 2.29 36.122 0.137 7.45 2.37 13.51
1/10/2023 3:30:00 AM 2.28 36.104 0.137 7.46 2.32 13.51
1/10/2023 3:45:00 AM 2.28 36.104 0.137 7.46 2.34 13.51
1/10/2023 4:00:00 AM 2.27 36.086 0.137 7.46 2.33 13.51
1/10/2023 4:15:00 AM 2.27 36.086 0.137 7.46 2.44 13.52
1/10/2023 4:30:00 AM 2.26 36.068 0.137 7.46 2.42 13.52
1/10/2023 4:45:00 AM 2.26 36.068 0.137 7.45 2.36 13.53
1/10/2023 5:00:00 AM 2.26 36.068 0.137 7.46 2.36 13.53
1/10/2023 5:15:00 AM 2.25 36.05 0.137 7.46 2.47 13.52
1/10/2023 5:30:00 AM 2.25 36.05 0.137 7.46 2.43 13.53
1/10/2023 5:45:00 AM 2.24 36.032 0.137 7.46 2.36 13.53
1/10/2023 6:00:00 AM 2.24 36.032 0.137 7.46 2.36 13.53
1/10/2023 6:15:00 AM 2.23 36.014 0.137 7.46 2.41 13.54
1/10/2023 6:30:00 AM 2.23 36.014 0.138 7.46 2.27 13.53
1/10/2023 6:45:00 AM 2.23 36.014 0.137 7.46 2.3 13.54
1/10/2023 7:00:00 AM 2.23 36.014 0.137 7.46 2.31 13.54
1/10/2023 7:15:00 AM 2.23 36.014 0.137 7.46 2.29 13.54
1/10/2023 7:30:00 AM 2.24 36.032 0.138 7.46 2.29 13.54
1/10/2023 7:45:00 AM 2.24 36.032 0.137 7.46 2.22 13.54
1/10/2023 8:00:00 AM 2.24 36.032 0.137 7.46 2.31 13.55
1/10/2023 8:15:00 AM 2.24 36.032 0.137 7.46 2.24 13.55
1/10/2023 8:30:00 AM 2.24 36.032 0.138 7.48 2.29 13.56
1/10/2023 8:45:00 AM 2.25 36.05 0.138 7.47 2.21 13.58
1/10/2023 9:00:00 AM 2.25 36.05 0.137 7.47 2.19 13.6
1/10/2023 9:15:00 AM 2.26 36.068 0.138 7.48 2.23 13.61
1/10/2023 9:30:00 AM 2.26 36.068 0.138 7.48 2.23 13.64
1/10/2023 9:45:00 AM 2.27 36.086 0.137 7.49 2.26 13.67
1/10/2023 10:00:00 AM 2.29 36.122 0.137 7.5 2.29 13.7
1/10/2023 10:15:00 AM 2.31 36.158 0.138 7.51 2.25 13.72
1/10/2023 10:30:00 AM 2.32 36.176 0.138 7.51 2.26 13.74
1/10/2023 10:45:00 AM 2.34 36.212 0.137 7.52 2.15 13.77
1/10/2023 11:00:00 AM 2.36 36.248 0.138 7.52 2.24 13.77
1/10/2023 11:15:00 AM 2.38 36.284 0.138 7.53 2.16 13.78
1/10/2023 11:30:00 AM 2.42 36.356 0.138 7.54 2.22 13.79
1/10/2023 11:45:00 AM 2.43 36.374 0.138 7.54 2.17 13.79
1/10/2023 12:00:00 PM 2.45 36.41 0.138 7.54 2.17 13.77
1/10/2023 12:15:00 PM 2.48 36.464 0.138 7.55 2.18 13.78
1/10/2023 12:30:00 PM 2.49 36.482 0.138 7.55 2.12 13.78
1/10/2023 12:45:00 PM 2.54 36.572 0.138 7.56 2.07 13.79
1/10/2023 1:00:00 PM 2.56 36.608 0.138 7.56 2.05 13.78
1/10/2023 1:15:00 PM 2.58 36.644 0.137 7.56 2.15 13.78
1/10/2023 1:30:00 PM 2.6 36.68 0.138 7.56 2.13 13.78
1/10/2023 1:45:00 PM 2.62 36.716 0.138 7.56 2.05 13.77
1/10/2023 2:00:00 PM 2.65 36.77 0.138 7.57 2.09 13.77
1/10/2023 2:15:00 PM 2.65 36.77 0.138 7.56 2.05 13.75
1/10/2023 2:30:00 PM 2.66 36.788 0.138 7.57 2.03 13.73
1/10/2023 2:45:00 PM 2.66 36.788 0.138 7.55 2.08 13.7
1/10/2023 3:00:00 PM 2.66 36.788 0.138 7.55 2.02 13.68
1/10/2023 3:15:00 PM 2.65 36.77 0.138 7.54 2.1 13.66
1/10/2023 3:30:00 PM 2.64 36.752 0.138 7.54 2.25 13.65
1/10/2023 3:45:00 PM 2.63 36.734 0.138 7.53 2.08 13.64
1/10/2023 4:00:00 PM 2.61 36.698 0.138 7.52 2.13 13.61
1/10/2023 4:15:00 PM 2.59 36.662 0.138 7.53 2.09 13.58
1/10/2023 4:30:00 PM 2.57 36.626 0.138 7.51 2.19 13.56
1/10/2023 4:45:00 PM 2.56 36.608 0.138 7.5 2.19 13.53
1/10/2023 5:00:00 PM 2.55 36.59 0.138 7.49 2.18 13.52
1/10/2023 5:15:00 PM 2.53 36.554 0.139 7.49 2.28 13.5
1/10/2023 5:30:00 PM 2.52 36.536 0.139 7.48 2.11 13.49
1/10/2023 5:45:00 PM 2.5 36.5 0.139 7.48 2.18 13.48
1/10/2023 6:00:00 PM 2.49 36.482 0.139 7.48 2.07 13.48
1/10/2023 6:15:00 PM 2.47 36.446 0.139 7.48 2.06 13.49
1/10/2023 6:30:00 PM 2.45 36.41 0.139 7.48 2.1 13.49
1/10/2023 6:45:00 PM 2.44 36.392 0.139 7.47 2.07 13.49
1/10/2023 7:00:00 PM 2.42 36.356 0.139 7.48 2.13 13.5
1/10/2023 7:15:00 PM 2.4 36.32 0.139 7.47 2.17 13.51
1/10/2023 7:30:00 PM 2.39 36.302 0.139 7.48 2.17 13.51
1/10/2023 7:45:00 PM 2.37 36.266 0.139 7.48 2.16 13.52
1/10/2023 8:00:00 PM 2.35 36.23 0.139 7.47 2.11 13.53
1/10/2023 8:15:00 PM 2.34 36.212 0.139 7.47 2.13 13.53
1/10/2023 8:30:00 PM 2.33 36.194 0.139 7.47 2.14 13.54
1/10/2023 8:45:00 PM 2.31 36.158 0.139 7.47 2.11 13.55
1/10/2023 9:00:00 PM 2.3 36.14 0.139 7.47 2.19 13.54
1/10/2023 9:15:00 PM 2.29 36.122 0.139 7.48 2.1 13.56
1/10/2023 9:30:00 PM 2.28 36.104 0.139 7.48 2.18 13.56
1/10/2023 9:45:00 PM 2.26 36.068 0.139 7.47 2.13 13.57
1/10/2023 10:00:00 PM 2.25 36.05 0.139 7.47 2.08 13.57
1/10/2023 10:15:00 PM 2.23 36.014 0.14 7.48 2.12 13.58
1/10/2023 10:30:00 PM 2.2 35.96 0.14 7.46 2.16 13.59
1/10/2023 10:45:00 PM 2.18 35.924 0.14 7.47 2.12 13.6
1/10/2023 11:00:00 PM 2.17 35.906 0.14 7.47 2.11 13.6
1/10/2023 11:15:00 PM 2.12 35.816 0.14 7.47 2.07 13.63
1/10/2023 11:30:00 PM 2.1 35.78 0.14 7.48 2.1 13.64
1/10/2023 11:45:00 PM 2.06 35.708 0.14 7.47 2.04 13.66
1/11/2023 12:00:00 AM 2.02 35.636 0.141 7.48 2.13 13.66
1/11/2023 12:15:00 AM 1.99 35.582 0.14 7.47 2.17 13.68
1/11/2023 12:30:00 AM 1.96 35.528 0.14 7.46 2.17 13.69
1/11/2023 12:45:00 AM 1.93 35.474 0.14 7.47 2.21 13.69
1/11/2023 1:00:00 AM 1.89 35.402 0.14 7.47 2.23 13.7
1/11/2023 1:15:00 AM 1.85 35.33 0.14 7.48 2.43 13.72
1/11/2023 1:30:00 AM 1.8 35.24 0.14 7.46 2.55 13.73
1/11/2023 1:45:00 AM 1.77 35.186 0.141 7.47 2.23 13.74
1/11/2023 2:00:00 AM 1.73 35.114 0.141 7.47 2.24 13.75
1/11/2023 2:15:00 AM 1.7 35.06 0.141 7.47 2.25 13.77
1/11/2023 2:30:00 AM 1.67 35.006 0.142 7.47 2.23 13.8
1/11/2023 2:45:00 AM 1.64 34.952 0.142 7.47 2.26 13.81
1/11/2023 3:00:00 AM 1.61 34.898 0.142 7.47 2.25 13.82
1/11/2023 3:15:00 AM 1.58 34.844 0.142 7.47 2.31 13.85
1/11/2023 3:30:00 AM 1.56 34.808 0.142 7.48 2.21 13.85
1/11/2023 3:45:00 AM 1.53 34.754 0.142 7.46 2.22 13.86
1/11/2023 4:00:00 AM 1.51 34.718 0.142 7.47 2.23 13.88
1/11/2023 4:15:00 AM 1.47 34.646 0.142 7.48 2.28 13.89
1/11/2023 4:30:00 AM 1.43 34.574 0.142 7.47 2.39 13.9
1/11/2023 4:45:00 AM 1.39 34.502 0.142 7.46 2.29 13.91
1/11/2023 5:00:00 AM 1.34 34.412 0.142 7.47 2.26 13.92
1/11/2023 5:15:00 AM 1.3 34.34 0.142 7.46 2.29 13.94
1/11/2023 5:30:00 AM 1.27 34.286 0.142 7.46 2.33 13.96
1/11/2023 5:45:00 AM 1.24 34.232 0.142 7.46 2.23 13.97
1/11/2023 6:00:00 AM 1.21 34.178 0.143 7.46 2.17 13.98
1/11/2023 6:15:00 AM 1.18 34.124 0.142 7.46 2.18 13.99
1/11/2023 6:30:00 AM 1.15 34.07 0.143 7.46 2.13 14
1/11/2023 6:45:00 AM 1.13 34.034 0.143 7.47 2.27 14.01
1/11/2023 7:00:00 AM 1.12 34.016 0.143 7.46 2.2 14.02
1/11/2023 7:15:00 AM 1.11 33.998 0.143 7.47 2.28 14.03
1/11/2023 7:30:00 AM 1.1 33.98 0.143 7.47 2.19 14.04
1/11/2023 7:45:00 AM 1.1 33.98 0.143 7.47 2.19 14.05
1/11/2023 8:00:00 AM 1.1 33.98 0.143 7.47 2.32 14.07
1/11/2023 8:15:00 AM 1.11 33.998 0.143 7.48 2.22 14.11
1/11/2023 8:30:00 AM 1.12 34.016 0.143 7.49 2.25 14.16
1/11/2023 8:45:00 AM 1.15 34.07 0.143 7.5 2.22 14.19
1/11/2023 9:00:00 AM 1.17 34.106 0.143 7.52 2.22 14.23
1/11/2023 9:15:00 AM 1.22 34.196 0.143 7.52 2.25 14.25
1/11/2023 9:30:00 AM 1.25 34.25 0.143 7.53 2.3 14.28
1/11/2023 9:45:00 AM 1.31 34.358 0.143 7.54 2.22 14.3
1/11/2023 10:00:00 AM 1.38 34.484 0.143 7.55 2.26 14.31
1/11/2023 10:15:00 AM 1.47 34.646 0.143 7.56 2.29 14.31
1/11/2023 10:30:00 AM 1.55 34.79 0.143 7.56 2.3 14.29
1/11/2023 10:45:00 AM 1.66 34.988 0.143 7.57 2.19 14.27
1/11/2023 11:00:00 AM 1.74 35.132 0.143 7.57 2.21 14.25
1/11/2023 11:15:00 AM 1.87 35.366 0.143 7.59 2.06 14.22
1/11/2023 11:30:00 AM 1.97 35.546 0.143 7.59 2.1 14.2
1/11/2023 11:45:00 AM 2.04 35.672 0.143 7.59 2.08 14.16
1/11/2023 12:00:00 PM 2.12 35.816 0.143 7.6 2.07 14.13
1/11/2023 12:15:00 PM 2.2 35.96 0.143 7.6 2.07 14.09
1/11/2023 12:30:00 PM 2.31 36.158 0.143 7.6 2.08 14.06
1/11/2023 12:45:00 PM 2.38 36.284 0.143 7.61 2.02 14.04
1/11/2023 1:00:00 PM 2.46 36.428 0.143 7.61 2 14
1/11/2023 1:15:00 PM 2.54 36.572 0.143 7.6 2.01 13.98
1/11/2023 1:30:00 PM 2.58 36.644 0.143 7.62 2.02 13.96
1/11/2023 1:45:00 PM 2.65 36.77 0.143 7.61 2.06 13.93
1/11/2023 2:00:00 PM 2.7 36.86 0.143 7.62 1.97 13.91
1/11/2023 2:15:00 PM 2.74 36.932 0.143 7.62 2.05 13.89
1/11/2023 2:30:00 PM 2.78 37.004 0.143 7.62 2 13.86
1/11/2023 2:45:00 PM 2.8 37.04 0.143 7.62 2.12 13.83
1/11/2023 3:00:00 PM 2.83 37.094 0.143 7.61 2.04 13.81
1/11/2023 3:15:00 PM 2.85 37.13 0.143 7.61 2.04 13.78
1/11/2023 3:30:00 PM 2.87 37.166 0.143 7.61 1.98 13.76
1/11/2023 3:45:00 PM 2.86 37.148 0.143 7.61 2.06 13.73
1/11/2023 4:00:00 PM 2.86 37.148 0.143 7.6 2.02 13.71
1/11/2023 4:15:00 PM 2.85 37.13 0.143 7.6 2.03 13.7
1/11/2023 4:30:00 PM 2.82 37.076 0.143 7.59 2.04 13.65
1/11/2023 4:45:00 PM 2.79 37.022 0.143 7.57 2 13.59
1/11/2023 5:00:00 PM 2.77 36.986 0.143 7.55 2.03 13.54
1/11/2023 5:15:00 PM 2.75 36.95 0.143 7.53 2.01 13.51
1/11/2023 5:30:00 PM 2.73 36.914 0.143 7.53 1.99 13.49
1/11/2023 5:45:00 PM 2.72 36.896 0.143 7.52 1.99 13.47
1/11/2023 6:00:00 PM 2.7 36.86 0.143 7.52 2.26 13.46
1/11/2023 6:15:00 PM 2.68 36.824 0.143 7.51 2.07 13.45
1/11/2023 6:30:00 PM 2.67 36.806 0.143 7.51 2.02 13.45
1/11/2023 6:45:00 PM 2.66 36.788 0.144 7.5 2.01 13.45
1/11/2023 7:00:00 PM 2.63 36.734 0.143 7.5 2.05 13.45
1/11/2023 7:15:00 PM 2.64 36.752 0.144 7.5 2.03 13.45
1/11/2023 7:30:00 PM 2.63 36.734 0.144 7.51 1.96 13.46
1/11/2023 7:45:00 PM 2.6 36.68 0.144 7.49 1.99 13.46
1/11/2023 8:00:00 PM 2.59 36.662 0.143 7.49 1.99 13.45
1/11/2023 8:15:00 PM 2.57 36.626 0.143 7.5 1.97 13.46
1/11/2023 8:30:00 PM 2.54 36.572 0.144 7.49 2.03 13.47
1/11/2023 8:45:00 PM 2.53 36.554 0.144 7.5 1.99 13.46
1/11/2023 9:00:00 PM 2.51 36.518 0.144 7.49 2.01 13.47
1/11/2023 9:15:00 PM 2.48 36.464 0.143 7.49 2 13.48
1/11/2023 9:30:00 PM 2.47 36.446 0.144 7.49 1.98 13.48
1/11/2023 9:45:00 PM 2.45 36.41 0.143 7.49 1.97 13.49
1/11/2023 10:00:00 PM 2.45 36.41 0.144 7.49 1.93 13.5
1/11/2023 10:15:00 PM 2.43 36.374 0.144 7.48 2.07 13.5
1/11/2023 10:30:00 PM 2.41 36.338 0.144 7.49 1.98 13.5
1/11/2023 10:45:00 PM 2.37 36.266 0.144 7.5 1.99 13.51
1/11/2023 11:00:00 PM 2.34 36.212 0.144 7.48 1.98 13.52
1/11/2023 11:15:00 PM 2.3 36.14 0.144 7.48 2 13.53
1/11/2023 11:30:00 PM 2.27 36.086 0.144 7.49 2 13.55
1/11/2023 11:45:00 PM 2.25 36.05 0.144 7.49 2 13.55
1/12/2023 12:00:00 AM 2.23 36.014 0.144 7.48 1.99 13.56
1/12/2023 12:15:00 AM 2.19 35.942 0.144 7.49 2.05 13.57
1/12/2023 12:30:00 AM 2.17 35.906 0.144 7.49 2.19 13.58
1/12/2023 12:45:00 AM 2.17 35.906 0.145 7.48 2.16 13.59
1/12/2023 1:00:00 AM 2.17 35.906 0.145 7.49 2.11 13.59
1/12/2023 1:15:00 AM 2.17 35.906 0.145 7.49 2.04 13.59
1/12/2023 1:30:00 AM 2.18 35.924 0.145 7.49 2.02 13.59
1/12/2023 1:45:00 AM 2.19 35.942 0.145 7.49 2.02 13.59
1/12/2023 2:00:00 AM 2.2 35.96 0.145 7.49 2.06 13.59
1/12/2023 2:15:00 AM 2.21 35.978 0.145 7.5 2.1 13.59
1/12/2023 2:30:00 AM 2.23 36.014 0.145 7.49 1.98 13.57
1/12/2023 2:45:00 AM 2.25 36.05 0.145 7.49 2 13.57
1/12/2023 3:00:00 AM 2.25 36.05 0.145 7.49 2.05 13.57
1/12/2023 3:15:00 AM 2.25 36.05 0.145 7.5 2.06 13.57
1/12/2023 3:30:00 AM 2.26 36.068 0.145 7.49 2.03 13.57
1/12/2023 3:45:00 AM 2.27 36.086 0.145 7.5 2.01 13.56
1/12/2023 4:00:00 AM 2.26 36.068 0.145 7.49 2 13.55
1/12/2023 4:15:00 AM 2.27 36.086 0.145 7.49 2.05 13.55
1/12/2023 4:30:00 AM 2.27 36.086 0.145 7.5 2.03 13.55
1/12/2023 4:45:00 AM 2.27 36.086 0.145 7.5 2.02 13.54
1/12/2023 5:00:00 AM 2.27 36.086 0.145 7.49 2.01 13.55
1/12/2023 5:15:00 AM 2.27 36.086 0.145 7.5 2.03 13.55
1/12/2023 5:30:00 AM 2.26 36.068 0.145 7.5 2.1 13.55
1/12/2023 5:45:00 AM 2.27 36.086 0.145 7.51 2.25 13.54
1/12/2023 6:00:00 AM 2.26 36.068 0.145 7.5 2.15 13.56
1/12/2023 6:15:00 AM 2.26 36.068 0.145 7.5 2.19 13.55
1/12/2023 6:30:00 AM 2.27 36.086 0.145 7.5 2.15 13.55
1/12/2023 6:45:00 AM 2.27 36.086 0.145 7.5 2.19 13.54
1/12/2023 7:00:00 AM 2.28 36.104 0.145 7.5 2.12 13.54
1/12/2023 7:15:00 AM 2.25 36.05 0.145 7.5 2.07 13.53
1/12/2023 7:30:00 AM 2.17 35.906 0.145 7.5 2.12 13.54
1/12/2023 7:45:00 AM 2 35.6 0.145 7.5 2.13 13.55
1/12/2023 8:00:00 AM 1.99 35.582 0.145 7.5 2.09 13.58
1/12/2023 8:15:00 AM 1.98 35.564 0.145 7.5 2.09 13.62
1/12/2023 8:30:00 AM 1.97 35.546 0.145 7.5 2.1 13.65
1/12/2023 8:45:00 AM 1.99 35.582 0.145 7.5 2.13 13.67
1/12/2023 9:00:00 AM 2.03 35.654 0.145 7.51 2.07 13.69
1/12/2023 9:15:00 AM 2.06 35.708 0.151 7.51 2.17 13.72
1/12/2023 9:30:00 AM 2.09 35.762 0.154 7.53 2.16 13.73
1/12/2023 9:45:00 AM 2.12 35.816 0.153 7.54 2.15 13.75
1/12/2023 10:00:00 AM 2.15 35.87 0.15 7.54 2.11 13.77
1/12/2023 10:15:00 AM 2.18 35.924 0.149 7.54 2.13 13.77
1/12/2023 10:30:00 AM 2.22 35.996 0.149 7.54 2.23 13.77
1/12/2023 10:45:00 AM 2.28 36.104 0.149 7.56 2.03 13.79
1/12/2023 11:00:00 AM 2.32 36.176 0.148 7.56 2.07 13.79
1/12/2023 11:15:00 AM 2.37 36.266 0.148 7.57 2.01 13.79
1/12/2023 11:30:00 AM 2.43 36.374 0.147 7.57 2.04 13.78
1/12/2023 11:45:00 AM 2.49 36.482 0.147 7.58 2.07 13.78
1/12/2023 12:00:00 PM 2.55 36.59 0.146 7.59 1.99 13.79
1/12/2023 12:15:00 PM 2.63 36.734 0.146 7.61 1.99 13.81
1/12/2023 12:30:00 PM 2.7 36.86 0.146 7.62 2 13.8
1/12/2023 12:45:00 PM 2.76 36.968 0.146 7.62 1.9 13.78
1/12/2023 1:00:00 PM 2.82 37.076 0.146 7.63 1.95 13.75
1/12/2023 1:15:00 PM 2.87 37.166 0.145 7.63 1.96 13.73
1/12/2023 1:30:00 PM 2.9 37.22 0.145 7.62 1.89 13.68
1/12/2023 1:45:00 PM 2.93 37.274 0.145 7.61 1.98 13.61
1/12/2023 2:00:00 PM 2.96 37.328 0.146 7.61 1.9 13.58
1/12/2023 2:15:00 PM 2.99 37.382 0.146 7.61 1.97 13.57
1/12/2023 2:30:00 PM 3.01 37.418 0.146 7.61 1.98 13.55
1/12/2023 2:45:00 PM 3.03 37.454 0.145 7.61 2.03 13.53
1/12/2023 3:00:00 PM 3.06 37.508 0.145 7.6 1.94 13.52
1/12/2023 3:15:00 PM 3.08 37.544 0.145 7.6 1.99 13.49
1/12/2023 3:30:00 PM 3.1 37.58 0.145 7.59 2 13.45
1/12/2023 3:45:00 PM 3.12 37.616 0.145 7.59 2.03 13.42
1/12/2023 4:00:00 PM 3.13 37.634 0.145 7.58 2.01 13.38
1/12/2023 4:15:00 PM 3.14 37.652 0.146 7.57 2.02 13.33
1/12/2023 4:30:00 PM 3.15 37.67 0.145 7.56 2.06 13.3
1/12/2023 4:45:00 PM 3.15 37.67 0.145 7.55 1.98 13.26
1/12/2023 5:00:00 PM 3.16 37.688 0.145 7.54 2.02 13.22
1/12/2023 5:15:00 PM 3.17 37.706 0.145 7.53 2.01 13.21
1/12/2023 5:30:00 PM 3.18 37.724 0.145 7.53 2.1 13.18
1/12/2023 5:45:00 PM 3.19 37.742 0.158 7.53 2.84 13.17
1/12/2023 6:00:00 PM 3.19 37.742 0.183 7.54 6.54 13.14
1/12/2023 6:15:00 PM 3.21 37.778 0.18 7.53 5.73 13.12
1/12/2023 6:30:00 PM 3.22 37.796 0.164 7.53 4.13 13.11
1/12/2023 6:45:00 PM 3.24 37.832 0.157 7.52 3.68 13.12
1/12/2023 7:00:00 PM 3.25 37.85 0.161 7.53 4.86 13.1
1/12/2023 7:15:00 PM 3.26 37.868 0.156 7.52 4.05 13.09
1/12/2023 7:30:00 PM 3.28 37.904 0.152 7.53 3.34 13.09
1/12/2023 7:45:00 PM 3.3 37.94 0.149 7.52 3.36 13.08
1/12/2023 8:00:00 PM 3.32 37.976 0.147 7.52 3.55 13.07
1/12/2023 8:15:00 PM 3.33 37.994 0.146 7.52 3.71 13.07
1/12/2023 8:30:00 PM 3.35 38.03 0.145 7.52 3.68 13.05
1/12/2023 8:45:00 PM 3.37 38.066 0.145 7.52 3.52 13.05
1/12/2023 9:00:00 PM 3.38 38.084 0.144 7.52 3.49 13.04
1/12/2023 9:15:00 PM 3.4 38.12 0.144 7.52 3.59 13.03
1/12/2023 9:30:00 PM 3.42 38.156 0.144 7.52 3.39 13.02
1/12/2023 9:45:00 PM 3.43 38.174 0.143 7.52 3.44 13.02
1/12/2023 10:00:00 PM 3.44 38.192 0.142 7.51 3.47 13.01
1/12/2023 10:15:00 PM 3.46 38.228 0.142 7.52 3.61 13
1/12/2023 10:30:00 PM 3.47 38.246 0.143 7.51 3.58 13
1/12/2023 10:45:00 PM 3.48 38.264 0.143 7.51 4.08 12.99
1/12/2023 11:00:00 PM 3.5 38.3 0.144 7.51 4.2 12.98
1/12/2023 11:15:00 PM 3.52 38.336 0.144 7.5 4.07 12.97
1/12/2023 11:30:00 PM 3.52 38.336 0.144 7.51 4.14 12.96
1/12/2023 11:45:00 PM 3.53 38.354 0.144 7.51 4.14 12.96
1/13/2023 12:00:00 AM 3.54 38.372 0.144 7.51 4.21 12.96
1/13/2023 12:15:00 AM 3.55 38.39 0.143 7.5 4.16 12.95
1/13/2023 12:30:00 AM 3.56 38.408 0.142 7.5 4.19 12.94
1/13/2023 12:45:00 AM 3.57 38.426 0.141 7.49 4.18 12.94
1/13/2023 1:00:00 AM 3.58 38.444 0.141 7.49 4.38 12.93
1/13/2023 1:15:00 AM 3.6 38.48 0.14 7.49 4.34 12.92
1/13/2023 1:30:00 AM 3.6 38.48 0.14 7.49 4.41 12.91
1/13/2023 1:45:00 AM 3.61 38.498 0.14 7.49 4.54 12.9
1/13/2023 2:00:00 AM 3.61 38.498 0.14 7.48 5.09 12.91
1/13/2023 2:15:00 AM 3.61 38.498 0.14 7.49 6.03 12.9
1/13/2023 2:30:00 AM 3.62 38.516 0.138 7.48 6.09 12.9
1/13/2023 2:45:00 AM 3.63 38.534 0.138 7.47 5.81 12.89
1/13/2023 3:00:00 AM 3.64 38.552 0.138 7.46 6.33 12.88
1/13/2023 3:15:00 AM 3.65 38.57 0.138 7.47 6.61 12.88
1/13/2023 3:30:00 AM 3.66 38.588 0.138 7.47 6.96 12.88
1/13/2023 3:45:00 AM 3.66 38.588 0.137 7.46 7.13 12.88
1/13/2023 4:00:00 AM 3.67 38.606 0.138 7.46 7.86 12.87
1/13/2023 4:15:00 AM 3.68 38.624 0.138 7.46 8.76 12.87
1/13/2023 4:30:00 AM 3.68 38.624 0.137 7.46 10.96 12.87
1/13/2023 4:45:00 AM 3.69 38.642 0.136 7.46 13.3 12.87
1/13/2023 5:00:00 AM 3.69 38.642 0.136 7.47 13.2 12.87
1/13/2023 5:15:00 AM 3.69 38.642 0.135 7.47 14.02 12.88
1/13/2023 5:30:00 AM 3.68 38.624 0.134 7.47 15.78 12.88
1/13/2023 5:45:00 AM 3.68 38.624 0.133 7.46 17.61 12.89
1/13/2023 6:00:00 AM 3.66 38.588 0.133 7.46 19.58 12.9
1/13/2023 6:15:00 AM 3.64 38.552 0.134 7.46 22 12.91
1/13/2023 6:30:00 AM 3.6 38.48 0.137 7.47 25.04 12.93
1/13/2023 6:45:00 AM 3.57 38.426 0.136 7.46 26.67 12.94
1/13/2023 7:00:00 AM 3.52 38.336 0.132 7.46 26.92 12.97
1/13/2023 7:15:00 AM 3.47 38.246 0.129 7.45 30.19 12.99
1/13/2023 7:30:00 AM 3.41 38.138 0.127 7.44 31.97 13.02
1/13/2023 7:45:00 AM 3.35 38.03 0.125 7.43 35.46 13.04
1/13/2023 8:00:00 AM 3.28 37.904 0.124 7.42 35.42 13.07
1/13/2023 8:15:00 AM 3.22 37.796 0.122 7.43 33.21 13.11
1/13/2023 8:30:00 AM 3.16 37.688 0.121 7.41 32.18 13.12
1/13/2023 8:45:00 AM 3.11 37.598 0.12 7.41 30.29 13.15
1/13/2023 9:00:00 AM 3.06 37.508 0.119 7.4 27.72 13.17
1/13/2023 9:15:00 AM 3.02 37.436 0.117 7.4 25.77 13.2
1/13/2023 9:30:00 AM 2.98 37.364 0.116 7.4 24.3 13.25
1/13/2023 9:45:00 AM 2.95 37.31 0.114 7.4 22.91 13.28
1/13/2023 10:00:00 AM 2.91 37.238 0.113 7.4 21.23 13.31
1/13/2023 10:15:00 AM 2.88 37.184 0.112 7.41 19 13.33
1/13/2023 10:30:00 AM 2.85 37.13 0.111 7.41 17.01 13.36
1/13/2023 10:45:00 AM 2.83 37.094 0.111 7.42 15.77 13.39
1/13/2023 11:00:00 AM 2.83 37.094 0.11 7.41 14.59 13.43
1/13/2023 11:15:00 AM 2.82 37.076 0.11 7.41 13.44 13.45
1/13/2023 11:30:00 AM 2.82 37.076 0.11 7.41 12.53 13.45
1/13/2023 11:45:00 AM 2.8 37.04 0.11 7.41 11.55 13.46
1/13/2023 12:00:00 PM 2.79 37.022 0.11 7.42 10.97 13.46
1/13/2023 12:15:00 PM 2.77 36.986 0.11 7.42 10.43 13.47
1/13/2023 12:30:00 PM 2.75 36.95 0.111 7.42 9.94 13.48
1/13/2023 12:45:00 PM 2.74 36.932 0.111 7.42 9.38 13.49
1/13/2023 1:00:00 PM 2.76 36.968 0.112 7.43 8.96 13.52
1/13/2023 1:15:00 PM 2.76 36.968 0.112 7.43 8.64 13.52
1/13/2023 1:30:00 PM 2.73 36.914 0.112 7.43 8.23 13.52
1/13/2023 1:45:00 PM 2.69 36.842 0.113 7.43 7.74 13.5
1/13/2023 2:00:00 PM 2.65 36.77 0.113 7.42 7.62 13.51
1/13/2023 2:15:00 PM 2.63 36.734 0.114 7.43 7.23 13.52
1/13/2023 2:30:00 PM 2.61 36.698 0.114 7.43 7.37 13.54
1/13/2023 2:45:00 PM 2.58 36.644 0.115 7.42 6.79 13.55
1/13/2023 3:00:00 PM 2.55 36.59 0.115 7.42 6.59 13.55
1/13/2023 3:15:00 PM 2.5 36.5 0.116 7.42 6.34 13.52
1/13/2023 3:30:00 PM 2.45 36.41 0.116 7.42 6.3 13.52
1/13/2023 3:45:00 PM 2.41 36.338 0.116 7.41 6.13 13.52
1/13/2023 4:00:00 PM 2.35 36.23 0.117 7.41 5.97 13.51
1/13/2023 4:15:00 PM 2.33 36.194 0.117 7.4 6.02 13.52
1/13/2023 4:30:00 PM 2.3 36.14 0.117 7.39 5.71 13.53
1/13/2023 4:45:00 PM 2.27 36.086 0.118 7.4 5.48 13.52
1/13/2023 5:00:00 PM 2.25 36.05 0.118 7.39 5.54 13.52
1/13/2023 5:15:00 PM 2.22 35.996 0.119 7.39 5.46 13.53
1/13/2023 5:30:00 PM 2.18 35.924 0.119 7.38 5.26 13.53
1/13/2023 5:45:00 PM 2.14 35.852 0.119 7.38 5.3 13.54
1/13/2023 6:00:00 PM 2.1 35.78 0.12 7.38 5 13.55
1/13/2023 6:15:00 PM 2.07 35.726 0.12 7.37 5.06 13.57
1/13/2023 6:30:00 PM 2.04 35.672 0.12 7.37 5.01 13.58
1/13/2023 6:45:00 PM 2 35.6 0.121 7.37 4.82 13.59
1/13/2023 7:00:00 PM 1.98 35.564 0.121 7.38 4.76 13.6
1/13/2023 7:15:00 PM 1.95 35.51 0.121 7.38 4.66 13.61
1/13/2023 7:30:00 PM 1.91 35.438 0.121 7.37 4.6 13.63
1/13/2023 7:45:00 PM 1.87 35.366 0.122 7.38 4.48 13.64
1/13/2023 8:00:00 PM 1.81 35.258 0.122 7.38 4.55 13.65
1/13/2023 8:15:00 PM 1.76 35.168 0.122 7.37 4.42 13.67
1/13/2023 8:30:00 PM 1.68 35.024 0.122 7.36 4.42 13.71
1/13/2023 8:45:00 PM 1.58 34.844 0.123 7.36 4.39 13.75
1/13/2023 9:00:00 PM 1.48 34.664 0.123 7.36 4.39 13.79
1/13/2023 9:15:00 PM 1.41 34.538 0.123 7.37 4.26 13.81
1/13/2023 9:30:00 PM 1.36 34.448 0.123 7.38 4.12 13.84
1/13/2023 9:45:00 PM 1.28 34.304 0.123 7.37 4.1 13.86
1/13/2023 10:00:00 PM 1.22 34.196 0.124 7.37 4.1 13.88
1/13/2023 10:15:00 PM 1.18 34.124 0.125 7.37 4.11 13.9
1/13/2023 10:30:00 PM 1.15 34.07 0.126 7.37 3.99 13.91
1/13/2023 10:45:00 PM 1.08 33.944 0.126 7.38 3.9 13.93
1/13/2023 11:00:00 PM 1.03 33.854 0.126 7.38 3.84 13.95
1/13/2023 11:15:00 PM 1.01 33.818 0.126 7.38 3.87 13.95
1/13/2023 11:30:00 PM 0.99 33.782 0.126 7.38 3.93 13.96
1/13/2023 11:45:00 PM 0.99 33.782 0.126 7.38 3.79 13.97
1/14/2023 12:00:00 AM 0.97 33.746 0.127 7.39 3.67 13.97
1/14/2023 12:15:00 AM 0.98 33.764 0.127 7.39 3.67 13.97
1/14/2023 12:30:00 AM 0.94 33.692 0.127 7.39 3.71 13.98
1/14/2023 12:45:00 AM 0.94 33.692 0.127 7.4 4.21 13.98
1/14/2023 1:00:00 AM 0.93 33.674 0.128 7.4 3.66 13.99
1/14/2023 1:15:00 AM 0.91 33.638 0.128 7.39 3.61 14
1/14/2023 1:30:00 AM 0.9 33.62 0.128 7.4 3.58 14.01
1/14/2023 1:45:00 AM 0.9 33.62 0.128 7.4 3.49 14.01
1/14/2023 2:00:00 AM 0.84 33.512 0.128 7.39 3.45 14.03
1/14/2023 2:15:00 AM 0.81 33.458 0.129 7.39 3.45 14.04
1/14/2023 2:30:00 AM 0.77 33.386 0.129 7.4 3.35 14.05
1/14/2023 2:45:00 AM 0.73 33.314 0.129 7.4 3.38 14.08
1/14/2023 3:00:00 AM 0.7 33.26 0.129 7.4 3.31 14.09
1/14/2023 3:15:00 AM 0.67 33.206 0.129 7.4 3.28 14.11
1/14/2023 3:30:00 AM 0.67 33.206 0.13 7.4 3.41 14.12
1/14/2023 3:45:00 AM 0.66 33.188 0.13 7.41 3.31 14.12
1/14/2023 4:00:00 AM 0.67 33.206 0.13 7.41 3.3 14.13
1/14/2023 4:15:00 AM 0.66 33.188 0.13 7.41 3.3 14.14
1/14/2023 4:30:00 AM 0.64 33.152 0.131 7.41 3.29 14.15
1/14/2023 4:45:00 AM 0.63 33.134 0.131 7.41 3.39 14.15
1/14/2023 5:00:00 AM 0.62 33.116 0.131 7.41 3.33 14.16
1/14/2023 5:15:00 AM 0.6 33.08 0.131 7.42 3.38 14.16
1/14/2023 5:30:00 AM 0.56 33.008 0.132 7.41 3.29 14.17
1/14/2023 5:45:00 AM 0.55 32.99 0.132 7.41 3.25 14.18
1/14/2023 6:00:00 AM 0.52 32.936 0.132 7.42 3.03 14.18
1/14/2023 6:15:00 AM 0.5 32.9 0.132 7.41 3.05 14.19
1/14/2023 6:30:00 AM 0.47 32.846 0.132 7.41 2.99 14.2
1/14/2023 6:45:00 AM 0.44 32.792 0.133 7.41 3.09 14.21
1/14/2023 7:00:00 AM 0.41 32.738 0.133 7.41 3.07 14.23
1/14/2023 7:15:00 AM 0.38 32.684 0.133 7.42 3.06 14.24
1/14/2023 7:30:00 AM 0.38 32.684 0.133 7.42 2.97 14.26
1/14/2023 7:45:00 AM 0.36 32.648 0.133 7.42 2.96 14.27
1/14/2023 8:00:00 AM 0.35 32.63 0.134 7.42 2.99 14.3
1/14/2023 8:15:00 AM 0.34 32.612 0.134 7.43 2.95 14.33
1/14/2023 8:30:00 AM 0.33 32.594 0.134 7.43 2.93 14.37
1/14/2023 8:45:00 AM 0.33 32.594 0.134 7.45 2.91 14.41
1/14/2023 9:00:00 AM 0.32 32.576 0.134 7.45 2.93 14.45
1/14/2023 9:15:00 AM 0.32 32.576 0.134 7.47 2.8 14.49
1/14/2023 9:30:00 AM 0.32 32.576 0.135 7.47 2.79 14.52
1/14/2023 9:45:00 AM 0.34 32.612 0.135 7.48 2.77 14.56
1/14/2023 10:00:00 AM 0.38 32.684 0.135 7.49 2.75 14.57
1/14/2023 10:15:00 AM 0.4 32.72 0.135 7.49 2.7 14.58
1/14/2023 10:30:00 AM 0.46 32.828 0.136 7.5 2.63 14.58
1/14/2023 10:45:00 AM 0.52 32.936 0.135 7.5 2.6 14.58
1/14/2023 11:00:00 AM 0.58 33.044 0.136 7.52 2.62 14.57
1/14/2023 11:15:00 AM 0.65 33.17 0.136 7.51 2.6 14.57
1/14/2023 11:30:00 AM 0.72 33.296 0.136 7.52 2.58 14.55
1/14/2023 11:45:00 AM 0.8 33.44 0.136 7.52 2.61 14.53
1/14/2023 12:00:00 PM 0.87 33.566 0.137 7.53 2.68 14.5
1/14/2023 12:15:00 PM 0.91 33.638 0.137 7.53 2.63 14.48
1/14/2023 12:30:00 PM 0.97 33.746 0.139 7.53 2.46 14.45
1/14/2023 12:45:00 PM 1.02 33.836 0.143 7.52 2.42 14.43
1/14/2023 1:00:00 PM 1.06 33.908 0.142 7.53 2.44 14.41
1/14/2023 1:15:00 PM 1.09 33.962 0.142 7.54 2.52 14.4
1/14/2023 1:30:00 PM 1.12 34.016 0.141 7.54 2.46 14.39
1/14/2023 1:45:00 PM 1.14 34.052 0.14 7.54 2.43 14.38
1/14/2023 2:00:00 PM 1.12 34.016 0.14 7.53 2.38 14.37
1/14/2023 2:15:00 PM 1.12 34.016 0.144 7.54 2.51 14.36
1/14/2023 2:30:00 PM 1.15 34.07 0.145 7.53 2.46 14.36
1/14/2023 2:45:00 PM 1.18 34.124 0.145 7.53 2.45 14.34
1/14/2023 3:00:00 PM 1.15 34.07 0.143 7.54 2.41 14.34
1/14/2023 3:15:00 PM 1.13 34.034 0.142 7.53 2.39 14.33
1/14/2023 3:30:00 PM 1.09 33.962 0.141 7.53 2.46 14.32
1/14/2023 3:45:00 PM 1.05 33.89 0.14 7.53 2.37 14.33
1/14/2023 4:00:00 PM 1.02 33.836 0.14 7.52 2.39 14.32
1/14/2023 4:15:00 PM 0.96 33.728 0.139 7.51 2.42 14.32
1/14/2023 4:30:00 PM 0.9 33.62 0.139 7.51 2.41 14.3
1/14/2023 4:45:00 PM 0.85 33.53 0.139 7.5 2.38 14.28
1/14/2023 5:00:00 PM 0.79 33.422 0.139 7.49 2.39 14.26
1/14/2023 5:15:00 PM 0.74 33.332 0.139 7.48 2.39 14.25
1/14/2023 5:30:00 PM 0.69 33.242 0.139 7.46 2.36 14.24
1/14/2023 5:45:00 PM 0.65 33.17 0.139 7.45 2.34 14.23
1/14/2023 6:00:00 PM 0.59 33.062 0.139 7.44 2.32 14.24
1/14/2023 6:15:00 PM 0.52 32.936 0.139 7.45 2.35 14.24
1/14/2023 6:30:00 PM 0.48 32.864 0.139 7.44 2.32 14.26
1/14/2023 6:45:00 PM 0.43 32.774 0.139 7.44 2.37 14.28
1/14/2023 7:00:00 PM 0.39 32.702 0.138 7.44 2.35 14.28
1/14/2023 7:15:00 PM 0.36 32.648 0.138 7.44 2.35 14.3
1/14/2023 7:30:00 PM 0.34 32.612 0.139 7.43 2.4 14.31
1/14/2023 7:45:00 PM 0.29 32.522 0.139 7.44 2.32 14.33
1/14/2023 8:00:00 PM 0.25 32.45 0.139 7.43 2.3 14.35
1/14/2023 8:15:00 PM 0.22 32.396 0.139 7.43 2.3 14.36
1/14/2023 8:30:00 PM 0.2 32.36 0.139 7.43 2.35 14.36
1/14/2023 8:45:00 PM 0.17 32.306 0.139 7.43 2.36 14.38
1/14/2023 9:00:00 PM 0.13 32.234 0.139 7.43 2.34 14.4
1/14/2023 9:15:00 PM 0.11 32.198 0.139 7.44 2.28 14.41
1/14/2023 9:30:00 PM 0.1 32.18 0.139 7.44 2.32 14.43
1/14/2023 9:45:00 PM 0.1 32.18 0.139 7.43 2.31 14.43
1/14/2023 10:00:00 PM 0.08 32.144 0.14 7.44 2.37 14.44
1/14/2023 10:15:00 PM 0.06 32.108 0.14 7.43 2.32 14.44
1/14/2023 10:30:00 PM 0.05 32.09 0.14 7.43 2.31 14.44
1/14/2023 10:45:00 PM 0.05 32.09 0.14 7.44 2.31 14.45
1/14/2023 11:00:00 PM 0.06 32.108 0.14 7.44 2.3 14.45
1/14/2023 11:15:00 PM 0.04 32.072 0.14 7.44 2.31 14.46
1/14/2023 11:30:00 PM 0.02 32.036 0.14 7.44 2.33 14.46
1/14/2023 11:45:00 PM 0.01 32.018 0.14 7.43 2.43 14.46
1/15/2023 12:00:00 AM 0.01 32.018 0.14 7.44 2.37 14.46
1/15/2023 12:15:00 AM -0.02 31.964 0.14 7.43 2.37 14.47
1/15/2023 12:30:00 AM 0 32 0.14 7.44 2.41 14.48
1/15/2023 12:45:00 AM 0 32 0.14 7.45 2.45 14.48
1/15/2023 1:00:00 AM 0.02 32.036 0.141 7.44 2.52 14.48
1/15/2023 1:15:00 AM 0.03 32.054 0.141 7.44 2.41 14.48
1/15/2023 1:30:00 AM 0.03 32.054 0.141 7.44 2.4 14.48
1/15/2023 1:45:00 AM 0.06 32.108 0.142 7.44 2.27 14.47
1/15/2023 2:00:00 AM 0.06 32.108 0.142 7.45 2.35 14.47
1/15/2023 2:15:00 AM 0.06 32.108 0.142 7.46 2.33 14.47
1/15/2023 2:30:00 AM 0.05 32.09 0.142 7.45 2.35 14.48
1/15/2023 2:45:00 AM 0.05 32.09 0.142 7.45 2.36 14.48
1/15/2023 3:00:00 AM 0.04 32.072 0.142 7.45 2.32 14.48
1/15/2023 3:15:00 AM 0.03 32.054 0.142 7.46 2.3 14.48
1/15/2023 3:30:00 AM 0.02 32.036 0.142 7.45 2.33 14.49
1/15/2023 3:45:00 AM 0.01 32.018 0.142 7.45 2.29 14.49
1/15/2023 4:00:00 AM -0.01 31.982 0.142 7.45 2.33 14.49
1/15/2023 4:15:00 AM -0.03 31.946 0.143 7.46 2.32 14.5
1/15/2023 4:30:00 AM -0.04 31.928 0.143 7.46 2.29 14.52
1/15/2023 4:45:00 AM -0.06 31.892 0.143 7.45 2.36 14.52
1/15/2023 5:00:00 AM -0.05 31.91 0.143 7.46 2.48 14.52
1/15/2023 5:15:00 AM -0.05 31.91 0.143 7.45 2.38 14.53
1/15/2023 5:30:00 AM -0.04 31.928 0.144 7.45 2.4 14.53
1/15/2023 5:45:00 AM -0.04 31.928 0.144 7.46 2.33 14.52
1/15/2023 6:00:00 AM -0.04 31.928 0.144 7.46 2.3 14.53
1/15/2023 6:15:00 AM -0.04 31.928 0.144 7.45 2.37 14.54
1/15/2023 6:30:00 AM -0.04 31.928 0.144 7.45 2.39 14.54
1/15/2023 6:45:00 AM -0.05 31.91 0.144 7.45 2.33 14.54
1/15/2023 7:00:00 AM -0.04 31.928 0.144 7.46 2.32 14.54
1/15/2023 7:15:00 AM -0.04 31.928 0.145 7.45 2.35 14.54
1/15/2023 7:30:00 AM -0.04 31.928 0.145 7.46 2.29 14.55
1/15/2023 7:45:00 AM -0.04 31.928 0.145 7.46 2.35 14.57
1/15/2023 8:00:00 AM -0.03 31.946 0.145 7.46 2.4 14.6
1/15/2023 8:15:00 AM -0.03 31.946 0.146 7.47 2.34 14.64
1/15/2023 8:30:00 AM -0.03 31.946 0.146 7.49 2.29 14.68
1/15/2023 8:45:00 AM -0.03 31.946 0.146 7.5 2.34 14.73
1/15/2023 9:00:00 AM -0.02 31.964 0.146 7.51 2.27 14.76
1/15/2023 9:15:00 AM 0 32 0.147 7.53 2.31 14.79
1/15/2023 9:30:00 AM 0.03 32.054 0.146 7.53 2.29 14.82
1/15/2023 9:45:00 AM 0.07 32.126 0.146 7.53 2.34 14.83
1/15/2023 10:00:00 AM 0.13 32.234 0.146 7.54 2.38 14.85
1/15/2023 10:15:00 AM 0.19 32.342 0.146 7.53 2.28 14.85
1/15/2023 10:30:00 AM 0.25 32.45 0.146 7.54 2.23 14.83
1/15/2023 10:45:00 AM 0.29 32.522 0.146 7.54 2.27 14.82
1/15/2023 11:00:00 AM 0.35 32.63 0.146 7.54 2.32 14.81
1/15/2023 11:15:00 AM 0.44 32.792 0.146 7.54 2.23 14.78
1/15/2023 11:30:00 AM 0.52 32.936 0.146 7.54 2.18 14.75
1/15/2023 11:45:00 AM 0.57 33.026 0.146 7.56 2.21 14.75
1/15/2023 12:00:00 PM 0.65 33.17 0.146 7.56 2.21 14.73
1/15/2023 12:15:00 PM 0.68 33.224 0.153 7.56 2.22 14.72
1/15/2023 12:30:00 PM 0.7 33.26 0.154 7.55 2.18 14.71
1/15/2023 12:45:00 PM 0.76 33.368 0.153 7.56 2.2 14.69
1/15/2023 1:00:00 PM 0.71 33.278 0.154 7.56 2.22 14.68
1/15/2023 1:15:00 PM 0.79 33.422 0.154 7.56 2.31 14.67
1/15/2023 1:30:00 PM 0.85 33.53 0.154 7.56 2.17 14.65
1/15/2023 1:45:00 PM 0.86 33.548 0.153 7.56 2.21 14.64
1/15/2023 2:00:00 PM 0.89 33.602 0.152 7.57 2.25 14.62
1/15/2023 2:15:00 PM 0.9 33.62 0.151 7.57 2.16 14.6
1/15/2023 2:30:00 PM 0.94 33.692 0.15 7.56 2.18 14.59
1/15/2023 2:45:00 PM 0.98 33.764 0.149 7.56 2.21 14.57
1/15/2023 3:00:00 PM 0.97 33.746 0.148 7.56 2.18 14.56
1/15/2023 3:15:00 PM 0.95 33.71 0.147 7.57 2.18 14.56
1/15/2023 3:30:00 PM 0.94 33.692 0.147 7.56 2.19 14.54
1/15/2023 3:45:00 PM 0.92 33.656 0.146 7.56 2.25 14.53
1/15/2023 4:00:00 PM 0.88 33.584 0.145 7.54 2.18 14.52
1/15/2023 4:15:00 PM 0.85 33.53 0.145 7.55 2.21 14.5
1/15/2023 4:30:00 PM 0.82 33.476 0.144 7.54 2.3 14.47
1/15/2023 4:45:00 PM 0.77 33.386 0.144 7.53 2.27 14.44
1/15/2023 5:00:00 PM 0.73 33.314 0.144 7.51 2.2 14.4
1/15/2023 5:15:00 PM 0.69 33.242 0.143 7.51 2.13 14.36
1/15/2023 5:30:00 PM 0.63 33.134 0.143 7.49 2.23 14.36
1/15/2023 5:45:00 PM 0.57 33.026 0.143 7.48 2.16 14.35
1/15/2023 6:00:00 PM 0.49 32.882 0.143 7.48 2.15 14.35
1/15/2023 6:15:00 PM 0.44 32.792 0.143 7.47 2.11 14.36
1/15/2023 6:30:00 PM 0.36 32.648 0.143 7.46 2.13 14.38
1/15/2023 6:45:00 PM 0.28 32.504 0.143 7.46 2.18 14.41
1/15/2023 7:00:00 PM 0.23 32.414 0.143 7.47 2.15 14.43
1/15/2023 7:15:00 PM 0.18 32.324 0.143 7.47 2.14 14.44
1/15/2023 7:30:00 PM 0.15 32.27 0.143 7.47 2.15 14.45
1/15/2023 7:45:00 PM 0.12 32.216 0.143 7.46 2.16 14.47
1/15/2023 8:00:00 PM 0.09 32.162 0.143 7.46 2.05 14.48
1/15/2023 8:15:00 PM 0.07 32.126 0.143 7.46 2.11 14.48
1/15/2023 8:30:00 PM 0.04 32.072 0.143 7.46 2.1 14.49
1/15/2023 8:45:00 PM 0.02 32.036 0.143 7.46 2.06 14.5
1/15/2023 9:00:00 PM 0 32 0.144 7.46 2.08 14.5
1/15/2023 9:15:00 PM -0.02 31.964 0.144 7.44 2.15 14.51
1/15/2023 9:30:00 PM -0.03 31.946 0.144 7.45 2.23 14.52
1/15/2023 9:45:00 PM -0.04 31.928 0.144 7.47 2.13 14.52
1/15/2023 10:00:00 PM -0.05 31.91 0.144 7.47 2.12 14.53
1/15/2023 10:15:00 PM -0.05 31.91 0.144 7.46 2.22 14.54
1/15/2023 10:30:00 PM -0.04 31.928 0.144 7.46 2.09 14.53
1/15/2023 10:45:00 PM -0.02 31.964 0.145 7.45 2.1 14.53
1/15/2023 11:00:00 PM -0.02 31.964 0.145 7.45 2.1 14.53
1/15/2023 11:15:00 PM -0.01 31.982 0.145 7.48 2.12 14.52
1/15/2023 11:30:00 PM 0 32 0.145 7.47 2.19 14.51
1/15/2023 11:45:00 PM 0 32 0.145 7.45 2.16 14.51
1/16/2023 12:00:00 AM 0 32 0.146 7.46 2.2 14.51
1/16/2023 12:15:00 AM 0 32 0.146 7.47 2.18 14.5
1/16/2023 12:30:00 AM 0 32 0.146 7.47 2.19 14.5
1/16/2023 12:45:00 AM -0.01 31.982 0.146 7.47 2.18 14.51
1/16/2023 1:00:00 AM -0.01 31.982 0.146 7.46 2.19 14.5
1/16/2023 1:15:00 AM 0 32 0.146 7.48 2.15 14.5
1/16/2023 1:30:00 AM 0.01 32.018 0.147 7.47 2.1 14.49
1/16/2023 1:45:00 AM 0.01 32.018 0.146 7.46 2.07 14.5
1/16/2023 2:00:00 AM 0 32 0.147 7.47 2.03 14.49
1/16/2023 2:15:00 AM 0.01 32.018 0.147 7.47 2.1 14.49
1/16/2023 2:30:00 AM 0.01 32.018 0.147 7.47 2.18 14.49
1/16/2023 2:45:00 AM 0.01 32.018 0.147 7.47 2.18 14.49
1/16/2023 3:00:00 AM 0.01 32.018 0.147 7.47 2.17 14.48
1/16/2023 3:15:00 AM 0.01 32.018 0.147 7.46 2.14 14.48
1/16/2023 3:30:00 AM 0.01 32.018 0.147 7.47 2.15 14.48
1/16/2023 3:45:00 AM 0 32 0.147 7.47 2.09 14.48
1/16/2023 4:00:00 AM 0.01 32.018 0.148 7.47 2.05 14.48
1/16/2023 4:15:00 AM 0.01 32.018 0.148 7.47 2.13 14.47
1/16/2023 4:30:00 AM 0 32 0.148 7.48 2.09 14.48
1/16/2023 4:45:00 AM -0.01 31.982 0.148 7.47 2.1 14.48
1/16/2023 5:00:00 AM -0.03 31.946 0.148 7.49 2.16 14.48
1/16/2023 5:15:00 AM -0.06 31.892 0.149 7.47 2.04 14.49
1/16/2023 5:30:00 AM -0.06 31.892 0.149 7.46 2.14 14.5
1/16/2023 5:45:00 AM -0.04 31.928 0.15 7.46 2.13 14.5
1/16/2023 6:00:00 AM -0.02 31.964 0.15 7.46 2.13 14.5
1/16/2023 6:15:00 AM -0.02 31.964 0.151 7.48 2.09 14.5
1/16/2023 6:30:00 AM -0.02 31.964 0.151 7.47 2.12 14.5
1/16/2023 6:45:00 AM -0.02 31.964 0.152 7.49 2.17 14.5
1/16/2023 7:00:00 AM -0.02 31.964 0.152 7.49 2.13 14.49
1/16/2023 7:15:00 AM -0.02 31.964 0.152 7.47 2.14 14.48
1/16/2023 7:30:00 AM -0.01 31.982 0.153 7.49 2.22 14.49
1/16/2023 7:45:00 AM -0.02 31.964 0.153 7.49 2.09 14.51
1/16/2023 8:00:00 AM -0.02 31.964 0.152 7.5 2.01 14.54
1/16/2023 8:15:00 AM -0.01 31.982 0.153 7.5 2.01 14.59
1/16/2023 8:30:00 AM -0.01 31.982 0.155 7.52 2.08 14.63
1/16/2023 8:45:00 AM -0.01 31.982 0.156 7.53 2.02 14.68